Provisional Data: West Branch Pine Creek near Galeton, PA


Please select a monitoring station.
Please select start date.
Please select start date.

Toggle Unit: C/F Toggle Unit: C/F
Sample Time Temperature (C) Temperature (F) Specific Conductivity (mS/cm) pH   Turbidity (NTU+) DO (mg/L)
6/3/2022 12:00:00 AM 17.61 63.698 0.051 7.31 1.97 8.66
6/3/2022 12:15:00 AM 17.52 63.536 0.051 7.3 1.96 8.68
6/3/2022 12:30:00 AM 17.44 63.392 0.051 7.31 1.99 8.69
6/3/2022 12:45:00 AM 17.35 63.23 0.051 7.3 1.94 8.71
6/3/2022 1:00:00 AM 17.27 63.086 0.051 7.28 1.93 8.73
6/3/2022 1:15:00 AM 17.18 62.924 0.051 7.3 1.89 8.75
6/3/2022 1:30:00 AM 17.09 62.762 0.051 7.3 1.99 8.77
6/3/2022 1:45:00 AM 17.01 62.618 0.051 7.29 2.09 8.79
6/3/2022 2:00:00 AM 16.93 62.474 0.051 7.3 1.82 8.81
6/3/2022 2:15:00 AM 16.86 62.348 0.052 7.29 1.94 8.82
6/3/2022 2:30:00 AM 16.78 62.204 0.052 7.3 1.94 8.84
6/3/2022 2:45:00 AM 16.7 62.06 0.052 7.3 1.99 8.86
6/3/2022 3:00:00 AM 16.59 61.862 0.052 7.3 1.85 8.88
6/3/2022 3:15:00 AM 16.48 61.664 0.052 7.31 1.86 8.9
6/3/2022 3:30:00 AM 16.37 61.466 0.052 7.3 1.93 8.92
6/3/2022 3:45:00 AM 16.26 61.268 0.052 7.31 1.89 8.94
6/3/2022 4:00:00 AM 16.14 61.052 0.05 7.28 4.08 8.96
6/3/2022 4:15:00 AM 16.03 60.854 0.052 7.3 1.97 8.98
6/3/2022 4:30:00 AM 15.92 60.656 0.052 7.31 1.79 9.01
6/3/2022 4:45:00 AM 15.82 60.476 0.052 7.3 1.87 9.04
6/3/2022 5:00:00 AM 15.7 60.26 0.052 7.3 1.87 9.05
6/3/2022 5:15:00 AM 15.63 60.134 0.052 7.31 1.93 9.08
6/3/2022 5:30:00 AM 15.55 59.99 0.052 7.3 1.9 9.1
6/3/2022 5:45:00 AM 15.46 59.828 0.052 7.31 1.9 9.13
6/3/2022 6:00:00 AM 15.37 59.666 0.052 7.27 1.85 9.15
6/3/2022 6:15:00 AM 15.3 59.54 0.052 7.32 1.9 9.19
6/3/2022 6:30:00 AM 15.23 59.414 0.052 7.32 1.85 9.23
6/3/2022 6:45:00 AM 15.16 59.288 0.052 7.32 1.88 9.28
6/3/2022 7:00:00 AM 15.09 59.162 0.052 7.31 1.87 9.32
6/3/2022 7:15:00 AM 15.02 59.036 0.049 7.31 4 9.35
6/3/2022 7:30:00 AM 14.94 58.892 0.052 7.34 2 9.38
6/3/2022 7:45:00 AM 14.88 58.784 0.052 7.32 1.83 9.41
6/3/2022 8:00:00 AM 14.85 58.73 0.052 7.35 1.78 9.44
6/3/2022 8:15:00 AM 14.85 58.73 0.051 7.36 1.83 9.46
6/3/2022 8:30:00 AM 14.88 58.784 0.051 7.37 1.87 9.49
6/3/2022 8:45:00 AM 14.92 58.856 0.051 7.37 1.85 9.5
6/3/2022 9:00:00 AM 14.97 58.946 0.051 7.36 1.78 9.49
6/3/2022 9:15:00 AM 15.06 59.108 0.051 7.39 1.74 9.52
6/3/2022 9:30:00 AM 15.15 59.27 0.05 7.35 3.85 9.5
6/3/2022 9:45:00 AM 15.26 59.468 0.051 7.36 1.82 9.49
6/3/2022 10:00:00 AM 15.39 59.702 0.051 7.4 1.99 9.49
6/3/2022 10:15:00 AM 15.52 59.936 0.051 7.4 1.99 9.47
6/3/2022 10:30:00 AM 15.67 60.206 0.051 7.38 1.78 9.43
6/3/2022 10:45:00 AM 15.85 60.53 0.051 7.4 1.9 9.42
6/3/2022 11:00:00 AM 16.06 60.908 0.051 7.4 2.02 9.39
6/3/2022 11:15:00 AM 16.27 61.286 0.051 7.42 1.87 9.38
6/3/2022 11:30:00 AM 16.51 61.718 0.051 7.41 1.75 9.33
6/3/2022 11:45:00 AM 16.79 62.222 0.051 7.4 1.84 9.29
6/3/2022 12:00:00 PM 17.08 62.744 0.051 7.42 1.79 9.25
6/3/2022 12:15:00 PM 17.36 63.248 0.051 7.42 1.71 9.21
6/3/2022 12:30:00 PM 17.61 63.698 0.051 7.43 1.77 9.17
6/3/2022 12:45:00 PM 17.94 64.292 0.051 7.43 1.79 9.13
6/3/2022 1:00:00 PM 18.28 64.904 0.051 7.41 1.72 9.08
6/3/2022 1:15:00 PM 18.5 65.3 0.051 7.45 1.84 9.03
6/3/2022 1:30:00 PM 18.74 65.732 0.051 7.44 1.7 9
6/3/2022 1:45:00 PM 18.88 65.984 0.051 7.46 1.78 8.97
6/3/2022 2:00:00 PM 19.06 66.308 0.05 7.47 1.75 8.94
6/3/2022 2:15:00 PM 19.23 66.614 0.05 7.47 1.72 8.91
6/3/2022 2:30:00 PM 19.56 67.208 0.05 7.48 1.83 8.88
6/3/2022 2:45:00 PM 19.69 67.442 0.05 7.43 1.73 8.82
6/3/2022 3:00:00 PM 19.71 67.478 0.05 7.46 1.74 8.77
6/3/2022 3:15:00 PM 19.96 67.92799 0.05 7.45 1.8 8.75
6/3/2022 3:30:00 PM 20.16 68.288 0.05 7.45 1.78 8.7
6/3/2022 3:45:00 PM 20.36 68.648 0.05 7.46 1.82 8.66
6/3/2022 4:00:00 PM 20.54 68.972 0.05 7.47 1.87 8.64
6/3/2022 4:15:00 PM 20.72 69.296 0.05 7.45 1.82 8.61
6/3/2022 4:30:00 PM 20.81 69.458 0.05 7.47 1.84 8.56
6/3/2022 4:45:00 PM 20.9 69.62 0.05 7.46 1.73 8.53
6/3/2022 5:00:00 PM 20.96 69.728 0.05 7.47 1.76 8.51
6/3/2022 5:15:00 PM 21 69.8 0.05 7.47 1.75 8.48
6/3/2022 5:30:00 PM 20.95 69.71 0.049 7.41 3.91 8.43
6/3/2022 5:45:00 PM 20.92 69.656 0.05 7.42 1.82 8.4
6/3/2022 6:00:00 PM 20.87 69.566 0.05 7.43 1.79 8.39
6/3/2022 6:15:00 PM 20.78 69.404 0.05 7.41 1.96 8.37
6/3/2022 6:30:00 PM 20.68 69.224 0.051 7.4 1.81 8.34
6/3/2022 6:45:00 PM 20.57 69.026 0.051 7.4 1.69 8.33
6/3/2022 7:00:00 PM 20.44 68.792 0.051 7.39 1.67 8.33
6/3/2022 7:15:00 PM 20.33 68.594 0.051 7.38 1.85 8.34
6/3/2022 7:30:00 PM 20.19 68.342 0.051 7.38 1.83 8.35
6/3/2022 7:45:00 PM 20.01 68.018 0.051 7.36 1.65 8.36
6/3/2022 8:00:00 PM 19.82 67.676 0.051 7.37 1.72 8.37
6/3/2022 8:15:00 PM 19.62 67.316 0.051 7.36 1.98 8.4
6/3/2022 8:30:00 PM 19.38 66.884 0.051 7.36 1.8 8.41
6/3/2022 8:45:00 PM 19.15 66.47 0.05 7.32 3.76 8.44
6/3/2022 9:00:00 PM 18.93 66.074 0.051 7.34 1.72 8.45
6/3/2022 9:15:00 PM 18.72 65.696 0.051 7.34 1.91 8.48
6/3/2022 9:30:00 PM 18.52 65.336 0.051 7.33 1.85 8.51
6/3/2022 9:45:00 PM 18.32 64.976 0.051 7.33 1.87 8.54
6/3/2022 10:00:00 PM 18.13 64.634 0.05 7.3 4.13 8.58
6/3/2022 10:15:00 PM 17.93 64.274 0.052 7.31 1.88 8.61
6/3/2022 10:30:00 PM 17.74 63.932 0.051 7.31 3.87 8.65
6/3/2022 10:45:00 PM 17.55 63.59 0.049 7.3 3.95 8.68
6/3/2022 11:00:00 PM 17.35 63.23 0.052 7.29 1.86 8.73
6/3/2022 11:15:00 PM 17.15 62.87 0.052 7.31 1.77 8.77
6/3/2022 11:30:00 PM 16.97 62.546 0.052 7.3 1.98 8.8
6/3/2022 11:45:00 PM 16.78 62.204 0.051 7.27 3.91 8.85
6/4/2022 12:00:00 AM 16.61 61.898 0.052 7.31 1.88 8.88
6/4/2022 12:15:00 AM 16.45 61.61 0.051 7.28 3.89 8.91
6/4/2022 12:30:00 AM 16.28 61.304 0.049 7.27 3.81 8.94
6/4/2022 12:45:00 AM 16.12 61.016 0.049 7.27 3.95 8.98
6/4/2022 1:00:00 AM 15.97 60.746 0.049 7.27 3.79 9.02
6/4/2022 1:15:00 AM 15.82 60.476 0.052 7.28 1.82 9.06
6/4/2022 1:30:00 AM 15.67 60.206 0.051 7.28 3.88 9.09
6/4/2022 1:45:00 AM 15.51 59.918 0.052 7.29 1.83 9.12
6/4/2022 2:00:00 AM 15.37 59.666 0.052 7.3 1.98 9.16
6/4/2022 2:15:00 AM 15.23 59.414 0.052 7.27 1.88 9.19
6/4/2022 2:30:00 AM 15.1 59.18 0.052 7.3 1.93 9.22
6/4/2022 2:45:00 AM 14.96 58.928 0.052 7.28 1.8 9.25
6/4/2022 3:00:00 AM 14.83 58.694 0.052 7.29 2.05 9.28
6/4/2022 3:15:00 AM 14.69 58.442 0.052 7.3 1.95 9.31
6/4/2022 3:30:00 AM 14.56 58.208 0.05 7.27 4 9.34
6/4/2022 3:45:00 AM 14.44 57.992 0.05 7.27 3.94 9.38
6/4/2022 4:00:00 AM 14.32 57.776 0.05 7.27 4.02 9.41
6/4/2022 4:15:00 AM 14.2 57.56 0.052 7.27 1.81 9.43
6/4/2022 4:30:00 AM 14.09 57.362 0.052 7.3 1.86 9.46
6/4/2022 4:45:00 AM 13.98 57.164 0.052 7.29 1.78 9.48
6/4/2022 5:00:00 AM 13.98 57.164 0.052 7.29 1.95 9.46
6/4/2022 5:15:00 AM 13.87 56.966 0.052 7.29 1.88 9.48
6/4/2022 5:30:00 AM 13.76 56.768 0.052 7.29 1.9 9.51
6/4/2022 5:45:00 AM 13.65 56.57 0.052 7.29 1.86 9.54
6/4/2022 6:00:00 AM 13.56 56.408 0.052 7.29 2 9.58
6/4/2022 6:15:00 AM 13.46 56.228 0.051 7.28 4.03 9.62
6/4/2022 6:30:00 AM 13.38 56.084 0.05 7.28 3.88 9.67
6/4/2022 6:45:00 AM 13.3 55.94 0.05 7.28 3.8 9.7
6/4/2022 7:00:00 AM 13.23 55.814 0.052 7.29 1.79 9.74
6/4/2022 7:15:00 AM 13.18 55.724 0.049 7.3 3.88 9.78
6/4/2022 7:30:00 AM 13.14 55.652 0.052 7.31 1.83 9.82
6/4/2022 7:45:00 AM 13.1 55.58 0.052 7.33 1.84 9.84
6/4/2022 8:00:00 AM 13.1 55.58 0.052 7.34 1.7 9.87
6/4/2022 8:15:00 AM 13.11 55.598 0.052 7.34 1.78 9.89
6/4/2022 8:30:00 AM 13.16 55.688 0.051 7.33 3.74 9.91
6/4/2022 8:45:00 AM 13.24 55.832 0.052 7.34 1.69 9.92
6/4/2022 9:00:00 AM 13.34 56.012 0.051 7.34 3.84 9.91
6/4/2022 9:15:00 AM 13.47 56.246 0.052 7.37 1.76 9.91
6/4/2022 9:30:00 AM 13.6 56.48 0.052 7.38 1.65 9.89
6/4/2022 9:45:00 AM 13.74 56.732 0.05 7.35 3.71 9.86
6/4/2022 10:00:00 AM 13.9 57.02 0.051 7.37 1.66 9.86
6/4/2022 10:15:00 AM 14.06 57.308 0.051 7.39 1.7 9.82
6/4/2022 10:30:00 AM 14.25 57.65 0.051 7.39 10.69 9.81
6/4/2022 10:45:00 AM 14.45 58.01 0.051 7.39 1.72 9.76
6/4/2022 11:00:00 AM 14.67 58.406 0.051 7.41 1.71 9.73
6/4/2022 11:15:00 AM 14.9 58.82 0.051 7.4 1.8 9.7
6/4/2022 11:30:00 AM 15.16 59.288 0.051 7.4 1.77 9.66
6/4/2022 11:45:00 AM 15.44 59.792 0.051 7.4 1.77 9.6
6/4/2022 12:00:00 PM 15.75 60.35 0.051 7.4 1.77 9.55
6/4/2022 12:15:00 PM 16.06 60.908 0.051 7.41 1.72 9.5
6/4/2022 12:30:00 PM 16.38 61.484 0.051 7.42 1.65 9.46
6/4/2022 12:45:00 PM 16.69 62.042 0.051 7.43 1.81 9.41
6/4/2022 1:00:00 PM 17.01 62.618 0.051 7.44 1.7 9.36
6/4/2022 1:15:00 PM 17.32 63.176 0.051 7.43 1.73 9.3
6/4/2022 1:30:00 PM 17.61 63.698 0.051 7.43 1.78 9.25
6/4/2022 1:45:00 PM 17.91 64.238 0.048 7.44 1.76 9.2
6/4/2022 2:00:00 PM 18.2 64.76 0.051 7.44 1.73 9.15
6/4/2022 2:15:00 PM 18.45 65.21 0.051 7.45 1.76 9.1
6/4/2022 2:30:00 PM 18.73 65.714 0.051 7.45 1.71 9.04
6/4/2022 2:45:00 PM 18.99 66.182 0.051 7.45 1.75 8.99
6/4/2022 3:00:00 PM 19.25 66.65 0.051 7.46 1.72 8.94
6/4/2022 3:15:00 PM 19.46 67.028 0.051 7.46 1.68 8.9
6/4/2022 3:30:00 PM 19.65 67.37 0.051 7.45 1.73 8.86
6/4/2022 3:45:00 PM 19.81 67.658 0.051 7.44 1.76 8.81
6/4/2022 4:00:00 PM 19.92 67.856 0.051 7.47 1.78 8.78
6/4/2022 4:15:00 PM 20 68 0.051 7.47 1.78 8.75
6/4/2022 4:30:00 PM 20.06 68.108 0.051 7.46 1.78 8.71
6/4/2022 4:45:00 PM 20.06 68.108 0.051 7.44 1.85 8.69
6/4/2022 5:00:00 PM 20.05 68.09 0.051 7.45 1.82 8.67
6/4/2022 5:15:00 PM 20.02 68.036 0.051 7.45 1.67 8.64
6/4/2022 5:30:00 PM 19.97 67.946 0.051 7.44 1.76 8.62
6/4/2022 5:45:00 PM 19.88 67.784 0.051 7.42 1.79 8.6
6/4/2022 6:00:00 PM 19.73 67.514 0.051 7.42 1.71 8.58
6/4/2022 6:15:00 PM 19.59 67.262 0.051 7.41 1.85 8.57
6/4/2022 6:30:00 PM 19.45 67.01 0.051 7.39 1.85 8.55
6/4/2022 6:45:00 PM 19.32 66.776 0.051 7.39 1.73 8.55
6/4/2022 7:00:00 PM 19.2 66.56 0.051 7.38 1.8 8.55
6/4/2022 7:15:00 PM 19.06 66.308 0.051 7.37 1.72 8.56
6/4/2022 7:30:00 PM 18.9 66.02 0.051 7.38 1.78 8.58
6/4/2022 7:45:00 PM 18.75 65.75 0.051 7.38 1.75 8.61
6/4/2022 8:00:00 PM 18.56 65.408 0.049 7.34 3.64 8.61
6/4/2022 8:15:00 PM 18.36 65.048 0.051 7.35 2.37 8.64
6/4/2022 8:30:00 PM 18.13 64.634 0.051 7.36 1.82 8.67
6/4/2022 8:45:00 PM 17.88 64.184 0.049 7.32 3.59 8.68
6/4/2022 9:00:00 PM 17.65 63.77 0.052 7.32 1.75 8.71
6/4/2022 9:15:00 PM 17.46 63.428 0.052 7.35 1.83 8.75
6/4/2022 9:30:00 PM 17.27 63.086 0.052 7.34 1.89 8.78
6/4/2022 9:45:00 PM 17.08 62.744 0.051 7.29 3.58 8.8
6/4/2022 10:00:00 PM 16.9 62.42 0.052 7.33 1.95 8.85
6/4/2022 10:15:00 PM 16.72 62.096 0.051 7.29 3.67 8.87
6/4/2022 10:30:00 PM 16.52 61.736 0.052 7.32 1.9 8.91
6/4/2022 10:45:00 PM 16.34 61.412 0.051 7.28 3.68 8.95
6/4/2022 11:00:00 PM 16.14 61.052 0.052 7.32 1.89 9
6/4/2022 11:15:00 PM 15.94 60.692 0.052 7.32 1.84 9.04
6/4/2022 11:30:00 PM 15.75 60.35 0.052 7.31 2.21 9.08
6/4/2022 11:45:00 PM 15.56 60.008 0.052 7.31 1.83 9.13
6/5/2022 12:00:00 AM 15.4 59.72 0.052 7.28 1.86 9.16
6/5/2022 12:15:00 AM 15.24 59.432 0.052 7.3 2.32 9.2
6/5/2022 12:30:00 AM 15.08 59.144 0.052 7.31 1.81 9.23
6/5/2022 12:45:00 AM 14.92 58.856 0.052 7.25 1.9 9.27
6/5/2022 1:00:00 AM 14.77 58.586 0.052 7.3 1.83 9.31
6/5/2022 1:15:00 AM 14.62 58.316 0.051 7.26 3.62 9.35
6/5/2022 1:30:00 AM 14.48 58.064 0.05 7.26 3.84 9.38
6/5/2022 1:45:00 AM 14.34 57.812 0.052 7.28 1.93 9.4
6/5/2022 2:00:00 AM 14.22 57.596 0.052 7.3 1.71 9.43
6/5/2022 2:15:00 AM 14.1 57.38 0.051 7.26 3.72 9.46
6/5/2022 2:30:00 AM 13.97 57.146 0.052 7.29 1.84 9.48
6/5/2022 2:45:00 AM 13.94 57.092 0.052 7.3 1.77 9.47
6/5/2022 3:00:00 AM 13.81 56.858 0.052 7.29 1.67 9.5
6/5/2022 3:15:00 AM 13.68 56.624 0.052 7.29 1.74 9.54
6/5/2022 3:30:00 AM 13.55 56.39 0.052 7.3 1.75 9.58
6/5/2022 3:45:00 AM 13.43 56.174 0.052 7.27 1.7 9.6
6/5/2022 4:00:00 AM 13.3 55.94 0.05 7.27 3.57 9.63
6/5/2022 4:15:00 AM 13.19 55.742 0.053 7.27 1.76 9.67
6/5/2022 4:30:00 AM 13.06 55.508 0.053 7.29 1.71 9.69
6/5/2022 4:45:00 AM 12.94 55.292 0.053 7.29 1.74 9.73
6/5/2022 5:00:00 AM 12.84 55.112 0.053 7.29 1.76 9.75
6/5/2022 5:15:00 AM 12.73 54.914 0.053 7.29 1.78 9.77
6/5/2022 5:30:00 AM 12.63 54.734 0.053 7.29 1.79 9.8
6/5/2022 5:45:00 AM 12.53 54.554 0.053 7.27 1.71 9.84
6/5/2022 6:00:00 AM 12.44 54.392 0.053 7.29 1.69 9.88
6/5/2022 6:15:00 AM 12.34 54.212 0.053 7.28 1.63 9.91
6/5/2022 6:30:00 AM 12.25 54.05 0.053 7.29 2 9.96
6/5/2022 6:45:00 AM 12.18 53.924 0.052 7.29 1.71 9.99
6/5/2022 7:00:00 AM 12.12 53.816 0.051 7.27 3.54 10.04
6/5/2022 7:15:00 AM 12.08 53.744 0.052 7.28 1.64 10.07
6/5/2022 7:30:00 AM 12.04 53.672 0.052 7.32 1.61 10.12
6/5/2022 7:45:00 AM 12.02 53.636 0.051 7.29 3.33 10.15
6/5/2022 8:00:00 AM 12 53.6 0.052 7.3 1.71 10.18
6/5/2022 8:15:00 AM 12.02 53.636 0.052 7.34 1.58 10.2
6/5/2022 8:30:00 AM 12.06 53.708 0.052 7.34 1.61 10.22
6/5/2022 8:45:00 AM 12.15 53.87 0.052 7.36 1.6 10.26
6/5/2022 9:00:00 AM 12.25 54.05 0.051 7.33 3.56 10.26
6/5/2022 9:15:00 AM 12.37 54.266 0.052 7.36 1.66 10.26
6/5/2022 9:30:00 AM 12.53 54.554 0.051 7.39 1.56 10.26
6/5/2022 9:45:00 AM 12.67 54.806 0.051 7.38 1.66 10.25
6/5/2022 10:00:00 AM 12.79 55.022 0.051 7.4 1.62 10.26
6/5/2022 10:15:00 AM 12.96 55.328 0.049 7.37 3.99 10.24
6/5/2022 10:30:00 AM 13.12 55.616 0.051 7.42 1.68 10.2
6/5/2022 10:45:00 AM 13.28 55.904 0.05 7.39 3.37 10.17
6/5/2022 11:00:00 AM 13.43 56.174 0.051 7.43 1.61 10.14
6/5/2022 11:15:00 AM 13.64 56.552 0.044 7.4 4.73 10.1
6/5/2022 11:30:00 AM 13.92 57.056 0.051 7.43 1.61 10.04
6/5/2022 11:45:00 AM 14.22 57.596 0.051 7.42 1.65 9.99
6/5/2022 12:00:00 PM 14.51 58.118 0.051 7.44 1.6 9.92
6/5/2022 12:15:00 PM 14.86 58.748 0.051 7.44 1.59 9.86
6/5/2022 12:30:00 PM 15.2 59.36 0.05 7.43 3.49 9.81
6/5/2022 12:45:00 PM 15.46 59.828 0.048 7.42 3.49 9.74
6/5/2022 1:00:00 PM 15.79 60.422 0.051 7.45 1.66 9.67
6/5/2022 1:15:00 PM 16.14 61.052 0.051 7.46 1.67 9.63
6/5/2022 1:30:00 PM 16.48 61.664 0.051 7.46 1.56 9.56
6/5/2022 1:45:00 PM 16.77 62.186 0.051 7.47 1.6 9.49
6/5/2022 2:00:00 PM 17.09 62.762 0.051 7.47 1.63 9.43
6/5/2022 2:15:00 PM 17.41 63.338 0.051 7.47 1.66 9.35
6/5/2022 2:30:00 PM 17.68 63.824 0.051 7.46 1.55 9.29
6/5/2022 2:45:00 PM 17.98 64.364 0.051 7.46 1.62 9.23
6/5/2022 3:00:00 PM 18.28 64.904 0.05 7.44 3.24 9.17
6/5/2022 3:15:00 PM 18.54 65.372 0.051 7.48 1.76 9.11
6/5/2022 3:30:00 PM 18.73 65.714 0.051 7.47 1.66 9.06
6/5/2022 3:45:00 PM 18.89 66.002 0.051 7.46 1.55 9.01
6/5/2022 4:00:00 PM 19.05 66.29 0.051 7.47 1.53 8.97
6/5/2022 4:15:00 PM 19.16 66.488 0.051 7.46 1.59 8.92
6/5/2022 4:30:00 PM 19.25 66.65 0.051 7.46 1.66 8.9
6/5/2022 4:45:00 PM 19.28 66.704 0.051 7.45 1.6 8.88
6/5/2022 5:00:00 PM 19.31 66.758 0.051 7.46 1.66 8.84
6/5/2022 5:15:00 PM 19.31 66.758 0.051 7.46 1.53 8.84
6/5/2022 5:30:00 PM 19.24 66.632 0.051 7.46 1.59 8.8
6/5/2022 5:45:00 PM 19.19 66.542 0.051 7.44 1.57 8.77
6/5/2022 6:00:00 PM 19.11 66.398 0.051 7.41 1.73 8.76
6/5/2022 6:15:00 PM 19.02 66.236 0.051 7.41 1.74 8.72
6/5/2022 6:30:00 PM 18.91 66.038 0.051 7.41 1.6 8.7
6/5/2022 6:45:00 PM 18.8 65.84 0.051 7.4 1.61 8.7
6/5/2022 7:00:00 PM 18.72 65.696 0.051 7.38 1.72 8.7
6/5/2022 7:15:00 PM 18.64 65.552 0.051 7.39 1.69 8.68
6/5/2022 7:30:00 PM 18.53 65.354 0.05 7.35 3.38 8.7
6/5/2022 7:45:00 PM 18.4 65.12 0.051 7.38 1.54 8.71
6/5/2022 8:00:00 PM 18.27 64.886 0.051 7.38 1.6 8.73
6/5/2022 8:15:00 PM 18.09 64.562 0.051 7.35 1.6 8.74
6/5/2022 8:30:00 PM 17.91 64.238 0.051 7.35 1.64 8.73
6/5/2022 8:45:00 PM 17.73 63.914 0.051 7.36 1.62 8.74
6/5/2022 9:00:00 PM 17.56 63.608 0.051 7.34 1.59 8.76
6/5/2022 9:15:00 PM 17.41 63.338 0.052 7.32 1.72 8.75
6/5/2022 9:30:00 PM 17.28 63.104 0.052 7.33 1.79 8.75
6/5/2022 9:45:00 PM 17.16 62.888 0.05 7.3 3.68 8.81
6/5/2022 10:00:00 PM 17.03 62.654 0.052 7.33 1.74 8.81
6/5/2022 10:15:00 PM 16.9 62.42 0.052 7.29 1.74 8.85
6/5/2022 10:30:00 PM 16.77 62.186 0.052 7.32 1.73 8.87
6/5/2022 10:45:00 PM 16.65 61.97 0.052 7.31 1.65 8.89
6/5/2022 11:00:00 PM 16.53 61.754 0.049 7.29 3.54 8.92
6/5/2022 11:15:00 PM 16.41 61.538 0.052 7.31 1.71 8.93
6/5/2022 11:30:00 PM 16.3 61.34 0.052 7.28 1.83 8.95
6/5/2022 11:45:00 PM 16.19 61.142 0.052 7.31 1.68 8.97
6/6/2022 12:00:00 AM 16.07 60.926 0.052 7.31 1.75 8.98
6/6/2022 12:15:00 AM 15.96 60.728 0.051 7.27 3.58 9.04
6/6/2022 12:30:00 AM 15.87 60.566 0.049 7.27 3.56 9.06
6/6/2022 12:45:00 AM 15.78 60.404 0.049 7.28 3.6 9.08
6/6/2022 1:00:00 AM 15.69 60.242 0.052 7.29 1.8 9.05
6/6/2022 1:15:00 AM 15.59 60.062 0.052 7.29 1.67 9.1
6/6/2022 1:30:00 AM 15.5 59.9 0.052 7.29 1.77 9.13
6/6/2022 1:45:00 AM 15.41 59.738 0.051 7.26 3.49 9.16
6/6/2022 2:00:00 AM 15.32 59.576 0.052 7.29 1.79 9.15
6/6/2022 2:15:00 AM 15.22 59.396 0.051 7.26 3.63 9.19
6/6/2022 2:30:00 AM 15.11 59.198 0.052 7.29 1.73 9.21
6/6/2022 2:45:00 AM 15 59 0.051 7.25 3.59 9.25
6/6/2022 3:00:00 AM 14.89 58.802 0.053 7.28 1.71 9.27
6/6/2022 3:15:00 AM 14.79 58.622 0.053 7.28 1.77 9.28
6/6/2022 3:30:00 AM 14.67 58.406 0.053 7.28 1.69 9.3
6/6/2022 3:45:00 AM 14.56 58.208 0.053 7.28 1.73 9.32
6/6/2022 4:00:00 AM 14.44 57.992 0.053 7.29 1.68 9.36
6/6/2022 4:15:00 AM 14.32 57.776 0.053 7.27 1.77 9.39
6/6/2022 4:30:00 AM 14.2 57.56 0.053 7.28 1.81 9.41
6/6/2022 4:45:00 AM 14.09 57.362 0.053 7.27 1.68 9.44
6/6/2022 5:00:00 AM 13.97 57.146 0.053 7.28 1.72 9.41
6/6/2022 5:15:00 AM 13.86 56.948 0.053 7.26 1.68 9.46
6/6/2022 5:30:00 AM 13.75 56.75 0.053 7.29 1.71 9.5
6/6/2022 5:45:00 AM 13.65 56.57 0.053 7.28 1.65 9.51
6/6/2022 6:00:00 AM 13.55 56.39 0.053 7.29 1.71 9.57
6/6/2022 6:15:00 AM 13.45 56.21 0.051 7.26 3.54 9.64
6/6/2022 6:30:00 AM 13.37 56.066 0.053 7.3 1.67 9.65
6/6/2022 6:45:00 AM 13.3 55.94 0.053 7.3 1.66 9.65
6/6/2022 7:00:00 AM 13.24 55.832 0.053 7.31 1.63 9.72
6/6/2022 7:15:00 AM 13.19 55.742 0.051 7.29 3.78 9.8
6/6/2022 7:30:00 AM 13.15 55.67 0.053 7.33 1.61 9.79
6/6/2022 7:45:00 AM 13.13 55.634 0.053 7.31 1.65 9.83
6/6/2022 8:00:00 AM 13.12 55.616 0.053 7.34 2.09 9.87
6/6/2022 8:15:00 AM 13.14 55.652 0.052 7.35 1.69 9.9
6/6/2022 8:30:00 AM 13.18 55.724 0.051 7.31 3.55 9.91
6/6/2022 8:45:00 AM 13.26 55.868 0.052 7.36 1.65 9.87
6/6/2022 9:00:00 AM 13.36 56.048 0.052 7.35 1.71 9.9
6/6/2022 9:15:00 AM 13.48 56.264 0.052 7.36 1.66 9.84
6/6/2022 9:30:00 AM 13.62 56.516 0.051 7.34 3.43 9.89
6/6/2022 9:45:00 AM 13.8 56.84 0.049 7.36 6.1 9.88
6/6/2022 10:00:00 AM 14 57.2 0.049 7.37 3.51 9.87
6/6/2022 10:15:00 AM 14.2 57.56 0.052 7.39 1.67 9.82
6/6/2022 10:30:00 AM 14.43 57.974 0.05 7.38 3.49 9.79
6/6/2022 10:45:00 AM 14.65 58.37 0.052 7.4 1.65 9.71
6/6/2022 11:00:00 AM 14.9 58.82 0.052 7.41 1.75 9.72
6/6/2022 11:15:00 AM 15.19 59.342 0.052 7.42 1.67 9.68
6/6/2022 11:30:00 AM 15.5 59.9 0.052 7.43 1.74 9.65
6/6/2022 11:45:00 AM 15.83 60.494 0.052 7.43 1.66 9.57
6/6/2022 12:00:00 PM 16.17 61.106 0.051 7.44 1.7 9.56
6/6/2022 12:15:00 PM 16.52 61.736 0.051 7.44 1.72 9.49
6/6/2022 12:30:00 PM 16.89 62.402 0.051 7.44 1.62 9.42
6/6/2022 12:45:00 PM 17.25 63.05 0.051 7.45 1.68 9.36
6/6/2022 1:00:00 PM 17.64 63.752 0.051 7.46 1.7 9.32
6/6/2022 1:15:00 PM 18.04 64.472 0.051 7.46 1.61 9.23
6/6/2022 1:30:00 PM 18.41 65.138 0.051 7.46 1.63 9.15
6/6/2022 1:45:00 PM 18.61 65.498 0.051 7.46 1.75 9.12
6/6/2022 2:00:00 PM 18.84 65.912 0.051 7.47 1.7 9.07
6/6/2022 2:15:00 PM 19.07 66.326 0.051 7.47 1.63 8.99
6/6/2022 2:30:00 PM 19.21 66.578 0.051 7.49 1.68 8.97
6/6/2022 2:45:00 PM 19.25 66.65 0.051 7.45 1.64 8.94
6/6/2022 3:00:00 PM 19.35 66.83 0.051 7.49 1.74 8.94
6/6/2022 3:15:00 PM 19.41 66.938 0.051 7.48 1.61 8.89
6/6/2022 3:30:00 PM 19.34 66.812 0.051 7.47 1.67 8.79
6/6/2022 3:45:00 PM 19.37 66.866 0.051 7.47 1.72 8.83
6/6/2022 4:00:00 PM 19.54 67.172 0.051 7.48 1.81 8.84
6/6/2022 4:15:00 PM 19.75 67.55 0.051 7.48 1.68 8.78
6/6/2022 4:30:00 PM 19.83 67.694 0.051 7.48 1.66 8.79
6/6/2022 4:45:00 PM 19.86 67.748 0.051 7.49 1.92 8.8
6/6/2022 5:00:00 PM 19.84 67.712 0.051 7.49 1.71 8.79
6/6/2022 5:15:00 PM 19.86 67.748 0.051 7.5 1.67 8.78
6/6/2022 5:30:00 PM 19.84 67.712 0.051 7.49 1.62 8.75
6/6/2022 5:45:00 PM 19.81 67.658 0.051 7.48 1.75 8.7
6/6/2022 6:00:00 PM 19.81 67.658 0.051 7.47 1.64 8.67
6/6/2022 6:15:00 PM 19.81 67.658 0.051 7.46 1.64 8.64
6/6/2022 6:30:00 PM 19.77 67.586 0.051 7.44 1.63 8.59
6/6/2022 6:45:00 PM 19.71 67.478 0.051 7.42 1.68 8.58
6/6/2022 7:00:00 PM 19.62 67.316 0.051 7.43 1.65 8.59
6/6/2022 7:15:00 PM 19.52 67.136 0.051 7.42 1.66 8.57
6/6/2022 7:30:00 PM 19.41 66.938 0.051 7.41 1.67 8.57
6/6/2022 7:45:00 PM 19.3 66.74 0.051 7.39 1.67 8.56
6/6/2022 8:00:00 PM 19.17 66.506 0.052 7.39 1.61 8.57
6/6/2022 8:15:00 PM 19.05 66.29 0.052 7.38 1.74 8.54
6/6/2022 8:30:00 PM 18.96 66.128 0.052 7.34 1.62 8.52
6/6/2022 8:45:00 PM 18.86 65.948 0.052 7.34 1.72 8.52
6/6/2022 9:00:00 PM 18.73 65.714 0.052 7.34 1.74 8.48
6/6/2022 9:15:00 PM 18.58 65.444 0.052 7.33 1.72 8.5
6/6/2022 9:30:00 PM 18.44 65.192 0.052 7.3 2.05 8.54
6/6/2022 9:45:00 PM 18.32 64.976 0.052 7.32 1.7 8.55
6/6/2022 10:00:00 PM 18.19 64.742 0.052 7.3 1.81 8.52
6/6/2022 10:15:00 PM 18.08 64.544 0.052 7.31 2.15 8.59
6/6/2022 10:30:00 PM 17.96 64.328 0.053 7.31 1.99 8.61
6/6/2022 10:45:00 PM 17.84 64.112 0.053 7.3 1.73 8.65
6/6/2022 11:00:00 PM 17.74 63.932 0.053 7.31 1.76 8.62
6/6/2022 11:15:00 PM 17.63 63.734 0.053 7.3 1.73 8.66
6/6/2022 11:30:00 PM 17.53 63.554 0.053 7.3 1.78 8.63
6/6/2022 11:45:00 PM 17.42 63.356 0.052 7.28 3.88 8.71
6/7/2022 12:00:00 AM 17.32 63.176 0.053 7.3 1.71 8.68
6/7/2022 12:15:00 AM 17.21 62.978 0.053 7.3 1.7 8.65
6/7/2022 12:30:00 AM 17.12 62.816 0.053 7.3 1.94 8.67
6/7/2022 12:45:00 AM 17.03 62.654 0.053 7.3 1.91 8.74
6/7/2022 1:00:00 AM 16.95 62.51 0.052 7.3 1.7 8.71
6/7/2022 1:15:00 AM 16.86 62.348 0.053 7.29 1.66 8.75
6/7/2022 1:30:00 AM 16.78 62.204 0.053 7.29 1.68 8.82
6/7/2022 1:45:00 AM 16.71 62.078 0.053 7.29 1.75 8.86
6/7/2022 2:00:00 AM 16.64 61.952 0.053 7.29 1.9 8.88
6/7/2022 2:15:00 AM 16.57 61.826 0.052 7.3 1.65 8.9
6/7/2022 2:30:00 AM 16.51 61.718 0.053 7.3 2.76 8.91
6/7/2022 2:45:00 AM 16.44 61.592 0.053 7.3 1.82 8.92
6/7/2022 3:00:00 AM 16.37 61.466 0.053 7.28 1.72 8.91
6/7/2022 3:15:00 AM 16.3 61.34 0.053 7.31 1.77 8.96
6/7/2022 3:30:00 AM 16.24 61.232 0.053 7.3 1.86 8.9
6/7/2022 3:45:00 AM 16.17 61.106 0.053 7.3 1.8 8.96
6/7/2022 4:00:00 AM 16.1 60.98 0.053 7.31 1.86 8.95
6/7/2022 4:15:00 AM 16.04 60.872 0.053 7.31 1.85 9
6/7/2022 4:30:00 AM 15.98 60.764 0.053 7.3 1.84 8.97
6/7/2022 4:45:00 AM 15.92 60.656 0.053 7.31 1.65 8.97
6/7/2022 5:00:00 AM 15.87 60.566 0.052 7.28 3.68 9.04
6/7/2022 5:15:00 AM 15.82 60.476 0.053 7.28 1.75 9
6/7/2022 5:30:00 AM 15.77 60.386 0.053 7.29 1.78 8.96
6/7/2022 5:45:00 AM 15.73 60.314 0.053 7.29 2.04 9.05
6/7/2022 6:00:00 AM 15.69 60.242 0.053 7.29 1.73 9.07
6/7/2022 6:15:00 AM 15.65 60.17 0.053 7.3 1.63 9.09
6/7/2022 6:30:00 AM 15.61 60.098 0.053 7.32 1.73 9.16
6/7/2022 6:45:00 AM 15.58 60.044 0.053 7.32 1.73 9.21
6/7/2022 7:00:00 AM 15.57 60.026 0.053 7.35 1.75 9.24
6/7/2022 7:15:00 AM 15.54 59.972 0.053 7.35 1.71 9.24
6/7/2022 7:30:00 AM 15.52 59.936 0.053 7.36 1.68 9.29
6/7/2022 7:45:00 AM 15.51 59.918 0.053 7.36 1.68 9.32
6/7/2022 8:00:00 AM 15.49 59.882 0.053 7.36 1.69 9.3
6/7/2022 8:15:00 AM 15.48 59.864 0.053 7.37 1.62 9.32
6/7/2022 8:30:00 AM 15.47 59.846 0.053 7.37 1.93 9.29
6/7/2022 8:45:00 AM 15.47 59.846 0.053 7.36 1.73 9.39
6/7/2022 9:00:00 AM 15.47 59.846 0.053 7.38 1.68 9.37
6/7/2022 9:15:00 AM 15.47 59.846 0.053 7.38 1.57 9.38
6/7/2022 9:30:00 AM 15.49 59.882 0.053 7.39 1.63 9.44
6/7/2022 9:45:00 AM 15.5 59.9 0.053 7.39 1.73 9.45
6/7/2022 10:00:00 AM 15.51 59.918 0.051 7.37 3.63 9.46
6/7/2022 10:15:00 AM 15.53 59.954 0.05 7.38 3.36 9.47
6/7/2022 10:30:00 AM 15.55 59.99 0.052 7.41 1.88 9.48
6/7/2022 10:45:00 AM 15.62 60.116 0.051 7.4 3.38 9.51
6/7/2022 11:00:00 AM 15.69 60.242 0.052 7.42 1.77 9.5
6/7/2022 11:15:00 AM 15.73 60.314 0.052 7.4 1.71 9.5
6/7/2022 11:30:00 AM 15.79 60.422 0.052 7.44 1.73 9.52
6/7/2022 11:45:00 AM 15.86 60.548 0.052 7.45 1.73 9.53
6/7/2022 12:00:00 PM 15.9 60.62 0.051 7.43 3.72 9.5
6/7/2022 12:15:00 PM 15.91 60.638 0.052 7.45 2.38 9.49
6/7/2022 12:30:00 PM 15.9 60.62 0.05 7.4 4.43 9.44
6/7/2022 12:45:00 PM 15.91 60.638 0.051 7.4 1.79 9.42
6/7/2022 1:00:00 PM 15.96 60.728 0.051 7.44 2.04 9.44
6/7/2022 1:15:00 PM 16.02 60.836 0.051 7.44 2.44 9.44
6/7/2022 1:30:00 PM 16.07 60.926 0.051 7.42 1.83 9.44
6/7/2022 1:45:00 PM 16.08 60.944 0.049 7.41 3.7 9.44
6/7/2022 2:00:00 PM 16.07 60.926 0.051 7.43 3.85 9.43
6/7/2022 2:15:00 PM 16.09 60.962 0.051 7.43 1.92 9.44
6/7/2022 2:30:00 PM 16.11 60.998 0.049 7.4 8.37 9.42
6/7/2022 2:45:00 PM 16.14 61.052 0.051 7.43 1.97 9.41
6/7/2022 3:00:00 PM 16.17 61.106 0.05 7.43 2.09 9.4
6/7/2022 3:15:00 PM 16.19 61.142 0.05 7.43 2.1 9.4
6/7/2022 3:30:00 PM 16.21 61.178 0.05 7.41 2.11 9.38
6/7/2022 3:45:00 PM 16.21 61.178 0.05 7.42 1.92 9.35
6/7/2022 4:00:00 PM 16.2 61.16 0.05 7.41 1.92 9.32
6/7/2022 4:15:00 PM 16.19 61.142 0.051 7.4 2.02 9.28
6/7/2022 4:30:00 PM 16.18 61.124 0.049 7.37 3.76 9.27
6/7/2022 4:45:00 PM 16.17 61.106 0.051 7.39 1.88 9.26
6/7/2022 5:00:00 PM 16.17 61.106 0.051 7.39 2.06 9.26
6/7/2022 5:15:00 PM 16.15 61.07 0.051 7.38 2.04 9.25
6/7/2022 5:30:00 PM 16.12 61.016 0.051 7.36 2 9.24
6/7/2022 5:45:00 PM 16.11 60.998 0.051 7.37 1.92 9.24
6/7/2022 6:00:00 PM 16.09 60.962 0.051 7.37 2.04 9.23
6/7/2022 6:15:00 PM 16.08 60.944 0.051 7.37 1.95 9.23
6/7/2022 6:30:00 PM 16.06 60.908 0.051 7.36 2 9.22
6/7/2022 6:45:00 PM 16.04 60.872 0.052 7.34 2.01 9.21
6/7/2022 7:00:00 PM 16.02 60.836 0.052 7.36 2.07 9.21
6/7/2022 7:15:00 PM 16 60.8 0.052 7.36 2.15 9.2
6/7/2022 7:30:00 PM 15.98 60.764 0.052 7.33 1.97 9.19
6/7/2022 7:45:00 PM 15.95 60.71 0.052 7.34 2.02 9.19
6/7/2022 8:00:00 PM 15.92 60.656 0.052 7.34 2.03 9.18
6/7/2022 8:15:00 PM 15.89 60.602 0.052 7.33 2 9.18
6/7/2022 8:30:00 PM 15.85 60.53 0.052 7.31 1.93 9.16
6/7/2022 8:45:00 PM 15.82 60.476 0.051 7.29 3.93 9.15
6/7/2022 9:00:00 PM 15.78 60.404 0.052 7.29 2.01 9.14
6/7/2022 9:15:00 PM 15.75 60.35 0.052 7.3 2.05 9.14
6/7/2022 9:30:00 PM 15.72 60.296 0.052 7.29 1.99 9.14
6/7/2022 9:45:00 PM 15.68 60.224 0.052 7.28 2.08 9.14
6/7/2022 10:00:00 PM 15.64 60.152 0.052 7.26 2.08 9.14
6/7/2022 10:15:00 PM 15.61 60.098 0.052 7.28 2.06 9.14
6/7/2022 10:30:00 PM 15.58 60.044 0.052 7.27 2.01 9.15
6/7/2022 10:45:00 PM 15.55 59.99 0.052 7.26 2.08 9.15
6/7/2022 11:00:00 PM 15.52 59.936 0.052 7.26 1.99 9.15
6/7/2022 11:15:00 PM 15.49 59.882 0.052 7.26 1.98 9.17
6/7/2022 11:30:00 PM 15.45 59.81 0.051 7.23 3.92 9.17
6/7/2022 11:45:00 PM 15.42 59.756 0.052 7.25 1.96 9.18
6/8/2022 12:00:00 AM 15.39 59.702 0.051 7.23 3.85 9.19
6/8/2022 12:15:00 AM 15.36 59.648 0.052 7.25 1.96 9.2
6/8/2022 12:30:00 AM 15.33 59.594 0.052 7.25 2.08 9.21
6/8/2022 12:45:00 AM 15.29 59.522 0.053 7.25 1.99 9.21
6/8/2022 1:00:00 AM 15.24 59.432 0.051 7.22 4.08 9.22
6/8/2022 1:15:00 AM 15.19 59.342 0.053 7.25 2.19 9.23
6/8/2022 1:30:00 AM 15.15 59.27 0.053 7.24 1.95 9.24
6/8/2022 1:45:00 AM 15.1 59.18 0.053 7.27 1.92 9.26
6/8/2022 2:00:00 AM 15.04 59.072 0.053 7.27 1.93 9.26
6/8/2022 2:15:00 AM 14.98 58.964 0.053 7.28 1.97 9.28
6/8/2022 2:30:00 AM 14.91 58.838 0.051 7.26 3.8 9.3
6/8/2022 2:45:00 AM 14.83 58.694 0.053 7.29 2.02 9.31
6/8/2022 3:00:00 AM 14.76 58.568 0.053 7.3 1.91 9.33
6/8/2022 3:15:00 AM 14.68 58.424 0.053 7.3 1.9 9.34
6/8/2022 3:30:00 AM 14.6 58.28 0.053 7.28 1.93 9.36
6/8/2022 3:45:00 AM 14.52 58.136 0.053 7.3 1.92 9.38
6/8/2022 4:00:00 AM 14.45 58.01 0.053 7.3 1.92 9.4
6/8/2022 4:15:00 AM 14.37 57.866 0.053 7.3 1.89 9.42
6/8/2022 4:30:00 AM 14.31 57.758 0.051 7.27 3.75 9.43
6/8/2022 4:45:00 AM 14.25 57.65 0.053 7.3 1.91 9.44
6/8/2022 5:00:00 AM 14.21 57.578 0.053 7.29 1.96 9.45
6/8/2022 5:15:00 AM 14.18 57.524 0.053 7.27 1.95 9.47
6/8/2022 5:30:00 AM 14.14 57.452 0.053 7.3 1.93 9.48
6/8/2022 5:45:00 AM 14.1 57.38 0.051 7.27 3.83 9.5
6/8/2022 6:00:00 AM 14.06 57.308 0.053 7.3 1.91 9.51
6/8/2022 6:15:00 AM 14.03 57.254 0.053 7.31 1.95 9.54
6/8/2022 6:30:00 AM 14 57.2 0.053 7.31 1.86 9.56
6/8/2022 6:45:00 AM 13.98 57.164 0.053 7.33 1.9 9.59
6/8/2022 7:00:00 AM 13.96 57.128 0.053 7.33 2.05 9.63
6/8/2022 7:15:00 AM 14.06 57.308 0.052 7.34 1.92 9.63
6/8/2022 7:30:00 AM 14.05 57.29 0.052 7.35 1.81 9.67
6/8/2022 7:45:00 AM 14.06 57.308 0.052 7.35 1.94 9.71
6/8/2022 8:00:00 AM 14.06 57.308 0.052 7.37 1.83 9.73
6/8/2022 8:15:00 AM 14.08 57.344 0.052 7.36 1.83 9.76
6/8/2022 8:30:00 AM 14.14 57.452 0.052 7.39 1.85 9.8
6/8/2022 8:45:00 AM 14.19 57.542 0.05 7.36 3.71 9.81
6/8/2022 9:00:00 AM 14.29 57.722 0.052 7.4 1.82 9.83
6/8/2022 9:15:00 AM 14.38 57.884 0.05 7.39 3.71 9.85
6/8/2022 9:30:00 AM 14.4 57.92 0.052 7.41 1.84 9.83
6/8/2022 9:45:00 AM 14.52 58.136 0.052 7.43 1.85 9.83
6/8/2022 10:00:00 AM 14.65 58.37 0.052 7.44 1.87 9.8
6/8/2022 10:15:00 AM 14.77 58.586 0.052 7.44 1.78 9.77
6/8/2022 10:30:00 AM 14.89 58.802 0.052 7.42 1.78 9.78
6/8/2022 10:45:00 AM 15 59 0.051 7.46 1.85 9.77
6/8/2022 11:00:00 AM 15.11 59.198 0.051 7.45 1.77 9.75
6/8/2022 11:15:00 AM 15.36 59.648 0.05 7.42 3.58 9.71
6/8/2022 11:30:00 AM 15.66 60.188 0.051 7.45 1.75 9.68
6/8/2022 11:45:00 AM 15.9 60.62 0.05 7.46 3.63 9.64
6/8/2022 12:00:00 PM 16.12 61.016 0.051 7.47 1.82 9.6
6/8/2022 12:15:00 PM 16.37 61.466 0.051 7.48 1.72 9.57
6/8/2022 12:30:00 PM 16.65 61.97 0.051 7.48 1.76 9.53
6/8/2022 12:45:00 PM 16.96 62.528 0.051 7.49 1.67 9.47
6/8/2022 1:00:00 PM 17.06 62.708 0.051 7.48 1.83 9.43
6/8/2022 1:15:00 PM 17.31 63.158 0.051 7.51 1.78 9.41
6/8/2022 1:30:00 PM 17.64 63.752 0.051 7.5 1.65 9.35
6/8/2022 1:45:00 PM 17.99 64.382 0.05 7.49 3.55 9.27
6/8/2022 2:00:00 PM 18.26 64.868 0.051 7.51 1.61 9.21
6/8/2022 2:15:00 PM 18.66 65.588 0.051 7.5 1.7 9.15
6/8/2022 2:30:00 PM 18.94 66.092 0.051 7.49 1.84 9.08
6/8/2022 2:45:00 PM 19.3 66.74 0.051 7.51 1.77 9.01
6/8/2022 3:00:00 PM 19.55 67.19 0.051 7.48 1.68 8.95
6/8/2022 3:15:00 PM 19.77 67.586 0.051 7.49 1.68 8.9
6/8/2022 3:30:00 PM 20.05 68.09 0.051 7.5 1.84 8.85
6/8/2022 3:45:00 PM 20.27 68.486 0.051 7.49 1.75 8.8
6/8/2022 4:00:00 PM 20.35 68.63 0.051 7.49 1.79 8.76
6/8/2022 4:15:00 PM 20.49 68.882 0.051 7.48 1.85 8.72
6/8/2022 4:30:00 PM 20.61 69.098 0.051 7.48 1.63 8.68
6/8/2022 4:45:00 PM 20.68 69.224 0.051 7.48 1.66 8.63
6/8/2022 5:00:00 PM 20.71 69.278 0.051 7.48 1.69 8.59
6/8/2022 5:15:00 PM 20.76 69.368 0.051 7.47 1.61 8.58
6/8/2022 5:30:00 PM 20.72 69.296 0.051 7.45 1.7 8.53
6/8/2022 5:45:00 PM 20.61 69.098 0.051 7.44 1.62 8.5
6/8/2022 6:00:00 PM 20.5 68.9 0.051 7.44 1.73 8.5
6/8/2022 6:15:00 PM 20.41 68.738 0.051 7.44 1.72 8.51
6/8/2022 6:30:00 PM 20.37 68.666 0.051 7.44 1.93 8.52
6/8/2022 6:45:00 PM 20.3 68.54 0.051 7.44 1.77 8.51
6/8/2022 7:00:00 PM 20.2 68.36 0.051 7.43 1.69 8.51
6/8/2022 7:15:00 PM 20.08 68.144 0.051 7.41 1.72 8.49
6/8/2022 7:30:00 PM 19.96 67.92799 0.051 7.41 1.75 8.49
6/8/2022 7:45:00 PM 19.84 67.712 0.051 7.4 1.81 8.48
6/8/2022 8:00:00 PM 19.7 67.46 0.052 7.36 26.54 8.46
6/8/2022 8:15:00 PM 19.55 67.19 0.043 7.36 1.76 8.45
6/8/2022 8:30:00 PM 19.38 66.884 0.052 7.36 2.1 8.45
6/8/2022 8:45:00 PM 19.2 66.56 0.052 7.36 427.99 8.46
6/8/2022 9:00:00 PM 19.01 66.218 0.052 7.35 1.68 8.46
6/8/2022 9:15:00 PM 18.84 65.912 0.052 7.34 1.76 8.47
6/8/2022 9:30:00 PM 18.67 65.606 0.052 7.34 1.89 8.48
6/8/2022 9:45:00 PM 18.5 65.3 0.052 7.32 1.75 8.5
6/8/2022 10:00:00 PM 18.34 65.012 0.053 7.32 1.9 8.52
6/8/2022 10:15:00 PM 18.19 64.742 0.053 7.32 2.04 8.55
6/8/2022 10:30:00 PM 18.05 64.49 0.053 7.31 1.72 8.57
6/8/2022 10:45:00 PM 17.91 64.238 0.053 7.31 1.77 8.59
6/8/2022 11:00:00 PM 17.77 63.986 0.053 7.3 1.79 8.61
6/8/2022 11:15:00 PM 17.67 63.806 0.053 7.3 1.86 8.63
6/8/2022 11:30:00 PM 17.56 63.608 0.053 7.3 1.89 8.65
6/8/2022 11:45:00 PM 17.46 63.428 0.052 7.26 3.66 8.66
6/9/2022 12:00:00 AM 17.36 63.248 0.05 7.27 3.94 8.68
6/9/2022 12:15:00 AM 17.27 63.086 0.053 7.29 1.93 8.68
6/9/2022 12:30:00 AM 17.17 62.906 0.053 7.29 1.92 8.7
6/9/2022 12:45:00 AM 17.06 62.708 0.052 7.29 2.24 8.73
6/9/2022 1:00:00 AM 16.93 62.474 0.051 7.28 2.37 8.76
6/9/2022 1:15:00 AM 16.85 62.33 0.051 7.28 2.18 8.75
6/9/2022 1:30:00 AM 16.72 62.096 0.05 7.26 2.53 8.8
6/9/2022 1:45:00 AM 16.59 61.862 0.049 7.27 2.94 8.82
6/9/2022 2:00:00 AM 16.4 61.52 0.049 7.22 5.83 8.83
6/9/2022 2:15:00 AM 16.26 61.268 0.048 7.24 8.48 8.83
6/9/2022 2:30:00 AM 16.14 61.052 0.048 7.23 14.55 8.85
6/9/2022 2:45:00 AM 16.02 60.836 0.048 7.22 17.96 8.88
6/9/2022 3:00:00 AM 15.94 60.692 0.048 7.23 18.2 8.9
6/9/2022 3:15:00 AM 15.88 60.584 0.047 7.22 15.84 8.94
6/9/2022 3:30:00 AM 15.78 60.404 0.048 7.2 11.87 8.96
6/9/2022 3:45:00 AM 15.68 60.224 0.048 7.25 10.03 9
6/9/2022 4:00:00 AM 15.57 60.026 0.047 7.23 10.72 9.06
6/9/2022 4:15:00 AM 15.41 59.738 0.046 7.22 11.66 9.11
6/9/2022 4:30:00 AM 15.29 59.522 0.048 7.25 10.62 9.16
6/9/2022 4:45:00 AM 15.19 59.342 0.048 7.25 10.49 9.18
6/9/2022 5:00:00 AM 15.12 59.216 0.049 7.26 10.39 9.18
6/9/2022 5:15:00 AM 15.09 59.162 0.049 7.22 10.85 9.19
6/9/2022 5:30:00 AM 15.07 59.126 0.049 7.26 11.01 9.2
6/9/2022 5:45:00 AM 15.05 59.09 0.05 7.24 10.98 9.21
6/9/2022 6:00:00 AM 15.03 59.054 0.05 7.24 10.8 9.22
6/9/2022 6:15:00 AM 15 59 0.05 7.27 10.66 9.22
6/9/2022 6:30:00 AM 14.97 58.946 0.05 7.26 9.87 9.23
6/9/2022 6:45:00 AM 14.94 58.892 0.049 7.25 8.94 9.24
6/9/2022 7:00:00 AM 14.91 58.838 0.046 7.24 10.24 9.26
6/9/2022 7:15:00 AM 14.88 58.784 0.049 7.26 7.38 9.27
6/9/2022 7:30:00 AM 14.88 58.784 0.049 7.27 6.75 9.31
6/9/2022 7:45:00 AM 14.88 58.784 0.049 7.28 6.62 9.35
6/9/2022 8:00:00 AM 14.89 58.802 0.049 7.29 6.51 9.38
6/9/2022 8:15:00 AM 14.91 58.838 0.049 7.3 6.07 9.41
6/9/2022 8:30:00 AM 14.93 58.874 0.049 7.31 6.02 9.43
6/9/2022 8:45:00 AM 14.95 58.91 0.049 7.3 5.87 9.46
6/9/2022 9:00:00 AM 14.96 58.928 0.049 7.33 5.72 9.46
6/9/2022 9:15:00 AM 15 59 0.049 7.35 5.69 9.5
6/9/2022 9:30:00 AM 15.04 59.072 0.049 7.34 5.48 9.52
6/9/2022 9:45:00 AM 15.08 59.144 0.049 7.35 5.24 9.53
6/9/2022 10:00:00 AM 15.15 59.27 0.049 7.34 5.12 9.56
6/9/2022 10:15:00 AM 15.24 59.432 0.049 7.38 5.23 9.56
6/9/2022 10:30:00 AM 15.33 59.594 0.048 7.38 6.84 9.58
6/9/2022 10:45:00 AM 15.44 59.792 0.049 7.41 4.78 9.59
6/9/2022 11:00:00 AM 15.59 60.062 0.048 7.39 6.37 9.58
6/9/2022 11:15:00 AM 15.7 60.26 0.049 7.43 4.29 9.58
6/9/2022 11:30:00 AM 15.76 60.368 0.049 7.41 4.12 9.56
6/9/2022 11:45:00 AM 15.9 60.62 0.049 7.45 4.15 9.54
6/9/2022 12:00:00 PM 16.05 60.89 0.049 7.44 4.16 9.52
6/9/2022 12:15:00 PM 16.22 61.196 0.049 7.46 3.84 9.51
6/9/2022 12:30:00 PM 16.52 61.736 0.049 7.45 3.73 9.49
6/9/2022 12:45:00 PM 16.59 61.862 0.049 7.47 3.61 9.41
6/9/2022 1:00:00 PM 16.59 61.862 0.049 7.46 3.41 9.4
6/9/2022 1:15:00 PM 16.69 62.042 0.049 7.48 3.39 9.4
6/9/2022 1:30:00 PM 16.73 62.114 0.049 7.48 3.31 9.37
6/9/2022 1:45:00 PM 16.67 62.006 0.049 7.47 3.3 9.37
6/9/2022 2:00:00 PM 16.62 61.916 0.049 7.46 3.1 9.35
6/9/2022 2:15:00 PM 16.59 61.862 0.049 7.48 3.25 9.37
6/9/2022 2:30:00 PM 16.59 61.862 0.049 7.48 3.22 9.37
6/9/2022 2:45:00 PM 16.62 61.916 0.049 7.48 3.14 9.39
6/9/2022 3:00:00 PM 16.69 62.042 0.049 7.49 3.12 9.39
6/9/2022 3:15:00 PM 16.66 61.988 0.049 7.49 3.16 9.4
6/9/2022 3:30:00 PM 16.64 61.952 0.049 7.46 2.99 9.38
6/9/2022 3:45:00 PM 16.62 61.916 0.049 7.48 2.94 9.37
6/9/2022 4:00:00 PM 16.58 61.844 0.049 7.48 2.91 9.34
6/9/2022 4:15:00 PM 16.59 61.862 0.049 7.47 3.1 9.35
6/9/2022 4:30:00 PM 16.66 61.988 0.049 7.49 3.08 9.38
6/9/2022 4:45:00 PM 16.6 61.88 0.049 7.46 2.87 9.31
6/9/2022 5:00:00 PM 16.51 61.718 0.049 7.43 2.98 9.32
6/9/2022 5:15:00 PM 16.61 61.898 0.048 7.45 4.64 9.34
6/9/2022 5:30:00 PM 16.63 61.934 0.05 7.46 2.71 9.32
6/9/2022 5:45:00 PM 16.61 61.898 0.048 7.43 4.69 9.34
6/9/2022 6:00:00 PM 16.62 61.916 0.05 7.46 2.61 9.33
6/9/2022 6:15:00 PM 16.62 61.916 0.048 7.43 4.97 9.31
6/9/2022 6:30:00 PM 16.59 61.862 0.05 7.45 2.77 9.28
6/9/2022 6:45:00 PM 16.57 61.826 0.05 7.43 2.66 9.23
6/9/2022 7:00:00 PM 16.59 61.862 0.05 7.42 2.59 9.22
6/9/2022 7:15:00 PM 16.58 61.844 0.05 7.41 2.6 9.19
6/9/2022 7:30:00 PM 16.53 61.754 0.049 7.38 4.66 9.18
6/9/2022 7:45:00 PM 16.45 61.61 0.05 7.39 2.61 9.18
6/9/2022 8:00:00 PM 16.34 61.412 0.05 7.39 2.61 9.18
6/9/2022 8:15:00 PM 16.2 61.16 0.049 7.35 4.38 9.16
6/9/2022 8:30:00 PM 16.1 60.98 0.051 7.37 2.57 9.15
6/9/2022 8:45:00 PM 16.02 60.836 0.049 7.33 4.82 9.15
6/9/2022 9:00:00 PM 15.92 60.656 0.051 7.35 2.53 9.14
6/9/2022 9:15:00 PM 15.81 60.458 0.051 7.34 2.7 9.14
6/9/2022 9:30:00 PM 15.71 60.278 0.051 7.33 2.69 9.15
6/9/2022 9:45:00 PM 15.59 60.062 0.05 7.3 4.67 9.16
6/9/2022 10:00:00 PM 15.48 59.864 0.051 7.32 2.6 9.18
6/9/2022 10:15:00 PM 15.36 59.648 0.051 7.31 2.61 9.2
6/9/2022 10:30:00 PM 15.25 59.45 0.051 7.32 2.58 9.22
6/9/2022 10:45:00 PM 15.14 59.252 0.051 7.3 2.54 9.24
6/9/2022 11:00:00 PM 15.05 59.09 0.051 7.3 2.49 9.26
6/9/2022 11:15:00 PM 14.96 58.928 0.051 7.3 2.55 9.28
6/9/2022 11:30:00 PM 14.86 58.748 0.051 7.29 2.46 9.29
6/9/2022 11:45:00 PM 14.78 58.604 0.052 7.3 2.41 9.31
6/10/2022 12:00:00 AM 14.68 58.424 0.052 7.28 2.39 9.32
6/10/2022 12:15:00 AM 14.6 58.28 0.052 7.29 2.49 9.34
6/10/2022 12:30:00 AM 14.52 58.136 0.052 7.3 2.39 9.37
6/10/2022 12:45:00 AM 14.43 57.974 0.052 7.29 2.34 9.38
6/10/2022 1:00:00 AM 14.35 57.83 0.052 7.26 2.38 9.4
6/10/2022 1:15:00 AM 14.27 57.686 0.052 7.29 2.41 9.42
6/10/2022 1:30:00 AM 14.19 57.542 0.052 7.29 2.23 9.45
6/10/2022 1:45:00 AM 14.11 57.398 0.052 7.27 2.29 9.46
6/10/2022 2:00:00 AM 14.03 57.254 0.052 7.28 2.4 9.47
6/10/2022 2:15:00 AM 13.96 57.128 0.052 7.29 2.2 9.49
6/10/2022 2:30:00 AM 14 57.2 0.052 7.28 2.31 9.47
6/10/2022 2:45:00 AM 13.91 57.038 0.051 7.26 4.36 9.48
6/10/2022 3:00:00 AM 13.83 56.894 0.049 7.26 4.07 9.5
6/10/2022 3:15:00 AM 13.74 56.732 0.049 7.27 4.11 9.52
6/10/2022 3:30:00 AM 13.66 56.588 0.049 7.26 4.23 9.54
6/10/2022 3:45:00 AM 13.57 56.426 0.052 7.28 2.25 9.56
6/10/2022 4:00:00 AM 13.49 56.282 0.052 7.28 2.22 9.57
6/10/2022 4:15:00 AM 13.4 56.12 0.052 7.27 2.06 9.6
6/10/2022 4:30:00 AM 13.32 55.976 0.052 7.27 2.28 9.62
6/10/2022 4:45:00 AM 13.23 55.814 0.052 7.26 2.17 9.63
6/10/2022 5:00:00 AM 13.16 55.688 0.051 7.26 4.34 9.66
6/10/2022 5:15:00 AM 13.08 55.544 0.052 7.27 2.12 9.68
6/10/2022 5:30:00 AM 13.01 55.418 0.052 7.27 2.24 9.69
6/10/2022 5:45:00 AM 12.93 55.274 0.052 7.27 2.12 9.71
6/10/2022 6:00:00 AM 12.86 55.148 0.052 7.28 2.15 9.75
6/10/2022 6:15:00 AM 12.8 55.04 0.052 7.27 2.23 9.77
6/10/2022 6:30:00 AM 12.74 54.932 0.052 7.28 2.15 9.81
6/10/2022 6:45:00 AM 12.69 54.842 0.052 7.29 2.2 9.84
6/10/2022 7:00:00 AM 12.66 54.788 0.052 7.3 2.04 9.88
6/10/2022 7:15:00 AM 12.64 54.752 0.052 7.3 2.04 9.91
6/10/2022 7:30:00 AM 12.64 54.752 0.052 7.31 2.03 9.92
6/10/2022 7:45:00 AM 12.64 54.752 0.052 7.31 2.21 9.94
6/10/2022 8:00:00 AM 12.66 54.788 0.052 7.32 1.98 9.97
6/10/2022 8:15:00 AM 12.71 54.878 0.051 7.31 4.12 9.98
6/10/2022 8:30:00 AM 12.78 55.004 0.052 7.34 1.99 10
6/10/2022 8:45:00 AM 12.88 55.184 0.051 7.32 3.95 10
6/10/2022 9:00:00 AM 13 55.4 0.052 7.36 2.03 10.01
6/10/2022 9:15:00 AM 13.13 55.634 0.049 7.34 3.95 9.99
6/10/2022 9:30:00 AM 13.26 55.868 0.051 7.35 2.02 9.97
6/10/2022 9:45:00 AM 13.42 56.156 0.051 7.37 1.95 9.94
6/10/2022 10:00:00 AM 13.59 56.462 0.05 7.35 3.93 9.92
6/10/2022 10:15:00 AM 13.78 56.804 0.051 7.38 2.06 9.91
6/10/2022 10:30:00 AM 13.93 57.074 0.051 7.39 2.04 9.9
6/10/2022 10:45:00 AM 14.15 57.47 0.051 7.4 1.96 9.88
6/10/2022 11:00:00 AM 14.41 57.938 0.051 7.41 2.05 9.85
6/10/2022 11:15:00 AM 14.65 58.37 0.051 7.41 2.04 9.8
6/10/2022 11:30:00 AM 14.89 58.802 0.051 7.41 1.95 9.75
6/10/2022 11:45:00 AM 15.16 59.288 0.051 7.42 1.95 9.72
6/10/2022 12:00:00 PM 15.44 59.792 0.048 7.41 3.87 9.67
6/10/2022 12:15:00 PM 15.72 60.296 0.051 7.44 1.96 9.65
6/10/2022 12:30:00 PM 16.02 60.836 0.051 7.45 1.85 9.6
6/10/2022 12:45:00 PM 16.34 61.412 0.051 7.45 1.98 9.55
6/10/2022 1:00:00 PM 16.69 62.042 0.051 7.45 1.93 9.49
6/10/2022 1:15:00 PM 17.04 62.672 0.051 7.46 1.94 9.44
6/10/2022 1:30:00 PM 17.23 63.014 0.051 7.47 2.03 9.38
6/10/2022 1:45:00 PM 17.35 63.23 0.051 7.46 1.91 9.36
6/10/2022 2:00:00 PM 17.58 63.644 0.051 7.46 1.99 9.33
6/10/2022 2:15:00 PM 17.92 64.256 0.051 7.47 1.89 9.31
6/10/2022 2:30:00 PM 18.14 64.652 0.051 7.48 1.91 9.23
6/10/2022 2:45:00 PM 18.39 65.102 0.051 7.51 1.96 9.21
6/10/2022 3:00:00 PM 18.58 65.444 0.051 7.49 1.85 9.15
6/10/2022 3:15:00 PM 18.76 65.768 0.051 7.48 1.96 9.11
6/10/2022 3:30:00 PM 18.78 65.804 0.051 7.49 1.8 9.06
6/10/2022 3:45:00 PM 18.88 65.984 0.051 7.5 1.84 9.06
6/10/2022 4:00:00 PM 19.02 66.236 0.051 7.51 1.88 9.03
6/10/2022 4:15:00 PM 19.21 66.578 0.051 7.51 2.22 9
6/10/2022 4:30:00 PM 19.3 66.74 0.051 7.5 3.22 8.96
6/10/2022 4:45:00 PM 19.3 66.74 0.051 7.52 1.9 8.95
6/10/2022 5:00:00 PM 19.3 66.74 0.051 7.49 1.99 8.92
6/10/2022 5:15:00 PM 19.27 66.686 0.051 7.51 2.06 8.89
6/10/2022 5:30:00 PM 19.27 66.686 0.051 7.51 1.93 8.87
6/10/2022 5:45:00 PM 19.21 66.578 0.051 7.48 3.33 8.83
6/10/2022 6:00:00 PM 19.13 66.434 0.051 7.46 2.03 8.82
6/10/2022 6:15:00 PM 19.02 66.236 0.051 7.46 1.95 8.81
6/10/2022 6:30:00 PM 18.91 66.038 0.051 7.45 1.92 8.8
6/10/2022 6:45:00 PM 18.79 65.82201 0.051 7.43 2.02 8.78
6/10/2022 7:00:00 PM 18.7 65.66 0.051 7.43 2.44 8.76
6/10/2022 7:15:00 PM 18.58 65.444 0.051 7.42 1.91 8.76
6/10/2022 7:30:00 PM 18.47 65.246 0.051 7.39 1.89 8.76
6/10/2022 7:45:00 PM 18.36 65.048 0.05 7.4 3.79 8.77
6/10/2022 8:00:00 PM 18.21 64.778 0.051 7.39 2.07 8.78
6/10/2022 8:15:00 PM 18.04 64.472 0.051 7.38 2.11 8.78
6/10/2022 8:30:00 PM 17.87 64.166 0.052 7.39 2.06 8.79
6/10/2022 8:45:00 PM 17.7 63.86 0.052 7.38 1.92 8.79
6/10/2022 9:00:00 PM 17.53 63.554 0.052 7.38 2.16 8.79
6/10/2022 9:15:00 PM 17.38 63.284 0.051 7.34 4.17 8.79
6/10/2022 9:30:00 PM 17.23 63.014 0.052 7.36 2.43 8.81
6/10/2022 9:45:00 PM 17.08 62.744 0.052 7.36 2.02 8.82
6/10/2022 10:00:00 PM 16.93 62.474 0.052 7.35 2.16 8.85
6/10/2022 10:15:00 PM 16.77 62.186 0.052 7.32 2.09 8.88
6/10/2022 10:30:00 PM 16.62 61.916 0.052 7.35 2.08 8.9
6/10/2022 10:45:00 PM 16.46 61.628 0.052 7.35 2.11 8.93
6/10/2022 11:00:00 PM 16.3 61.34 0.053 7.33 1.95 8.95
6/10/2022 11:15:00 PM 16.14 61.052 0.05 7.31 9.38 8.99
6/10/2022 11:30:00 PM 15.99 60.782 0.05 7.31 3.91 9.02
6/10/2022 11:45:00 PM 15.84 60.512 0.053 7.32 1.9 9.05
6/11/2022 12:00:00 AM 15.69 60.242 0.052 7.28 3.83 9.09
6/11/2022 12:15:00 AM 15.55 59.99 0.053 7.31 2.08 9.11
6/11/2022 12:30:00 AM 15.4 59.72 0.053 7.3 1.96 9.14
6/11/2022 12:45:00 AM 15.27 59.486 0.053 7.3 1.89 9.17
6/11/2022 1:00:00 AM 15.14 59.252 0.051 7.28 3.85 9.2
6/11/2022 1:15:00 AM 15.01 59.018 0.05 7.27 3.76 9.24
6/11/2022 1:30:00 AM 14.88 58.784 0.053 7.3 2.36 9.26
6/11/2022 1:45:00 AM 14.76 58.568 0.052 7.26 4.59 9.29
6/11/2022 2:00:00 AM 14.64 58.352 0.053 7.29 2.05 9.32
6/11/2022 2:15:00 AM 14.51 58.118 0.053 7.3 2.25 9.35
6/11/2022 2:30:00 AM 14.4 57.92 0.053 7.3 3.29 9.38
6/11/2022 2:45:00 AM 14.29 57.722 0.052 7.27 4.02 9.41
6/11/2022 3:00:00 AM 14.18 57.524 0.05 7.26 3.97 9.42
6/11/2022 3:15:00 AM 14.08 57.344 0.053 7.29 2.02 9.44
6/11/2022 3:30:00 AM 13.97 57.146 0.053 7.28 1.92 9.47
6/11/2022 3:45:00 AM 13.85 56.93 0.053 7.29 2.01 9.5
6/11/2022 4:00:00 AM 13.74 56.732 0.053 7.29 1.97 9.52
6/11/2022 4:15:00 AM 13.63 56.534 0.053 7.28 1.88 9.55
6/11/2022 4:30:00 AM 13.53 56.354 0.053 7.28 2.84 9.57
6/11/2022 4:45:00 AM 13.43 56.174 0.053 7.28 2.85 9.6
6/11/2022 5:00:00 AM 13.33 55.994 0.052 7.26 3.85 9.62
6/11/2022 5:15:00 AM 13.22 55.796 0.053 7.28 1.94 9.64
6/11/2022 5:30:00 AM 13.12 55.616 0.053 7.29 1.87 9.67
6/11/2022 5:45:00 AM 13.03 55.454 0.053 7.28 2.01 9.7
6/11/2022 6:00:00 AM 12.94 55.292 0.053 7.29 1.83 9.73
6/11/2022 6:15:00 AM 12.88 55.184 0.052 7.27 4.77 9.78
6/11/2022 6:30:00 AM 12.81 55.058 0.053 7.3 1.94 9.81
6/11/2022 6:45:00 AM 12.76 54.968 0.053 7.31 1.97 9.86
6/11/2022 7:00:00 AM 12.72 54.896 0.053 7.31 1.9 9.92
6/11/2022 7:15:00 AM 12.71 54.878 0.052 7.31 3.9 9.97
6/11/2022 7:30:00 AM 12.69 54.842 0.053 7.33 1.8 9.99
6/11/2022 7:45:00 AM 12.68 54.824 0.053 7.35 1.93 10.03
6/11/2022 8:00:00 AM 12.69 54.842 0.053 7.36 1.84 10.07
6/11/2022 8:15:00 AM 12.72 54.896 0.053 7.37 1.88 10.11
6/11/2022 8:30:00 AM 12.76 54.968 0.053 7.35 1.9 10.12
6/11/2022 8:45:00 AM 12.81 55.058 0.053 7.38 1.81 10.13
6/11/2022 9:00:00 AM 12.84 55.112 0.053 7.38 1.94 10.11
6/11/2022 9:15:00 AM 12.86 55.148 0.052 7.38 1.87 10.1
6/11/2022 9:30:00 AM 12.89 55.202 0.051 7.35 3.78 10.09
6/11/2022 9:45:00 AM 12.95 55.31 0.052 7.38 1.79 10.1
6/11/2022 10:00:00 AM 13.02 55.436 0.049 7.37 3.55 10.11
6/11/2022 10:15:00 AM 13.11 55.598 0.052 7.39 1.75 10.12
6/11/2022 10:30:00 AM 13.21 55.778 0.052 7.41 1.8 10.13
6/11/2022 10:45:00 AM 13.29 55.922 0.052 7.42 1.79 10.12
6/11/2022 11:00:00 AM 13.37 56.066 0.052 7.43 1.78 10.13
6/11/2022 11:15:00 AM 13.47 56.246 0.052 7.43 1.9 10.11
6/11/2022 11:30:00 AM 13.6 56.48 0.052 7.45 1.91 10.11
6/11/2022 11:45:00 AM 13.78 56.804 0.052 7.46 1.7 10.1
6/11/2022 12:00:00 PM 14.06 57.308 0.052 7.47 2.51 10.07
6/11/2022 12:15:00 PM 14.44 57.992 0.051 7.45 3.6 10
6/11/2022 12:30:00 PM 14.81 58.658 0.052 7.48 1.88 9.92
6/11/2022 12:45:00 PM 15.1 59.18 0.052 7.48 1.85 9.87
6/11/2022 1:00:00 PM 15.35 59.63 0.049 7.46 3.86 9.81
6/11/2022 1:15:00 PM 15.38 59.684 0.052 7.46 1.88 9.72
6/11/2022 1:30:00 PM 15.36 59.648 0.052 7.45 1.85 9.64
6/11/2022 1:45:00 PM 15.44 59.792 0.052 7.44 1.81 9.6
6/11/2022 2:00:00 PM 15.63 60.134 0.051 7.42 3.7 9.61
6/11/2022 2:15:00 PM 15.83 60.494 0.052 7.46 1.9 9.6
6/11/2022 2:30:00 PM 16.1 60.98 0.05 7.44 3.87 9.58
6/11/2022 2:45:00 PM 16.44 61.592 0.052 7.48 1.78 9.56
6/11/2022 3:00:00 PM 16.72 62.096 0.051 7.5 1.71 9.53
6/11/2022 3:15:00 PM 16.88 62.384 0.051 7.5 1.7 9.47
6/11/2022 3:30:00 PM 16.81 62.258 0.05 7.46 3.82 9.41
6/11/2022 3:45:00 PM 16.77 62.186 0.052 7.47 1.77 9.35
6/11/2022 4:00:00 PM 16.93 62.474 0.052 7.49 1.75 9.36
6/11/2022 4:15:00 PM 17.24 63.032 0.051 7.49 2.39 9.32
6/11/2022 4:30:00 PM 17.39 63.302 0.051 7.48 1.95 9.28
6/11/2022 4:45:00 PM 17.53 63.554 0.051 7.49 1.76 9.25
6/11/2022 5:00:00 PM 17.6 63.68 0.051 7.48 1.74 9.23
6/11/2022 5:15:00 PM 17.58 63.644 0.051 7.48 1.95 9.19
6/11/2022 5:30:00 PM 17.51 63.518 0.051 7.45 1.84 9.14
6/11/2022 5:45:00 PM 17.55 63.59 0.052 7.46 1.94 9.09
6/11/2022 6:00:00 PM 17.56 63.608 0.052 7.42 1.91 9.02
6/11/2022 6:15:00 PM 17.53 63.554 0.052 7.41 1.74 8.98
6/11/2022 6:30:00 PM 17.48 63.464 0.052 7.4 1.92 8.96
6/11/2022 6:45:00 PM 17.38 63.284 0.052 7.39 1.77 8.95
6/11/2022 7:00:00 PM 17.25 63.05 0.052 7.39 1.88 8.96
6/11/2022 7:15:00 PM 17.16 62.888 0.052 7.39 1.78 9
6/11/2022 7:30:00 PM 17.07 62.726 0.052 7.4 1.83 9.03
6/11/2022 7:45:00 PM 16.96 62.528 0.052 7.4 1.83 9.04
6/11/2022 8:00:00 PM 16.83 62.294 0.051 7.37 3.52 9.04
6/11/2022 8:15:00 PM 16.71 62.078 0.052 7.39 1.86 9.04
6/11/2022 8:30:00 PM 16.6 61.88 0.052 7.36 1.77 9.03
6/11/2022 8:45:00 PM 16.49 61.682 0.052 7.38 1.85 9.03
6/11/2022 9:00:00 PM 16.38 61.484 0.053 7.37 1.87 9.02
6/11/2022 9:15:00 PM 16.26 61.268 0.052 7.33 3.67 9.02
6/11/2022 9:30:00 PM 16.14 61.052 0.053 7.35 1.83 9.03
6/11/2022 9:45:00 PM 16.04 60.872 0.053 7.35 1.9 9.05
6/11/2022 10:00:00 PM 15.94 60.692 0.053 7.34 1.9 9.06
6/11/2022 10:15:00 PM 15.86 60.548 0.053 7.34 1.82 9.08
6/11/2022 10:30:00 PM 15.8 60.44 0.053 7.33 1.91 9.1
6/11/2022 10:45:00 PM 15.72 60.296 0.053 7.32 1.89 9.1
6/11/2022 11:00:00 PM 15.66 60.188 0.053 7.32 1.9 9.11
6/11/2022 11:15:00 PM 15.61 60.098 0.052 7.29 3.7 9.13
6/11/2022 11:30:00 PM 15.54 59.972 0.053 7.31 1.88 9.14
6/11/2022 11:45:00 PM 15.47 59.846 0.053 7.31 1.85 9.16
6/12/2022 12:00:00 AM 15.4 59.72 0.053 7.3 1.86 9.18
6/12/2022 12:15:00 AM 15.33 59.594 0.053 7.3 1.85 9.19
6/12/2022 12:30:00 AM 15.26 59.468 0.053 7.3 1.74 9.2
6/12/2022 12:45:00 AM 15.2 59.36 0.053 7.3 1.76 9.21
6/12/2022 1:00:00 AM 15.14 59.252 0.053 7.3 1.77 9.23
6/12/2022 1:15:00 AM 15.06 59.108 0.053 7.29 1.73 9.24
6/12/2022 1:30:00 AM 15 59 0.053 7.3 1.78 9.25
6/12/2022 1:45:00 AM 14.94 58.892 0.053 7.29 1.83 9.26
6/12/2022 2:00:00 AM 14.88 58.784 0.052 7.27 4 9.28
6/12/2022 2:15:00 AM 14.82 58.676 0.054 7.3 1.74 9.29
6/12/2022 2:30:00 AM 14.77 58.586 0.054 7.27 2.01 9.31
6/12/2022 2:45:00 AM 14.71 58.478 0.054 7.29 1.87 9.32
6/12/2022 3:00:00 AM 14.66 58.388 0.054 7.29 1.72 9.33
6/12/2022 3:15:00 AM 14.6 58.28 0.054 7.3 1.68 9.35
6/12/2022 3:30:00 AM 14.56 58.208 0.054 7.29 1.89 9.36
6/12/2022 3:45:00 AM 14.5 58.1 0.053 7.26 3.62 9.37
6/12/2022 4:00:00 AM 14.45 58.01 0.054 7.27 1.79 9.39
6/12/2022 4:15:00 AM 14.39 57.902 0.054 7.29 1.86 9.39
6/12/2022 4:30:00 AM 14.33 57.794 0.054 7.29 1.89 9.41
6/12/2022 4:45:00 AM 14.27 57.686 0.054 7.29 1.74 9.42
6/12/2022 5:00:00 AM 14.23 57.614 0.054 7.29 1.78 9.43
6/12/2022 5:15:00 AM 14.18 57.524 0.054 7.29 1.76 9.44
6/12/2022 5:30:00 AM 14.13 57.434 0.054 7.29 1.75 9.45
6/12/2022 5:45:00 AM 14.07 57.326 0.054 7.28 1.84 9.46
6/12/2022 6:00:00 AM 14.03 57.254 0.054 7.28 1.81 9.48
6/12/2022 6:15:00 AM 13.98 57.164 0.054 7.29 1.71 9.5
6/12/2022 6:30:00 AM 13.94 57.092 0.054 7.3 1.76 9.52
6/12/2022 6:45:00 AM 13.92 57.056 0.054 7.3 1.74 9.58
6/12/2022 7:00:00 AM 13.9 57.02 0.054 7.31 1.71 9.62
6/12/2022 7:15:00 AM 13.89 57.002 0.054 7.32 1.71 9.66
6/12/2022 7:30:00 AM 13.88 56.984 0.053 7.33 1.77 9.69
6/12/2022 7:45:00 AM 13.88 56.984 0.053 7.33 1.85 9.72
6/12/2022 8:00:00 AM 13.9 57.02 0.053 7.35 1.65 9.76
6/12/2022 8:15:00 AM 13.92 57.056 0.053 7.36 1.97 9.79
6/12/2022 8:30:00 AM 13.96 57.128 0.053 7.37 1.73 9.82
6/12/2022 8:45:00 AM 14 57.2 0.053 7.37 1.76 9.84
6/12/2022 9:00:00 AM 14.05 57.29 0.053 7.37 1.69 9.85
6/12/2022 9:15:00 AM 14.13 57.434 0.053 7.4 1.66 9.87
6/12/2022 9:30:00 AM 14.23 57.614 0.053 7.4 1.81 9.88
6/12/2022 9:45:00 AM 14.35 57.83 0.053 7.42 1.65 9.88
6/12/2022 10:00:00 AM 14.51 58.118 0.05 7.41 3.51 9.88
6/12/2022 10:15:00 AM 14.7 58.46 0.052 7.41 1.64 9.86
6/12/2022 10:30:00 AM 14.93 58.874 0.052 7.45 1.7 9.84
6/12/2022 10:45:00 AM 15.11 59.198 0.052 7.46 1.65 9.81
6/12/2022 11:00:00 AM 15.3 59.54 0.052 7.47 1.73 9.79
6/12/2022 11:15:00 AM 15.53 59.954 0.052 7.46 1.69 9.75
6/12/2022 11:30:00 AM 15.76 60.368 0.052 7.48 1.76 9.7
6/12/2022 11:45:00 AM 15.93 60.674 0.052 7.46 1.94 9.65
6/12/2022 12:00:00 PM 16.06 60.908 0.052 7.49 1.65 9.64
6/12/2022 12:15:00 PM 16.14 61.052 0.052 7.48 1.91 9.58
6/12/2022 12:30:00 PM 16.18 61.124 0.052 7.47 1.78 9.56
6/12/2022 12:45:00 PM 16.29 61.322 0.052 7.48 1.8 9.56
6/12/2022 1:00:00 PM 16.46 61.628 0.052 7.5 1.78 9.53
6/12/2022 1:15:00 PM 16.48 61.664 0.052 7.48 1.74 9.44
6/12/2022 1:30:00 PM 16.44 61.592 0.052 7.48 1.75 9.45
6/12/2022 1:45:00 PM 16.54 61.772 0.052 7.48 1.93 9.48
6/12/2022 2:00:00 PM 16.69 62.042 0.052 7.5 1.74 9.45
6/12/2022 2:15:00 PM 16.81 62.258 0.052 7.5 1.76 9.41
6/12/2022 2:30:00 PM 16.82 62.276 0.052 7.49 1.76 9.37
6/12/2022 2:45:00 PM 16.78 62.204 0.052 7.48 1.81 9.3
6/12/2022 3:00:00 PM 16.74 62.132 0.052 7.45 3.18 9.25
6/12/2022 3:15:00 PM 16.74 62.132 0.052 7.43 1.71 9.27
6/12/2022 3:30:00 PM 16.81 62.258 0.052 7.45 1.64 9.3
6/12/2022 3:45:00 PM 16.91 62.438 0.052 7.46 1.73 9.31
6/12/2022 4:00:00 PM 16.98 62.564 0.052 7.46 2.69 9.29
6/12/2022 4:15:00 PM 16.97 62.546 0.052 7.44 1.76 9.31
6/12/2022 4:30:00 PM 16.97 62.546 0.052 7.48 1.84 9.33
6/12/2022 4:45:00 PM 17.02 62.636 0.052 7.47 2.08 9.32
6/12/2022 5:00:00 PM 17.08 62.744 0.051 7.48 1.91 9.31
6/12/2022 5:15:00 PM 17.2 62.96 0.051 7.49 1.76 9.31
6/12/2022 5:30:00 PM 17.24 63.032 0.051 7.48 1.74 9.27
6/12/2022 5:45:00 PM 17.31 63.158 0.051 7.48 1.74 9.25
6/12/2022 6:00:00 PM 17.35 63.23 0.051 7.48 1.78 9.22
6/12/2022 6:15:00 PM 17.36 63.248 0.051 7.46 2.38 9.19
6/12/2022 6:30:00 PM 17.39 63.302 0.051 7.45 2.18 9.15
6/12/2022 6:45:00 PM 17.43 63.374 0.051 7.43 1.84 9.13
6/12/2022 7:00:00 PM 17.46 63.428 0.052 7.44 1.76 9.1
6/12/2022 7:15:00 PM 17.44 63.392 0.051 7.38 3.72 9.07
6/12/2022 7:30:00 PM 17.43 63.374 0.052 7.42 1.67 9.06
6/12/2022 7:45:00 PM 17.38 63.284 0.052 7.38 2.48 9.03
6/12/2022 8:00:00 PM 17.32 63.176 0.052 7.39 2.01 9
6/12/2022 8:15:00 PM 17.26 63.068 0.052 7.37 1.68 8.97
6/12/2022 8:30:00 PM 17.2 62.96 0.052 7.36 1.87 8.94
6/12/2022 8:45:00 PM 17.13 62.834 0.052 7.35 1.81 8.92
6/12/2022 9:00:00 PM 17.05 62.69 0.053 7.33 1.77 8.9
6/12/2022 9:15:00 PM 16.97 62.546 0.053 7.31 1.7 8.9
6/12/2022 9:30:00 PM 16.88 62.384 0.053 7.31 1.88 8.9
6/12/2022 9:45:00 PM 16.79 62.222 0.053 7.3 1.82 8.9
6/12/2022 10:00:00 PM 16.7 62.06 0.052 7.27 3.75 8.91
6/12/2022 10:15:00 PM 16.62 61.916 0.053 7.29 1.8 8.92
6/12/2022 10:30:00 PM 16.55 61.79 0.053 7.29 1.84 8.94
6/12/2022 10:45:00 PM 16.48 61.664 0.053 7.27 1.79 8.95
6/12/2022 11:00:00 PM 16.42 61.556 0.053 7.29 92.51 8.96
6/12/2022 11:15:00 PM 16.35 61.43 0.053 7.29 1.92 8.97
6/12/2022 11:30:00 PM 16.28 61.304 0.053 7.28 1.8 8.98
6/12/2022 11:45:00 PM 16.22 61.196 0.054 7.27 1.76 8.99
6/13/2022 12:00:00 AM 16.16 61.088 0.054 7.28 1.81 9
6/13/2022 12:15:00 AM 16.12 61.016 0.054 7.27 2.04 9.01
6/13/2022 12:30:00 AM 16.08 60.944 0.054 7.27 1.9 9.02
6/13/2022 12:45:00 AM 16.05 60.89 0.052 7.24 3.83 9.03
6/13/2022 1:00:00 AM 16 60.8 0.054 7.26 1.86 9.04
6/13/2022 1:15:00 AM 15.96 60.728 0.054 7.26 1.88 9.04
6/13/2022 1:30:00 AM 15.93 60.674 0.054 7.24 1.97 9.05
6/13/2022 1:45:00 AM 15.9 60.62 0.054 7.24 1.88 9.06
6/13/2022 2:00:00 AM 15.87 60.566 0.054 7.25 1.97 9.06
6/13/2022 2:15:00 AM 15.85 60.53 0.054 7.25 1.89 9.08
6/13/2022 2:30:00 AM 15.81 60.458 0.054 7.25 1.81 9.08
6/13/2022 2:45:00 AM 15.79 60.422 0.054 7.26 1.87 9.09
6/13/2022 3:00:00 AM 15.76 60.368 0.054 7.25 1.83 9.09
6/13/2022 3:15:00 AM 15.73 60.314 0.054 7.26 1.76 9.1
6/13/2022 3:30:00 AM 15.69 60.242 0.054 7.25 1.91 9.11
6/13/2022 3:45:00 AM 15.66 60.188 0.051 7.26 3.94 9.12
6/13/2022 4:00:00 AM 15.63 60.134 0.054 7.27 1.81 9.12
6/13/2022 4:15:00 AM 15.6 60.08 0.054 7.25 1.86 9.14
6/13/2022 4:30:00 AM 15.57 60.026 0.054 7.28 1.87 9.14
6/13/2022 4:45:00 AM 15.54 59.972 0.054 7.27 1.81 9.16
6/13/2022 5:00:00 AM 15.51 59.918 0.054 7.26 2.13 9.16
6/13/2022 5:15:00 AM 15.48 59.864 0.053 7.26 4.27 9.17
6/13/2022 5:30:00 AM 15.45 59.81 0.054 7.28 1.79 9.17
6/13/2022 5:45:00 AM 15.42 59.756 0.054 7.28 1.88 9.19
6/13/2022 6:00:00 AM 15.39 59.702 0.054 7.29 1.81 9.21
6/13/2022 6:15:00 AM 15.37 59.666 0.054 7.3 1.89 9.23
6/13/2022 6:30:00 AM 15.35 59.63 0.054 7.29 1.85 9.25
6/13/2022 6:45:00 AM 15.33 59.594 0.053 7.27 3.77 9.28
6/13/2022 7:00:00 AM 15.32 59.576 0.054 7.31 1.81 9.32
6/13/2022 7:15:00 AM 15.32 59.576 0.053 7.28 3.7 9.36
6/13/2022 7:30:00 AM 15.32 59.576 0.054 7.32 1.83 9.38
6/13/2022 7:45:00 AM 15.33 59.594 0.054 7.34 1.8 9.42
6/13/2022 8:00:00 AM 15.36 59.648 0.054 7.34 1.72 9.47
6/13/2022 8:15:00 AM 15.4 59.72 0.054 7.36 1.79 9.51
6/13/2022 8:30:00 AM 15.46 59.828 0.053 7.39 1.72 9.55
6/13/2022 8:45:00 AM 15.54 59.972 0.053 7.39 1.7 9.58
6/13/2022 9:00:00 AM 15.63 60.134 0.053 7.39 1.77 9.56
6/13/2022 9:15:00 AM 15.67 60.206 0.053 7.4 1.81 9.56
6/13/2022 9:30:00 AM 15.74 60.332 0.053 7.4 1.8 9.57
6/13/2022 9:45:00 AM 15.83 60.494 0.053 7.41 1.81 9.57
6/13/2022 10:00:00 AM 15.98 60.764 0.053 7.42 1.77 9.56
6/13/2022 10:15:00 AM 16.19 61.142 0.053 7.41 1.74 9.53
6/13/2022 10:30:00 AM 16.39 61.502 0.053 7.43 1.86 9.51
6/13/2022 10:45:00 AM 16.57 61.826 0.053 7.44 1.75 9.47
6/13/2022 11:00:00 AM 16.79 62.222 0.053 7.45 1.78 9.44
6/13/2022 11:15:00 AM 17.03 62.654 0.052 7.44 1.77 9.39
6/13/2022 11:30:00 AM 17.28 63.104 0.052 7.45 1.76 9.35
6/13/2022 11:45:00 AM 17.5 63.5 0.052 7.45 1.74 9.29
6/13/2022 12:00:00 PM 17.82 64.076 0.052 7.46 1.78 9.25
6/13/2022 12:15:00 PM 18.18 64.724 0.052 7.46 1.68 9.19
6/13/2022 12:30:00 PM 18.47 65.246 0.052 7.48 1.68 9.14
6/13/2022 12:45:00 PM 18.78 65.804 0.052 7.47 1.66 9.08
6/13/2022 1:00:00 PM 19.07 66.326 0.052 7.45 1.77 9.03
6/13/2022 1:15:00 PM 19.38 66.884 0.052 7.47 1.64 8.98
6/13/2022 1:30:00 PM 19.66 67.388 0.052 7.48 1.65 8.93
6/13/2022 1:45:00 PM 19.93 67.874 0.052 7.46 1.66 8.88
6/13/2022 2:00:00 PM 20.2 68.36 0.052 7.48 1.82 8.84
6/13/2022 2:15:00 PM 20.53 68.954 0.052 7.47 1.78 8.76
6/13/2022 2:30:00 PM 20.85 69.53 0.052 7.49 1.68 8.71
6/13/2022 2:45:00 PM 21.15 70.07 0.052 7.49 1.63 8.67
6/13/2022 3:00:00 PM 21.48 70.664 0.052 7.49 1.65 8.6
6/13/2022 3:15:00 PM 21.73 71.114 0.052 7.49 1.75 8.57
6/13/2022 3:30:00 PM 21.92 71.456 0.052 7.5 1.64 8.52
6/13/2022 3:45:00 PM 21.98 71.564 0.052 7.49 1.66 8.5
6/13/2022 4:00:00 PM 22.11 71.798 0.052 7.5 1.67 8.48
6/13/2022 4:15:00 PM 22.25 72.05 0.052 7.49 2.18 8.43
6/13/2022 4:30:00 PM 22.34 72.212 0.052 7.49 1.63 8.39
6/13/2022 4:45:00 PM 22.39 72.302 0.052 7.48 1.66 8.35
6/13/2022 5:00:00 PM 22.37 72.266 0.052 7.46 1.67 8.31
6/13/2022 5:15:00 PM 22.38 72.284 0.052 7.45 1.64 8.29
6/13/2022 5:30:00 PM 22.38 72.284 0.052 7.43 1.77 8.28
6/13/2022 5:45:00 PM 22.32 72.176 0.052 7.44 1.63 8.25
6/13/2022 6:00:00 PM 22.22 71.996 0.052 7.43 1.63 8.21
6/13/2022 6:15:00 PM 22.05 71.69 0.052 7.41 1.6 8.17
6/13/2022 6:30:00 PM 22 71.6 0.052 7.41 1.66 8.21
6/13/2022 6:45:00 PM 21.97 71.546 0.052 7.41 1.82 8.21
6/13/2022 7:00:00 PM 21.89 71.402 0.052 7.39 1.61 8.18
6/13/2022 7:15:00 PM 21.77 71.186 0.052 7.39 1.73 8.17
6/13/2022 7:30:00 PM 21.61 70.898 0.052 7.38 1.78 8.16
6/13/2022 7:45:00 PM 21.44 70.592 0.053 7.39 1.69 8.15
6/13/2022 8:00:00 PM 21.28 70.304 0.053 7.36 1.83 8.16
6/13/2022 8:15:00 PM 21.12 70.016 0.053 7.36 1.93 8.16
6/13/2022 8:30:00 PM 20.95 69.71 0.053 7.36 1.82 8.14
6/13/2022 8:45:00 PM 20.75 69.35 0.053 7.36 1.95 8.16
6/13/2022 9:00:00 PM 20.56 69.008 0.054 7.35 1.93 8.17
6/13/2022 9:15:00 PM 20.35 68.63 0.054 7.34 1.83 8.18
6/13/2022 9:30:00 PM 20.17 68.306 0.054 7.32 1.95 8.2
6/13/2022 9:45:00 PM 19.99 67.982 0.054 7.34 1.82 8.22
6/13/2022 10:00:00 PM 19.8 67.64 0.054 7.31 1.95 8.24
6/13/2022 10:15:00 PM 19.62 67.316 0.054 7.31 1.96 8.27
6/13/2022 10:30:00 PM 19.44 66.992 0.054 7.32 1.95 8.27
6/13/2022 10:45:00 PM 19.27 66.686 0.054 7.31 2.11 8.32
6/13/2022 11:00:00 PM 19.11 66.398 0.054 7.32 1.85 8.34
6/13/2022 11:15:00 PM 18.93 66.074 0.055 7.33 2.26 8.38
6/13/2022 11:30:00 PM 18.77 65.786 0.055 7.31 1.8 8.41
6/13/2022 11:45:00 PM 18.62 65.516 0.055 7.31 1.88 8.44
6/14/2022 12:00:00 AM 18.48 65.264 0.055 7.3 1.82 8.48
6/14/2022 12:15:00 AM 18.36 65.048 0.055 7.29 1.98 8.5
6/14/2022 12:30:00 AM 18.22 64.796 0.055 7.29 1.89 8.53
6/14/2022 12:45:00 AM 18.09 64.562 0.055 7.28 1.87 8.56
6/14/2022 1:00:00 AM 17.98 64.364 0.055 7.28 1.96 8.59
6/14/2022 1:15:00 AM 17.88 64.184 0.055 7.29 2.09 8.61
6/14/2022 1:30:00 AM 17.78 64.004 0.055 7.28 1.96 8.63
6/14/2022 1:45:00 AM 17.68 63.824 0.055 7.28 1.88 8.65
6/14/2022 2:00:00 AM 17.59 63.662 0.055 7.28 1.94 8.67
6/14/2022 2:15:00 AM 17.51 63.518 0.055 7.29 1.82 8.69
6/14/2022 2:30:00 AM 17.42 63.356 0.054 7.28 1.87 8.71
6/14/2022 2:45:00 AM 17.34 63.212 0.054 7.26 4.01 8.74
6/14/2022 3:00:00 AM 17.26 63.068 0.052 7.26 13335.27 8.75
6/14/2022 3:15:00 AM 17.18 62.924 0.055 7.29 1.93 8.77
6/14/2022 3:30:00 AM 17.09 62.762 0.055 7.29 1.97 8.79
6/14/2022 3:45:00 AM 17.02 62.636 0.054 7.26 4.8 8.81
6/14/2022 4:00:00 AM 16.93 62.474 0.055 7.28 1.81 8.82
6/14/2022 4:15:00 AM 16.86 62.348 0.055 7.28 1.66 8.83
6/14/2022 4:30:00 AM 16.78 62.204 0.055 7.28 1.82 8.85
6/14/2022 4:45:00 AM 16.7 62.06 0.055 7.29 1.79 8.87
6/14/2022 5:00:00 AM 16.63 61.934 0.055 7.28 1.88 8.87
6/14/2022 5:15:00 AM 16.55 61.79 0.054 7.26 3.97 8.9
6/14/2022 5:30:00 AM 16.47 61.646 0.052 7.27 3.88 8.91
6/14/2022 5:45:00 AM 16.41 61.538 0.054 7.27 3.78 8.93
6/14/2022 6:00:00 AM 16.35 61.43 0.055 7.28 1.88 8.95
6/14/2022 6:15:00 AM 16.29 61.322 0.053 7.26 4.92 8.97
6/14/2022 6:30:00 AM 16.24 61.232 0.054 7.26 4.01 8.99
6/14/2022 6:45:00 AM 16.19 61.142 0.055 7.3 1.74 9.03
6/14/2022 7:00:00 AM 16.15 61.07 0.055 7.3 1.8 9.05
6/14/2022 7:15:00 AM 16.11 60.998 0.054 7.28 3.99 9.07
6/14/2022 7:30:00 AM 16.07 60.926 0.055 7.29 1.73 9.09
6/14/2022 7:45:00 AM 16.04 60.872 0.053 7.3 3.72 9.12
6/14/2022 8:00:00 AM 16.01 60.818 0.052 7.29 3.89 9.12
6/14/2022 8:15:00 AM 15.99 60.782 0.052 7.3 2.46 9.16
6/14/2022 8:30:00 AM 15.99 60.782 0.051 7.3 4.34 9.22
6/14/2022 8:45:00 AM 16 60.8 0.055 7.33 1.69 9.25
6/14/2022 9:00:00 AM 16.04 60.872 0.042 7.36 1.74 9.32
6/14/2022 9:15:00 AM 16.11 60.998 0.055 7.38 1.67 9.38
6/14/2022 9:30:00 AM 16.17 61.106 0.054 7.38 1.66 9.4
6/14/2022 9:45:00 AM 16.3 61.34 0.054 7.41 1.68 9.42
6/14/2022 10:00:00 AM 16.41 61.538 0.053 7.4 3.68 9.44
6/14/2022 10:15:00 AM 16.51 61.718 0.054 7.44 1.65 9.43
6/14/2022 10:30:00 AM 16.64 61.952 0.054 7.44 1.63 9.41
6/14/2022 10:45:00 AM 16.81 62.258 0.054 7.44 1.73 9.38
6/14/2022 11:00:00 AM 17.03 62.654 0.054 7.46 1.64 9.35
6/14/2022 11:15:00 AM 17.3 63.14 0.054 7.46 1.73 9.3
6/14/2022 11:30:00 AM 17.59 63.662 0.053 7.48 1.77 9.26
6/14/2022 11:45:00 AM 17.85 64.13 0.053 7.49 1.63 9.23
6/14/2022 12:00:00 PM 18.1 64.58 0.053 7.47 1.67 9.16
6/14/2022 12:15:00 PM 18.41 65.138 0.053 7.47 2.89 9.1
6/14/2022 12:30:00 PM 18.75 65.75 0.053 7.47 1.98 9.05
6/14/2022 12:45:00 PM 19.07 66.326 0.053 7.47 2.54 8.97
6/14/2022 1:00:00 PM 19.41 66.938 0.053 7.47 1.71 8.94
6/14/2022 1:15:00 PM 19.76 67.568 0.053 7.46 2.87 8.88
6/14/2022 1:30:00 PM 20.11 68.198 0.053 7.45 3.15 8.81
6/14/2022 1:45:00 PM 20.42 68.756 0.053 7.46 1.89 8.77
6/14/2022 2:00:00 PM 20.76 69.368 0.053 7.47 1.96 8.72
6/14/2022 2:15:00 PM 21.07 69.926 0.053 7.48 1.94 8.67
6/14/2022 2:30:00 PM 21.35 70.43 0.053 7.47 2.42 8.62
6/14/2022 2:45:00 PM 21.66 70.988 0.053 7.47 1.76 8.57
6/14/2022 3:00:00 PM 21.92 71.456 0.053 7.49 1.76 8.53
6/14/2022 3:15:00 PM 22.2 71.96 0.052 7.48 3.9 8.47
6/14/2022 3:30:00 PM 22.45 72.41 0.053 7.49 1.74 8.41
6/14/2022 3:45:00 PM 22.62 72.716 0.051 7.48 1.85 8.37
6/14/2022 4:00:00 PM 22.77 72.986 0.052 7.48 1.73 8.34
6/14/2022 4:15:00 PM 22.9 73.22 0.053 7.48 1.75 8.29
6/14/2022 4:30:00 PM 22.94 73.292 0.053 7.47 1.8 8.26
6/14/2022 4:45:00 PM 23.01 73.418 0.052 7.46 1.79 8.22
6/14/2022 5:00:00 PM 23.03 73.454 0.052 7.47 1.84 8.18
6/14/2022 5:15:00 PM 23.03 73.454 0.052 7.47 1.81 8.16
6/14/2022 5:30:00 PM 22.98 73.364 0.051 7.44 1.79 8.12
6/14/2022 5:45:00 PM 22.93 73.274 0.046 7.43 1.95 8.11
6/14/2022 6:00:00 PM 22.85 73.13 0.048 7.43 1.77 8.08
6/14/2022 6:15:00 PM 22.68 72.824 0.048 7.43 1.92 8.06
6/14/2022 6:30:00 PM 22.55 72.59 0.049 7.42 1.75 8.04
6/14/2022 6:45:00 PM 22.42 72.356 0.048 7.39 1.77 8.02
6/14/2022 7:00:00 PM 22.31 72.158 0.048 7.4 1.82 8.01
6/14/2022 7:15:00 PM 22.21 71.978 0.046 7.38 2.13 8.01
6/14/2022 7:30:00 PM 22.07 71.726 0.049 7.38 2.22 8
6/14/2022 7:45:00 PM 21.93 71.474 0.043 7.37 2.92 8.02
6/14/2022 8:00:00 PM 21.78 71.204 0.05 7.37 1.91 8.04
6/14/2022 8:15:00 PM 21.63 70.934 0.042 7.34 2.63 8.04
6/14/2022 8:30:00 PM 21.46 70.628 0.047 7.35 3.17 8.03
6/14/2022 8:45:00 PM 21.25 70.25 0.041 7.35 2.93 8.03
6/14/2022 9:00:00 PM 21.05 69.89 0.032 7.34 4.17 8.07
6/14/2022 9:15:00 PM 20.84 69.512 0.03 7.34 4.35 8.1
6/14/2022 9:30:00 PM 20.64 69.152 0.029 7.33 5.14 8.13
6/14/2022 9:45:00 PM 20.47 68.846 0.025 7.34 6.39 8.14
6/14/2022 10:00:00 PM 20.29 68.522 0.027 7.34 3.75 8.16
6/14/2022 10:15:00 PM 20.12 68.216 0.025 7.27 5.81 8.19
6/14/2022 10:30:00 PM 19.95 67.91 0.031 7.34 4.22 8.22
6/14/2022 10:45:00 PM 19.77 67.586 0.023 7.31 4.33 8.25
6/14/2022 11:00:00 PM 19.6 67.28 0.022 7.32 4.02 8.27
6/14/2022 11:15:00 PM 19.43 66.974 0.019 7.33 4.9 8.31
6/14/2022 11:30:00 PM 19.28 66.704 0.022 7.32 4.31 8.32
6/14/2022 11:45:00 PM 19.09 66.362 0.022 7.31 5.02 8.37
6/15/2022 12:00:00 AM 18.93 66.074 0.018 7.3 4.05 8.39
6/15/2022 12:15:00 AM 18.77 65.786 0.023 7.29 4.78 8.43
6/15/2022 12:30:00 AM 18.6 65.48 0.015 7.3 9.07 8.46
6/15/2022 12:45:00 AM 18.46 65.228 0.017 7.31 5.84 8.5
6/15/2022 1:00:00 AM 18.31 64.958 0.011 7.31 4 8.54
6/15/2022 1:15:00 AM 18.17 64.706 0.013 7.31 4.34 8.56
6/15/2022 1:30:00 AM 18.01 64.418 0.007 7.27 14.71 8.58
6/15/2022 1:45:00 AM 17.86 64.148 0.009 7.3 6.53 8.62
6/15/2022 2:00:00 AM 17.72 63.896 0.011 7.31 3.25 8.65
6/15/2022 2:15:00 AM 17.62 63.716 0.01 7.27 13.56 8.69
6/15/2022 2:30:00 AM 17.41 63.338 0.006 7.29 3.5 8.74
6/15/2022 2:45:00 AM 17.31 63.158 0.007 7.3 3.96 8.75
6/15/2022 3:00:00 AM 17.19 62.942 0.007 7.3 11.12 8.78
6/15/2022 3:15:00 AM 17.05 62.69 0.006 7.3 3.03 8.8
6/15/2022 3:30:00 AM 16.9 62.42 0.007 7.28 4.02 8.85
6/15/2022 3:45:00 AM 16.88 62.384 0.013 7.28 10.43 8.84
6/15/2022 4:00:00 AM 16.69 62.042 0.008 7.29 3.18 8.87
6/15/2022 4:15:00 AM 16.56 61.808 0.006 7.3 3.11 8.91
6/15/2022 4:30:00 AM 16.49 61.682 0.01 7.3 4.82 8.92
6/15/2022 4:45:00 AM 16.36 61.448 0.006 7.29 2.97 8.96
6/15/2022 5:00:00 AM 16.26 61.268 0.014 7.29 4.75 8.97
6/15/2022 5:15:00 AM 16.13 61.034 0.007 7.3 3.19 9.01
6/15/2022 5:30:00 AM 16.07 60.926 0.014 7.3 6.87 9.03
6/15/2022 5:45:00 AM 15.94 60.692 0.011 7.28 3.77 9.07
6/15/2022 6:00:00 AM 15.86 60.548 0.01 7.28 8.29 9.09
6/15/2022 6:15:00 AM 15.75 60.35 0.012 7.29 8.8 9.12
6/15/2022 6:30:00 AM 15.66 60.188 0.014 7.31 4.35 9.17
6/15/2022 6:45:00 AM 15.61 60.098 0.013 7.31 5.17 9.2
6/15/2022 7:00:00 AM 15.56 60.008 0.012 7.32 3.96 9.25
6/15/2022 7:15:00 AM 15.55 59.99 0.019 7.32 5.82 9.29
6/15/2022 7:30:00 AM 15.51 59.918 0.025 7.33 3.9 9.33
6/15/2022 7:45:00 AM 15.49 59.882 0.019 7.35 3.62 9.37
6/15/2022 8:00:00 AM 15.49 59.882 0.022 7.33 6.63 9.39
6/15/2022 8:15:00 AM 15.52 59.936 0.015 7.36 3.51 9.41
6/15/2022 8:30:00 AM 15.56 60.008 0.02 7.37 4.57 9.43
6/15/2022 8:45:00 AM 15.65 60.17 0.019 7.35 5.58 9.45
6/15/2022 9:00:00 AM 15.77 60.386 0.014 7.38 3.71 9.46
6/15/2022 9:15:00 AM 15.91 60.638 0.021 7.39 4.7 9.45
6/15/2022 9:30:00 AM 16.05 60.89 0.02 7.39 3.79 9.44
6/15/2022 9:45:00 AM 16.23 61.214 0.021 7.41 3.88 9.43
6/15/2022 10:00:00 AM 16.42 61.556 0.017 7.4 3.55 9.4
6/15/2022 10:15:00 AM 16.64 61.952 0.014 7.41 3.54 9.35
6/15/2022 10:30:00 AM 16.87 62.366 0.013 7.43 3.84 9.3
6/15/2022 10:45:00 AM 17.11 62.798 0.023 7.44 8.15 9.31
6/15/2022 11:00:00 AM 17.35 63.23 0.022 7.43 4.58 9.28
6/15/2022 11:15:00 AM 17.64 63.752 0.018 7.43 5.09 9.23
6/15/2022 11:30:00 AM 17.95 64.31 0.021 7.45 5.68 9.18
6/15/2022 11:45:00 AM 18.3 64.94 0.02 7.47 6.27 9.16
6/15/2022 12:00:00 PM 18.61 65.498 0.021 7.46 7.28 9.11
6/15/2022 12:15:00 PM 18.98 66.164 0.019 7.47 10.3 9.05
6/15/2022 12:30:00 PM 19.32 66.776 0.02 7.46 10.79 9.02
6/15/2022 12:45:00 PM 19.68 67.424 0.011 7.5 4.89 8.99
6/15/2022 1:00:00 PM 19.85 67.73 0.018 7.5 11.35 8.96
6/15/2022 1:15:00 PM 20.03 68.054 0.013 7.51 10.2 8.95
6/15/2022 1:30:00 PM 20.36 68.648 0.01 7.52 5.49 8.9
6/15/2022 1:45:00 PM 20.73 69.314 0.005 7.52 3.19 8.84
6/15/2022 2:00:00 PM 21.02 69.836 0.009 7.53 3.55 8.8
6/15/2022 2:15:00 PM 21.31 70.358 0.01 7.55 3.23 8.77
6/15/2022 2:30:00 PM 21.63 70.934 0.01 7.56 4.08 8.72
6/15/2022 2:45:00 PM 21.91 71.438 0.008 7.55 3.14 8.66
6/15/2022 3:00:00 PM 22.19 71.942 0.005 7.56 3.05 8.62
6/15/2022 3:15:00 PM 22.44 72.392 0.013 7.56 4.25 8.56
6/15/2022 3:30:00 PM 22.7 72.86 0.006 7.56 2.81 8.49
6/15/2022 3:45:00 PM 22.87 73.166 0.008 7.56 2.85 8.44
6/15/2022 4:00:00 PM 23.16 73.688 0.007 7.56 2.78 8.38
6/15/2022 4:15:00 PM 23.31 73.958 0.006 7.55 3.05 8.33
6/15/2022 4:30:00 PM 23.46 74.228 0.01 7.52 4.46 8.28
6/15/2022 4:45:00 PM 23.67 74.606 0.005 7.53 2.77 8.21
6/15/2022 5:00:00 PM 23.69 74.642 0.005 7.52 2.96 8.16
6/15/2022 5:15:00 PM 23.79 74.82201 0.004 7.5 4.46 8.1
6/15/2022 5:30:00 PM 23.78 74.804 0.002 7.44 3 8.07
6/15/2022 5:45:00 PM 23.85 74.93 0.001 7.49 2.78 8.02
6/15/2022 6:00:00 PM 23.96 75.128 0.003 7.47 2.82 7.94
6/15/2022 6:15:00 PM 23.77 74.786 0.002 7.45 2.8 8
6/15/2022 6:30:00 PM 23.68 74.624 0.001 7.46 2.63 7.99
6/15/2022 6:45:00 PM 23.55 74.39 0.005 7.46 2.83 7.95
6/15/2022 7:00:00 PM 23.51 74.318 0.002 7.42 2.8 7.89
6/15/2022 7:15:00 PM 23.41 74.138 0 7.42 2.82 7.88
6/15/2022 7:30:00 PM 23.37 74.066 0 7.4 2.95 7.87
6/15/2022 7:45:00 PM 23.31 73.958 0.002 7.42 2.98 7.87
6/15/2022 8:00:00 PM 23.23 73.814 0.001 7.4 3.23 7.85
6/15/2022 8:15:00 PM 23.15 73.67 0.001 7.38 3.45 7.83
6/15/2022 8:30:00 PM 23.05 73.49 0.001 7.36 4.38 7.79
6/15/2022 8:45:00 PM 22.89 73.202 0.001 7.36 3.88 7.81
6/15/2022 9:00:00 PM 22.69 72.842 0.001 7.36 5.1 7.82
6/15/2022 9:15:00 PM 22.51 72.518 0.002 7.34 4.54 7.83
6/15/2022 9:30:00 PM 22.33 72.194 0.001 7.34 4.63 7.84
6/15/2022 9:45:00 PM 22.16 71.888 0.001 7.35 4.54 7.86
6/15/2022 10:00:00 PM 22.02 71.636 0.001 7.34 7.84 7.88
6/15/2022 10:15:00 PM 21.87 71.366 0.001 7.35 6.64 7.94
6/15/2022 10:30:00 PM 21.75 71.15 0.001 7.33 6.56 7.94
6/15/2022 10:45:00 PM 21.61 70.898 0.001 7.32 5.77 7.95
6/15/2022 11:00:00 PM 21.46 70.628 0.001 7.33 21.12 7.98
6/15/2022 11:15:00 PM 21.34 70.412 0.001 7.34 5.82 8.02
6/15/2022 11:30:00 PM 21.19 70.142 0.001 7.32 6.36 8.02
6/15/2022 11:45:00 PM 21.09 69.962 0.001 7.32 5.87 8.04
6/16/2022 12:00:00 AM 20.99 69.782 0.001 7.33 7.37 8.08
6/16/2022 12:15:00 AM 20.9 69.62 0.001 7.33 5.43 8.09
6/16/2022 12:30:00 AM 20.8 69.44 0.001 7.32 5.53 8.11
6/16/2022 12:45:00 AM 20.72 69.296 0.001 7.32 11.83 8.13
6/16/2022 1:00:00 AM 20.66 69.188 0.001 7.31 20.74 8.15
6/16/2022 1:15:00 AM 20.58 69.044 0.001 7.3 12.51 8.22
6/16/2022 1:30:00 AM 20.53 68.954 0.001 7.32 16.65 8.17
6/16/2022 1:45:00 AM 20.5 68.9 0.001 7.33 11.82 8.17
6/16/2022 2:00:00 AM 20.5 68.9 0.001 7.33 7.39 8.18
6/16/2022 2:15:00 AM 20.47 68.846 0.001 7.33 9.55 8.19
6/16/2022 2:30:00 AM 20.39 68.702 0.001 7.31 7.89 8.19
6/16/2022 2:45:00 AM 20.33 68.594 0.001 7.31 7.68 8.21
6/16/2022 3:00:00 AM 20.25 68.45 0.001 7.31 512.87 8.17
6/16/2022 3:15:00 AM 20.19 68.342 0.001 7.29 5.19 8.2
6/16/2022 3:30:00 AM 20.11 68.198 0.001 7.29 15.92 8.2
6/16/2022 3:45:00 AM 20.04 68.07201 0.001 7.29 5.03 8.21
6/16/2022 4:00:00 AM 19.98 67.964 0.001 7.27 7.57 8.21
6/16/2022 4:15:00 AM 19.92 67.856 0.001 7.26 11.9 8.21
6/16/2022 4:30:00 AM 19.88 67.784 0.002 7.28 6.59 8.23
6/16/2022 4:45:00 AM 19.83 67.694 0.002 7.28 291.42 8.24
6/16/2022 5:00:00 AM 19.8 67.64 0.002 7.26 841.91 8.24
6/16/2022 5:15:00 AM 19.77 67.586 0.002 7.29 1835.12 8.26
6/16/2022 5:30:00 AM 19.7 67.46 0.002 7.28 3998.3 8.27
6/16/2022 5:45:00 AM 19.65 67.37 0.002 7.27 30.03 8.28
6/16/2022 6:00:00 AM 19.61 67.298 0.002 7.26 12.31 8.3
6/16/2022 6:15:00 AM 19.56 67.208 0.002 7.23 39.02 8.32
6/16/2022 6:30:00 AM 19.53 67.154 0.003 7.26 13.49 8.32
6/16/2022 6:45:00 AM 19.49 67.082 0.003 7.27 2597.11 8.35
6/16/2022 7:00:00 AM 19.46 67.028 0.006 7.28 291.84 8.38
6/16/2022 7:15:00 AM 19.42 66.956 0.01 7.29 1817.89 8.4
6/16/2022 7:30:00 AM 19.39 66.902 0.009 7.3 594.01 8.43
6/16/2022 7:45:00 AM 19.39 66.902 0.005 7.31 1135.65 8.46
6/16/2022 8:00:00 AM 19.4 66.92 0.006 7.33 60.82 8.55
6/16/2022 8:15:00 AM 19.46 67.028 0.009 7.36 3282.51 8.63
6/16/2022 8:30:00 AM 19.49 67.082 0.009 7.37 35.76 8.63
6/16/2022 8:45:00 AM 19.5 67.1 0.014 7.39 1619.95 8.67
6/16/2022 9:00:00 AM 19.54 67.172 0.013 7.4 31.29 8.7
6/16/2022 9:15:00 AM 19.58 67.244 0.014 7.41 100.29 8.73
6/16/2022 9:30:00 AM 19.63 67.334 0.016 7.41 77.44 8.75
6/16/2022 9:45:00 AM 19.72 67.496 0.013 7.44 4.45 8.77
6/16/2022 10:00:00 AM 19.82 67.676 0.014 7.46 180.43 8.81
6/16/2022 10:15:00 AM 19.85 67.73 0.019 7.43 11.81 8.8
6/16/2022 10:30:00 AM 19.95 67.91 0.021 7.46 360.6 8.81
6/16/2022 10:45:00 AM 20.06 68.108 0.016 7.48 8.54 8.81
6/16/2022 11:00:00 AM 20.23 68.414 0.011 7.51 915.46 8.83
6/16/2022 11:15:00 AM 20.38 68.684 0.009 7.51 7.91 8.8
6/16/2022 11:30:00 AM 20.52 68.936 0.013 7.52 918.25 8.79
6/16/2022 11:45:00 AM 20.61 69.098 0.014 7.53 1916.94 8.78
6/16/2022 12:00:00 PM 20.66 69.188 0.01 7.52 15.18 8.76
6/16/2022 12:15:00 PM 20.71 69.278 0.01 7.53 451.54 8.74
6/16/2022 12:30:00 PM 20.81 69.458 0.012 7.54 1611.86 8.75
6/16/2022 12:45:00 PM 20.99 69.782 0.008 7.55 17.32 8.74
6/16/2022 1:00:00 PM 21.24 70.232 0.01 7.56 3.44 8.72
6/16/2022 1:15:00 PM 21.5 70.7 0.016 7.58 4.32 8.69
6/16/2022 1:30:00 PM 21.65 70.97 0.011 7.58 9.28 8.64
6/16/2022 1:45:00 PM 21.69 71.042 0.005 7.56 8.52 8.58
6/16/2022 2:00:00 PM 21.82 71.276 0.011 7.57 6.78 8.59
6/16/2022 2:15:00 PM 22.05 71.69 0.005 7.58 4.28 8.55
6/16/2022 2:30:00 PM 22.23 72.014 0.005 7.57 4523.11 8.49
6/16/2022 2:45:00 PM 22.41 72.338 0.004 7.58 7.08 8.47
6/16/2022 3:00:00 PM 22.62 72.716 0.006 7.58 11.13 8.46
6/16/2022 3:15:00 PM 22.92 73.256 0.006 7.58 8.08 8.43
6/16/2022 3:30:00 PM 23.27 73.886 0.005 7.59 3.64 8.36
6/16/2022 3:45:00 PM 23.59 74.462 0.002 7.6 3.09 8.32
6/16/2022 4:00:00 PM 23.9 75.02 0.002 7.57 3.25 8.21
6/16/2022 4:15:00 PM 24.02 75.236 0.003 7.57 8.98 8.18
6/16/2022 4:30:00 PM 24.04 75.272 0.005 7.57 2.97 8.15
6/16/2022 4:45:00 PM 24.05 75.29 0.001 7.56 2.85 8.1
6/16/2022 5:00:00 PM 23.95 75.11 0.002 7.53 4.16 8.03
6/16/2022 5:15:00 PM 23.86 74.948 0.002 7.5 3.39 8
6/16/2022 5:30:00 PM 23.77 74.786 0.002 7.5 3.13 7.94
6/16/2022 5:45:00 PM 23.7 74.66 0.001 7.48 4.12 7.86
6/16/2022 6:00:00 PM 23.63 74.534 0.002 7.41 3.5 7.79
6/16/2022 6:15:00 PM 23.53 74.354 0.001 7.42 8.49 7.74
6/16/2022 6:30:00 PM 23.42 74.156 0.002 7.39 5.67 7.72
6/16/2022 6:45:00 PM 23.31 73.958 0.002 7.38 4.37 7.73
6/16/2022 7:00:00 PM 23.19 73.742 0.001 7.37 4.39 7.74
6/16/2022 7:15:00 PM 23.1 73.58 0.002 7.37 170.57 7.77
6/16/2022 7:30:00 PM 23.01 73.418 0.002 7.38 19.7 7.81
6/16/2022 7:45:00 PM 22.89 73.202 0.002 7.39 5.21 7.82
6/16/2022 8:00:00 PM 22.76 72.968 0.001 7.37 5.17 7.84
6/16/2022 8:15:00 PM 22.62 72.716 0.002 7.38 4.17 7.83
6/16/2022 8:30:00 PM 22.5 72.5 0.002 7.38 453.96 7.84
6/16/2022 8:45:00 PM 22.38 72.284 0.003 7.34 3.66 7.9
6/16/2022 9:00:00 PM 22.26 72.068 0.002 7.36 4.47 7.86
6/16/2022 9:15:00 PM 22.13 71.834 0.002 7.35 5.55 7.86
6/16/2022 9:30:00 PM 22 71.6 0.002 7.34 4.48 7.86
6/16/2022 9:45:00 PM 21.86 71.348 0.002 7.34 3.47 7.89
6/16/2022 10:00:00 PM 21.75 71.15 0.001 7.34 11.01 7.91
6/16/2022 10:15:00 PM 21.62 70.916 0.001 7.34 3.26 7.92
6/16/2022 10:30:00 PM 21.49 70.682 0.001 7.34 4.72 7.94
6/16/2022 10:45:00 PM 21.36 70.448 0.001 7.35 5.35 7.96
6/16/2022 11:00:00 PM 21.24 70.232 0.001 7.35 4.85 7.97
6/16/2022 11:15:00 PM 21.12 70.016 0.001 7.35 3.79 7.99
6/16/2022 11:30:00 PM 21 69.8 0.001 7.36 3.56 8.02
6/16/2022 11:45:00 PM 20.89 69.602 0.002 7.36 6.78 8.06
6/17/2022 12:00:00 AM 20.77 69.386 0.001 7.34 4.6 8.07
6/17/2022 12:15:00 AM 20.68 69.224 0.001 7.33 8.35 8.08
6/17/2022 12:30:00 AM 20.56 69.008 0.001 7.32 12.63 8.13
6/17/2022 12:45:00 AM 20.44 68.792 0.001 7.34 31.1 8.14
6/17/2022 1:00:00 AM 20.32 68.576 0.001 7.33 10.93 8.17
6/17/2022 1:15:00 AM 20.22 68.396 0.001 7.33 6.24 8.17
6/17/2022 1:30:00 AM 20.11 68.198 0.001 7.33 61.3 8.18
6/17/2022 1:45:00 AM 20.02 68.036 0.001 7.29 8.29 8.18
6/17/2022 2:00:00 AM 19.93 67.874 0.001 7.32 5.54 8.19
6/17/2022 2:15:00 AM 19.82 67.676 0.001 7.31 5.34 8.21
6/17/2022 2:30:00 AM 19.73 67.514 0.001 7.32 5.39 8.25
6/17/2022 2:45:00 AM 19.66 67.388 0.001 7.3 25.06 8.24
6/17/2022 3:00:00 AM 19.58 67.244 0.001 7.29 4.66 8.26
6/17/2022 3:15:00 AM 19.48 67.064 0.001 7.32 4.95 8.28
6/17/2022 3:30:00 AM 19.36 66.848 0.001 7.31 5.36 8.31
6/17/2022 3:45:00 AM 19.29 66.722 0.001 7.32 4.96 8.31
6/17/2022 4:00:00 AM 19.19 66.542 0.001 7.31 5.67 8.33
6/17/2022 4:15:00 AM 19.11 66.398 0.001 7.3 4.02 8.34
6/17/2022 4:30:00 AM 19.05 66.29 0.001 7.31 3.86 8.36
6/17/2022 4:45:00 AM 19.01 66.218 0.001 7.31 5.51 8.36
6/17/2022 5:00:00 AM 18.98 66.164 0.001 7.3 4.49 8.39
6/17/2022 5:15:00 AM 18.94 66.092 0.001 7.31 10.03 8.37
6/17/2022 5:30:00 AM 18.87 65.966 0.001 7.3 6.76 8.38
6/17/2022 5:45:00 AM 18.81 65.858 0.001 7.31 7.3 8.39
6/17/2022 6:00:00 AM 18.77 65.786 0.001 7.28 4.6 8.45
6/17/2022 6:15:00 AM 18.74 65.732 0.001 7.31 4.9 8.45
6/17/2022 6:30:00 AM 18.75 65.75 0.001 7.28 4.25 8.5
6/17/2022 6:45:00 AM 18.77 65.786 0.001 7.32 6.6 8.53
6/17/2022 7:00:00 AM 18.8 65.84 0.001 7.32 5.85 8.56
6/17/2022 7:15:00 AM 18.82 65.876 0.001 7.34 6.25 8.6
6/17/2022 7:30:00 AM 18.86 65.948 0.001 7.35 5.83 8.63
6/17/2022 7:45:00 AM 18.9 66.02 0.001 7.35 5.4 8.66
6/17/2022 8:00:00 AM 18.96 66.128 0.001 7.39 6.57 8.68
6/17/2022 8:15:00 AM 18.96 66.128 0.001 7.32 4.84 8.72
6/17/2022 8:30:00 AM 19 66.2 0.001 7.41 5.5 8.68
6/17/2022 8:45:00 AM 19.09 66.362 0.001 7.42 19.56 8.71
6/17/2022 9:00:00 AM 19.16 66.488 0.001 7.42 11.81 8.69
6/17/2022 9:15:00 AM 19.21 66.578 0.001 7.44 4.38 8.71
6/17/2022 9:30:00 AM 19.32 66.776 0.001 7.46 4.29 8.73
6/17/2022 9:45:00 AM 19.37 66.866 0.001 7.46 3.79 8.73
6/17/2022 10:00:00 AM 19.56 67.208 0.001 7.46 9.58 8.72
6/17/2022 10:15:00 AM 19.67 67.406 0.001 7.5 3.27 8.71
6/17/2022 10:30:00 AM 19.74 67.532 0.001 7.47 3.22 8.7
6/17/2022 10:45:00 AM 19.88 67.784 0 7.5 2.93 8.7
6/17/2022 11:00:00 AM 20.02 68.036 0.001 7.5 3.01 8.69
6/17/2022 11:15:00 AM 20.27 68.486 0 7.49 2.9 8.66
6/17/2022 11:30:00 AM 20.27 68.486 0 7.48 3.36 8.66
6/17/2022 11:45:00 AM 20.58 69.044 0 7.5 3.29 8.61
6/17/2022 12:00:00 PM 20.63 69.134 0 7.5 3 8.63
6/17/2022 12:15:00 PM 20.94 69.692 0 7.52 3.21 8.59
6/17/2022 12:30:00 PM 21 69.8 0 7.51 2.82 8.58
6/17/2022 12:45:00 PM 21.14 70.052 0 7.53 3.02 8.57
6/17/2022 1:00:00 PM 21.51 70.718 0 7.47 3.84 8.52
6/17/2022 1:15:00 PM 21.75 71.15 0 7.52 2.97 8.52
6/17/2022 1:30:00 PM 21.98 71.564 0 7.53 3.03 8.48
6/17/2022 1:45:00 PM 22.37 72.266 0 7.52 2.98 8.46
6/17/2022 2:00:00 PM 22.57 72.626 0 7.56 2.98 8.43
6/17/2022 2:15:00 PM 22.67 72.806 0 7.54 13.91 8.34
6/17/2022 2:30:00 PM 22.71 72.878 0 7.54 7.33 8.27
6/17/2022 2:45:00 PM 22.93 73.274 0 7.54 5.86 8.27
6/17/2022 3:00:00 PM 23.22 73.796 0 7.52 12.28 8.22
6/17/2022 3:15:00 PM 23.43 74.174 0 7.54 5.94 8.2
6/17/2022 3:30:00 PM 23.91 75.038 0 7.56 4.04 8.06
6/17/2022 3:45:00 PM 23.7 74.66 0 7.54 2.99 8.06
6/17/2022 4:00:00 PM 23.84 74.912 0 7.52 2.9 8.08
6/17/2022 4:15:00 PM 23.6 74.48 0 7.54 4.21 8.14
6/17/2022 4:30:00 PM 23.89 75.002 0 7.52 4.55 8.06
6/17/2022 4:45:00 PM 23.87 74.966 0 7.51 7.34 8.03
6/17/2022 5:00:00 PM 23.89 75.002 0 7.52 6.59 7.95
6/17/2022 5:15:00 PM 23.86 74.948 0 7.5 8.2 7.95
6/17/2022 5:30:00 PM 23.66 74.588 0 7.5 1338.97 7.93
6/17/2022 5:45:00 PM 23.7 74.66 0 7.49 2.77 7.88
6/17/2022 6:00:00 PM 24.02 75.236 0 7.5 4.18 7.81
6/17/2022 6:15:00 PM 23.59 74.462 0.001 7.5 9.71 7.88
6/17/2022 6:30:00 PM 23.18 73.724 0 7.47 7.1 7.9
6/17/2022 6:45:00 PM 22.88 73.184 0 7.44 6.58 7.94
6/17/2022 7:00:00 PM 22.61 72.698 0 7.46 7.13 7.99
6/17/2022 7:15:00 PM 22.46 72.42799 0 7.45 5.37 7.98
6/17/2022 7:30:00 PM 22.36 72.248 0 7.46 7.08 7.97
6/17/2022 7:45:00 PM 22.25 72.05 0 7.41 6.65 7.96
6/17/2022 8:00:00 PM 21.92 71.456 0 7.44 6.35 8
6/17/2022 8:15:00 PM 21.72 71.096 0 7.42 6.66 7.97
6/17/2022 8:30:00 PM 21.74 71.132 0 7.38 6.39 7.98
6/17/2022 8:45:00 PM 21.39 70.502 0 7.39 9.09 7.98
6/17/2022 9:00:00 PM 21.13 70.034 0 7.39 7.26 7.95
6/17/2022 9:15:00 PM 20.98 69.764 0 7.37 6.23 7.93
6/17/2022 9:30:00 PM 20.82 69.476 0 7.36 6.73 8.01
6/17/2022 9:45:00 PM 20.7 69.26 0 7.37 7.06 7.98
6/17/2022 10:00:00 PM 20.55 68.99 0 7.35 5.67 8.03
6/17/2022 10:15:00 PM 20.37 68.666 0 7.35 6.14 8.04
6/17/2022 10:30:00 PM 20.19 68.342 0 7.36 6.5 8.07
6/17/2022 10:45:00 PM 19.99 67.982 0 7.36 6.83 8.11
6/17/2022 11:00:00 PM 19.79 67.622 0 7.35 7.37 8.13
6/17/2022 11:15:00 PM 19.81 67.658 0 7.34 8.44 8.22
6/17/2022 11:30:00 PM 19.57 67.226 0 7.36 6.93 8.28
6/17/2022 11:45:00 PM 19.47 67.046 0 7.35 6.8 8.44
6/18/2022 12:00:00 AM 19.36 66.848 0 7.36 6.53 8.52
6/18/2022 12:15:00 AM 19.3 66.74 0 7.36 6.65 8.6
6/18/2022 12:30:00 AM 19.16 66.488 0 7.36 6.94 8.64
6/18/2022 12:45:00 AM 18.95 66.11 0 7.37 6.19 8.71
6/18/2022 1:00:00 AM 18.82 65.876 0 7.35 7.32 8.75
6/18/2022 1:15:00 AM 18.7 65.66 0 7.35 6.14 8.84
6/18/2022 1:30:00 AM 18.39 65.102 0 7.36 6.05 8.9
6/18/2022 1:45:00 AM 18.34 65.012 0 7.35 6.62 8.99
6/18/2022 2:00:00 AM 18.26 64.868 0 7.35 6.52 8.97
6/18/2022 2:15:00 AM 18.02 64.436 0 7.34 6.2 9.05
6/18/2022 2:30:00 AM 17.83 64.094 0 7.35 8.09 9.12
6/18/2022 2:45:00 AM 17.52 63.536 0 7.32 6 9.18
6/18/2022 3:00:00 AM 17.32 63.176 0 7.31 5.95 9.24
6/18/2022 3:15:00 AM 17.26 63.068 0 7.35 6.42 9.25
6/18/2022 3:30:00 AM 17.2 62.96 0 7.32 6.49 9.26
6/18/2022 3:45:00 AM 17.26 63.068 0 7.09 6.48 9.12
6/18/2022 4:00:00 AM 17.09 62.762 0 7.38 6.75 9.28
6/18/2022 4:15:00 AM 17.13 62.834 0 7.15 6.53 9.19
6/18/2022 4:30:00 AM 16.91 62.438 0 7.41 6.8 9.33
6/18/2022 4:45:00 AM 16.76 62.168 0 7.41 6.62 9.36
6/18/2022 5:00:00 AM 16.49 61.682 0 7.39 6.51 9.43
6/18/2022 5:15:00 AM 15.99 60.782 0 7.3 8.38 9.48
6/18/2022 5:30:00 AM 15.58 60.044 0 7.48 6.58 9.62
6/18/2022 5:45:00 AM 15.31 59.558 0 7.22 6.22 9.6
6/18/2022 6:00:00 AM 15.2 59.36 0 7.47 6.27 9.7
6/18/2022 6:15:00 AM 15.34 59.612 0 7.45 6.05 9.66
6/18/2022 6:30:00 AM 15.29 59.522 0 7.5 6.53 9.67
6/18/2022 6:45:00 AM 15.27 59.486 0 7.31 6.76 9.65
6/18/2022 7:00:00 AM 15.25 59.45 0 7.24 7.64 9.64
6/18/2022 7:15:00 AM 15.64 60.152 0 7.35 9.77 9.62
6/18/2022 7:30:00 AM 15.59 60.062 0 7.41 6.9 9.62
6/18/2022 7:45:00 AM 15.97 60.746 0 7.4 9.54 9.46
6/18/2022 8:00:00 AM 15.62 60.116 0 7.35 5.91 9.52
6/18/2022 8:15:00 AM 15.57 60.026 0 7.4 6.24 9.55
6/18/2022 8:30:00 AM 15.79 60.422 0 7.41 6.81 9.44
6/18/2022 8:45:00 AM 15.49 59.882 0 7.42 6.24 9.55
6/18/2022 9:00:00 AM 15.51 59.918 0 7.43 6.3 9.55
6/18/2022 9:15:00 AM 15.48 59.864 0 7.41 6.37 9.61
6/18/2022 9:30:00 AM 15.49 59.882 0 7.46 6.31 9.61
6/18/2022 9:45:00 AM 15.4 59.72 0 7.48 6.25 9.66
6/18/2022 10:00:00 AM 15.44 59.792 0 7.46 6.47 9.64
6/18/2022 10:15:00 AM 15.24 59.432 0 7.48 6.38 9.7
6/18/2022 10:30:00 AM 15.58 60.044 0 7.47 6.85 9.59
6/18/2022 10:45:00 AM 15.18 59.324 0 7.48 6.28 9.7
6/18/2022 11:00:00 AM 14.95 58.91 0 7.49 6.34 9.79
6/18/2022 11:15:00 AM 15.07 59.126 0 7.48 6.44 9.75
6/18/2022 11:30:00 AM 15.22 59.396 0 7.51 6.39 9.72
6/18/2022 11:45:00 AM 15.36 59.648 0 7.5 6.19 9.7
6/18/2022 12:00:00 PM 15.47 59.846 0 7.52 6.18 9.69
6/18/2022 12:15:00 PM 15.6 60.08 0 7.52 6.2 9.66
6/18/2022 12:30:00 PM 15.95 60.71 0 7.53 6.17 9.58
6/18/2022 12:45:00 PM 15.95 60.71 0 7.54 6.28 9.6
6/18/2022 1:00:00 PM 16.24 61.232 0 7.54 6.22 9.52
6/18/2022 1:15:00 PM 16.43 61.574 0.001 7.54 6.73 9.47
6/18/2022 1:30:00 PM 16.68 62.024 0 7.54 6.16 9.48
6/18/2022 1:45:00 PM 17.27 63.086 0 7.53 6.13 9.32
6/18/2022 2:00:00 PM 17.66 63.788 0 7.55 6.61 9.26
6/18/2022 2:15:00 PM 17.9 64.22 0 7.54 6.09 9.24
6/18/2022 2:30:00 PM 18.23 64.814 0 7.55 6.18 9.18
6/18/2022 2:45:00 PM 18.45 65.21 0 7.55 6.14 9.11
6/18/2022 3:00:00 PM 18.48 65.264 0 7.53 6.05 9.13
6/18/2022 3:15:00 PM 18.98 66.164 0 7.55 6.15 9.02
6/18/2022 3:30:00 PM 19.54 67.172 0 7.53 6.21 8.86
6/18/2022 3:45:00 PM 19.62 67.316 0 7.55 5.95 8.88
6/18/2022 4:00:00 PM 19.66 67.388 0 7.56 6.08 8.87
6/18/2022 4:15:00 PM 19.88 67.784 0 7.57 6.02 8.82
6/18/2022 4:30:00 PM 20.05 68.09 0 7.55 6 8.75
6/18/2022 4:45:00 PM 19.95 67.91 0 7.55 6.12 8.77
6/18/2022 5:00:00 PM 19.92 67.856 0 7.51 6.07 8.77
6/18/2022 5:15:00 PM 19.72 67.496 0 7.37 5.94 8.76
6/18/2022 5:30:00 PM 19.83 67.694 0 7.54 5.97 8.77
6/18/2022 5:45:00 PM 19.8 67.64 0 7.45 6.04 8.78
6/18/2022 6:00:00 PM 20.11 68.198 0 7.47 6.05 8.67
6/18/2022 6:15:00 PM 19.48 67.064 0 7.34 5.94 8.78
6/18/2022 6:30:00 PM 18.93 66.074 0 7.4 6.09 8.92
6/18/2022 6:45:00 PM 18.83 65.894 0 7.34 6.13 8.96
6/18/2022 7:00:00 PM 18.43 65.174 0 7.48 5.88 9.1
6/18/2022 7:15:00 PM 18.16 64.688 0 7.31 6.09 9.14
6/18/2022 7:30:00 PM 18.18 64.724 0 7.32 6.15 9.13
6/18/2022 7:45:00 PM 17.86 64.148 0 7.41 5.99 9.22
6/18/2022 8:00:00 PM 17.59 63.662 0 7.31 6.04 9.26
6/18/2022 8:15:00 PM 17.44 63.392 0 7.37 5.99 9.32
6/18/2022 8:30:00 PM 17.29 63.122 0 7.46 6.1 9.34
6/18/2022 8:45:00 PM 17.03 62.654 0 7.4 6.04 9.39
6/18/2022 9:00:00 PM 16.69 62.042 0 7.36 6.08 9.47
6/18/2022 9:15:00 PM 16.38 61.484 0 7.4 6.02 9.51
6/18/2022 9:30:00 PM 16.23 61.214 0 7.4 6.15 9.57
6/18/2022 9:45:00 PM 16.22 61.196 0 7.42 6 9.55
6/18/2022 10:00:00 PM 15.69 60.242 0 7.33 6.12 9.68
6/18/2022 10:15:00 PM 15.29 59.522 0 7.36 6.2 9.78
6/18/2022 10:30:00 PM 14.6 58.28 0 7.36 6.27 9.97
6/18/2022 10:45:00 PM 15.01 59.018 0 7.52 6.65 9.8
6/18/2022 11:00:00 PM 13.92 57.056 0 7.47 6.14 10.12
6/18/2022 11:15:00 PM 13.64 56.552 0 7.53 6.18 10.11
6/18/2022 11:30:00 PM 13.45 56.21 0 7.55 6.12 10.18
6/18/2022 11:45:00 PM 14.02 57.236 0 7.6 6.78 10.03
6/19/2022 12:00:00 AM 13.23 55.814 0 7.63 6.16 10.22
6/19/2022 12:15:00 AM 12.98 55.364 0 7.58 6.15 10.28
6/19/2022 12:30:00 AM 13.52 56.336 0 7.6 7.07 10.12
6/19/2022 12:45:00 AM 12.69 54.842 0 7.56 6.14 10.38
6/19/2022 1:00:00 AM 12.53 54.554 0 7.6 6.56 10.39
6/19/2022 1:15:00 AM 13.26 55.868 0 7.62 10.3 10.17
6/19/2022 1:30:00 AM 12.4 54.32 0 7.51 6.41 10.37
6/19/2022 1:45:00 AM 12.78 55.004 0 7.62 6.84 10.25
6/19/2022 2:00:00 AM 11.93 53.474 0 7.57 6.32 10.5
6/19/2022 2:15:00 AM 12.48 54.464 0 7.6 7.11 10.31
6/19/2022 2:30:00 AM 11.81 53.258 0 7.49 6.59 10.51
6/19/2022 2:45:00 AM 11.63 52.934 0 7.49 6.39 10.54
6/19/2022 3:00:00 AM 11.28 52.304 0 7.46 6.53 10.65
6/19/2022 3:15:00 AM 11.14 52.052 0 7.42 8.53 10.69
6/19/2022 3:30:00 AM 11.03 51.854 0 7.33 8.59 10.69
6/19/2022 3:45:00 AM 10.9 51.62 0 7.35 6.78 10.72
6/19/2022 4:00:00 AM 10.76 51.368 0 7.41 7.89 10.77
6/19/2022 4:15:00 AM 10.62 51.116 0 7.39 10.61 10.8
6/19/2022 4:30:00 AM 10.41 50.738 0 7.37 9.1 10.86
6/19/2022 4:45:00 AM 10.38 50.684 0 7.38 7.46 10.85
6/19/2022 5:00:00 AM 10.36 50.648 0 7.35 7.66 10.87
6/19/2022 5:15:00 AM 10.34 50.612 0 7.31 7.67 10.9
6/19/2022 5:30:00 AM 10.24 50.432 0 7.32 7.86 10.91
6/19/2022 5:45:00 AM 10.24 50.432 0 7.35 25.62 10.93
6/19/2022 6:00:00 AM 10.18 50.324 0 7.33 7.89 10.95
6/19/2022 6:15:00 AM 10.1 50.18 0 7.38 7.41 10.99
6/19/2022 6:30:00 AM 10.11 50.198 0 7.2 7.46 10.96
6/19/2022 6:45:00 AM 10.23 50.414 0 7.41 7.86 10.96
6/19/2022 7:00:00 AM 10.2 50.36 0 7.47 8.54 10.96
6/19/2022 7:15:00 AM 10.46 50.828 0 7.47 8.31 10.87
6/19/2022 7:30:00 AM 10.73 51.314 0 7.45 19.12 10.79
6/19/2022 7:45:00 AM 11.02 51.836 0 7.46 23.66 10.71
6/19/2022 8:00:00 AM 11.25 52.25 0 7.39 26.2 10.67
6/19/2022 8:15:00 AM 11.46 52.628 0 7.51 7.53 10.59
6/19/2022 8:30:00 AM 11.7 53.06 0 7.56 8.59 10.53
6/19/2022 8:45:00 AM 12.07 53.726 0 7.56 7.09 10.42
6/19/2022 9:00:00 AM 11.92 53.456 0 7.53 7.19 10.49
6/19/2022 9:15:00 AM 12.06 53.708 0 7.53 6.45 10.45
6/19/2022 9:30:00 AM 12.37 54.266 0 7.56 6.65 10.36
6/19/2022 9:45:00 AM 12.71 54.878 0 7.6 6.61 10.28
6/19/2022 10:00:00 AM 13 55.4 0.001 7.59 6.83 10.22
6/19/2022 10:15:00 AM 13.1 55.58 0 7.6 6.65 10.2
6/19/2022 10:30:00 AM 13.19 55.742 0 7.5 6.56 10.2
6/19/2022 10:45:00 AM 13.66 56.588 0 7.57 6.74 10.05
6/19/2022 11:00:00 AM 13.6 56.48 0 7.46 6.17 10.1
6/19/2022 11:15:00 AM 13.7 56.66 0 7.59 6.5 10.12
6/19/2022 11:30:00 AM 14.11 57.398 0 7.61 6.56 10.02
6/19/2022 11:45:00 AM 14.48 58.064 0 7.49 6.33 9.85
6/19/2022 12:00:00 PM 14.59 58.262 0 7.15 6.75 9.8
6/19/2022 12:15:00 PM 14.6 58.28 0 7.71 6.29 9.94
6/19/2022 12:30:00 PM 14.92 58.856 0 7.26 6.22 9.83
6/19/2022 12:45:00 PM 15.51 59.918 0 7.23 6.36 9.57
6/19/2022 1:00:00 PM 15.83 60.494 0 7.48 6.65 9.62
6/19/2022 1:15:00 PM 16.15 61.07 0 7.44 6.16 9.52
6/19/2022 1:30:00 PM 16.16 61.088 0 7.52 6.36 9.56
6/19/2022 1:45:00 PM 16.73 62.114 0 7.63 6.49 9.39
6/19/2022 2:00:00 PM 16.74 62.132 0 7.33 6.19 9.33
6/19/2022 2:15:00 PM 17.45 63.41 0 7.71 6.65 9.28
6/19/2022 2:30:00 PM 17.38 63.284 0 7.56 6.07 9.31
6/19/2022 2:45:00 PM 17.15 62.87 0 7.42 6.33 9.28
6/19/2022 3:00:00 PM 17.98 64.364 0 7.66 7.3 9.19
6/19/2022 3:15:00 PM 17.89 64.202 0 7.51 6.04 9.19
6/19/2022 3:30:00 PM 18.62 65.516 0 7.44 6.42 8.9
6/19/2022 3:45:00 PM 18.95 66.11 0 7.42 6.29 8.84
6/19/2022 4:00:00 PM 19.56 67.208 0 7.6 6.21 8.85
6/19/2022 4:15:00 PM 20.14 68.252 0 7.55 6.2 8.72
6/19/2022 4:30:00 PM 19.87 67.766 0 7.46 6.21 8.71
6/19/2022 4:45:00 PM 19.66 67.388 0 7.7 6.63 8.87
6/19/2022 5:00:00 PM 19.57 67.226 0 7.54 6.2 8.88
6/19/2022 5:15:00 PM 19.44 66.992 0 7.5 6.21 8.89
6/19/2022 5:30:00 PM 19.59 67.262 0 7.54 6.17 8.86
6/19/2022 5:45:00 PM 19.55 67.19 0 7.49 6.04 8.86
6/19/2022 6:00:00 PM 19.65 67.37 0 7.49 6.52 8.66
6/19/2022 6:15:00 PM 19.4 66.92 0 7.53 6.3 8.9
6/19/2022 6:30:00 PM 18.77 65.786 0 7.51 5.99 9.04
6/19/2022 6:45:00 PM 18.37 65.066 0 7.6 6.34 9.1
6/19/2022 7:00:00 PM 18.29 64.922 0 7.58 5.92 9.1
6/19/2022 7:15:00 PM 17.9 64.22 0 7.49 6.25 9.19
6/19/2022 7:30:00 PM 17.6 63.68 0 7.22 6.18 9.22
6/19/2022 7:45:00 PM 17.24 63.032 0 7.52 6.18 9.31
6/19/2022 8:00:00 PM 16.91 62.438 0 7.6 6.42 9.36
6/19/2022 8:15:00 PM 16.47 61.646 0 7.58 6.41 9.48
6/19/2022 8:30:00 PM 15.86 60.548 0 7.48 6.42 9.59
6/19/2022 8:45:00 PM 15.37 59.666 0 7.23 6.38 9.67
6/19/2022 9:00:00 PM 15.02 59.036 0 7.48 6.33 9.76
6/19/2022 9:15:00 PM 14.89 58.802 0.001 7.44 6.67 9.74
6/19/2022 9:30:00 PM 14.76 58.568 0.001 7.56 6.94 9.79
6/19/2022 9:45:00 PM 14.38 57.884 0.001 7.51 6.91 9.86
6/19/2022 10:00:00 PM 14.28 57.704 0.001 7.56 7.64 9.84
6/19/2022 10:15:00 PM 13.89 57.002 0.001 7.53 6.78 9.95
6/19/2022 10:30:00 PM 13.6 56.48 0.001 7.54 6.88 10.02
6/19/2022 10:45:00 PM 12.99 55.382 0 7.49 6.39 10.16
6/19/2022 11:00:00 PM 12.76 54.968 0 7.41 6.84 10.2
6/19/2022 11:15:00 PM 12.78 55.004 0.001 7.51 6.51 10.21
6/19/2022 11:30:00 PM 12.31 54.158 0 7.41 6.76 10.33
6/19/2022 11:45:00 PM 12.36 54.248 0 7.43 12.49 10.29
6/20/2022 12:00:00 AM 12.3 54.14 0.001 7.42 7.4 10.31
6/20/2022 12:15:00 AM 11.66 52.988 0 7.36 12.72 10.48
6/20/2022 12:30:00 AM 11.81 53.258 0 7.39 8.49 10.43
6/20/2022 12:45:00 AM 11.7 53.06 0 7.38 6.89 10.45
6/20/2022 1:00:00 AM 11.2 52.16 0 7.32 6.39 10.62
6/20/2022 1:15:00 AM 10.97 51.746 0 7.31 6.76 10.68
6/20/2022 1:30:00 AM 10.84 51.512 0 7.3 6.77 10.71
6/20/2022 1:45:00 AM 10.57 51.026 0 7.31 6.66 10.79
6/20/2022 2:00:00 AM 10.46 50.828 0 7.3 6.83 10.8
6/20/2022 2:15:00 AM 10.12 50.216 0 7.3 6.52 10.9
6/20/2022 2:30:00 AM 10.01 50.018 0 7.3 34.74 10.95
6/20/2022 2:45:00 AM 9.9 49.82 0 7.27 11.06 10.96
6/20/2022 3:00:00 AM 9.67 49.406 0 7.27 6.93 11.02
6/20/2022 3:15:00 AM 9.71 49.478 0 7.25 7.43 11.01
6/20/2022 3:30:00 AM 9.69 49.442 0 7.21 33.2 11.02
6/20/2022 3:45:00 AM 9.73 49.514 0 7.2 20.96 11
6/20/2022 4:00:00 AM 9.8 49.64 0 7.19 14.24 11
6/20/2022 4:15:00 AM 9.94 49.892 0 7.2 23.31 10.93
6/20/2022 4:30:00 AM 9.93 49.874 0 7.19 6.75 10.95
6/20/2022 4:45:00 AM 10 50 0 7.18 13.9 10.91
6/20/2022 5:00:00 AM 10.42 50.756 0.001 7.23 7.45 10.8
6/20/2022 5:15:00 AM 10.13 50.234 0 7.13 6.86 10.9
6/20/2022 5:30:00 AM 10.05 50.09 0 7.18 19.85 10.93
6/20/2022 5:45:00 AM 10.09 50.162 0 7.18 13.96 10.91
6/20/2022 6:00:00 AM 10.25 50.45 0.001 7.19 14.59 10.82
6/20/2022 6:15:00 AM 10.02 50.036 0 7.23 8.16 10.95
6/20/2022 6:30:00 AM 10.16 50.288 0 7.19 30.42 10.88
6/20/2022 6:45:00 AM 10.32 50.576 0 7.17 38.86 10.86
6/20/2022 7:00:00 AM 10.43 50.774 0 7.15 6.98 10.82
6/20/2022 7:15:00 AM 10.53 50.954 0 7.17 9.9 10.79
6/20/2022 7:30:00 AM 10.76 51.368 0 7.16 7.03 10.75
6/20/2022 7:45:00 AM 10.95 51.71 0 7.18 6.52 10.69
6/20/2022 8:00:00 AM 11.15 52.07 0 7.15 6.46 10.63
6/20/2022 8:15:00 AM 11.58 52.844 0.001 7.21 8.02 10.52
6/20/2022 8:30:00 AM 11.71 53.078 0 7.21 6.48 10.5
6/20/2022 8:45:00 AM 11.99 53.582 0 7.2 14.79 10.43
6/20/2022 9:00:00 AM 12.32 54.176 0 7.19 10.26 10.35
6/20/2022 9:15:00 AM 12.59 54.662 0 7.2 6.33 10.29
6/20/2022 9:30:00 AM 12.94 55.292 0 7.21 6.68 10.21
6/20/2022 9:45:00 AM 13.35 56.03 0 7.24 6.81 10.11
6/20/2022 10:00:00 AM 13.45 56.21 0 7.1 6.37 10.09
6/20/2022 10:15:00 AM 13.9 57.02 0 7.29 6.29 10.02
6/20/2022 10:30:00 AM 14.44 57.992 0 7.09 6.26 9.84
6/20/2022 10:45:00 AM 14.84 58.712 0 7.31 6.74 9.77
6/20/2022 11:00:00 AM 15.18 59.324 0 7.26 6.12 9.72
6/20/2022 11:15:00 AM 15.39 59.702 0 7.09 6.41 9.68
6/20/2022 11:30:00 AM 15.45 59.81 0.001 7.22 6.67 9.69
6/20/2022 11:45:00 AM 15.82 60.476 0 7.12 6.19 9.61
6/20/2022 12:00:00 PM 16.03 60.854 0 7.04 6.14 9.58
6/20/2022 12:15:00 PM 16.23 61.214 0 7.03 6.15 9.52
6/20/2022 12:30:00 PM 15.92 60.656 0 6.93 6.19 9.59
6/20/2022 12:45:00 PM 16.09 60.962 0 7.02 6.14 9.59
6/20/2022 1:00:00 PM 16.61 61.898 0 6.79 5.93 9.36
6/20/2022 1:15:00 PM 16.58 61.844 0 6.92 6.06 9.48
6/20/2022 1:30:00 PM 16.77 62.186 0 6.86 6.13 9.43
6/20/2022 1:45:00 PM 17.38 63.284 0 6.97 6.01 9.28
6/20/2022 2:00:00 PM 17.56 63.608 0 6.84 6.09 9.29
6/20/2022 2:15:00 PM 18.29 64.922 0 7.05 5.97 9.09
6/20/2022 2:30:00 PM 18.31 64.958 0 6.86 6.12 9.05
6/20/2022 2:45:00 PM 18.62 65.516 0 6.86 6.24 9.03
6/20/2022 3:00:00 PM 18.93 66.074 0 6.92 5.97 9.01
6/20/2022 3:15:00 PM 19.4 66.92 0 7.08 6.11 8.92
6/20/2022 3:30:00 PM 19.67 67.406 0 6.95 5.85 8.84
6/20/2022 3:45:00 PM 20.11 68.198 0 7.11 5.9 8.76
6/20/2022 4:00:00 PM 20.24 68.432 0 7.2 5.97 8.74
6/20/2022 4:15:00 PM 20.34 68.612 0 7.19 5.8 8.71
6/20/2022 4:30:00 PM 20.16 68.288 0 7.1 6.07 8.77
6/20/2022 4:45:00 PM 20.14 68.252 0 7.15 5.83 8.78
6/20/2022 5:00:00 PM 20.05 68.09 0 7.19 5.92 8.79
6/20/2022 5:15:00 PM 20.07 68.126 0 7.1 5.88 8.72
6/20/2022 5:30:00 PM 20.42 68.756 0 7.29 5.86 8.71
6/20/2022 5:45:00 PM 20.61 69.098 0 7.18 5.89 8.65
6/20/2022 6:00:00 PM 21.06 69.908 0 7.21 6.09 8.58
6/20/2022 6:15:00 PM 20.65 69.17 0 7.24 5.81 8.65
6/20/2022 6:30:00 PM 20.24 68.432 0 7.25 6.25 8.72
6/20/2022 6:45:00 PM 19.95 67.91 0 7.13 5.83 8.77
6/20/2022 7:00:00 PM 19.76 67.568 0 7.31 5.75 8.83
6/20/2022 7:15:00 PM 19.63 67.334 0 7.38 5.84 8.84
6/20/2022 7:30:00 PM 19.48 67.064 0 7.41 5.84 8.87
6/20/2022 7:45:00 PM 19.31 66.758 0 7.43 5.93 8.9
6/20/2022 8:00:00 PM 19.12 66.416 0 7.42 5.89 8.93
6/20/2022 8:15:00 PM 18.93 66.074 0 7.42 5.87 8.97
6/20/2022 8:30:00 PM 18.65 65.57 0 7.44 5.81 9.02
6/20/2022 8:45:00 PM 18.31 64.958 0 7.42 5.92 9.08
6/20/2022 9:00:00 PM 18.05 64.49 0 7.44 5.89 9.14
6/20/2022 9:15:00 PM 17.73 63.914 0 7.45 6.12 9.21
6/20/2022 9:30:00 PM 17.43 63.374 0 7.48 5.93 9.28
6/20/2022 9:45:00 PM 17.21 62.978 0 7.48 6.2 9.31
6/20/2022 10:00:00 PM 16.97 62.546 0 7.48 6.07 9.36
6/20/2022 10:15:00 PM 16.58 61.844 0 7.36 6.09 9.45
6/20/2022 10:30:00 PM 16.36 61.448 0 7.44 6.11 9.5
6/20/2022 10:45:00 PM 16.1 60.98 0 7.44 6.08 9.54
6/20/2022 11:00:00 PM 15.96 60.728 0 7.42 6.52 9.56
6/20/2022 11:15:00 PM 15.69 60.242 0.001 7.44 6.63 9.62
6/20/2022 11:30:00 PM 15.64 60.152 0.001 7.42 6.52 9.64
6/20/2022 11:45:00 PM 15.67 60.206 0.001 7.4 6.5 9.62
6/21/2022 12:00:00 AM 15.64 60.152 0 7.4 6.07 9.62
6/21/2022 12:15:00 AM 15.44 59.792 0 7.35 5.99 9.67
6/21/2022 12:30:00 AM 15.48 59.864 0.001 7.4 6.55 9.65
6/21/2022 12:45:00 AM 15.47 59.846 0 7.39 6.15 9.66
6/21/2022 1:00:00 AM 15.52 59.936 0 7.37 6.41 9.63
6/21/2022 1:15:00 AM 15.49 59.882 0 7.37 6.21 9.64
6/21/2022 1:30:00 AM 15.46 59.828 0 7.35 6.36 9.65
6/21/2022 1:45:00 AM 15.55 59.99 0.001 7.34 6.94 9.62
6/21/2022 2:00:00 AM 15.52 59.936 0.001 7.36 7.07 9.63
6/21/2022 2:15:00 AM 15.37 59.666 0 7.35 6.23 9.67
6/21/2022 2:30:00 AM 15.29 59.522 0.001 7.37 6.5 9.68
6/21/2022 2:45:00 AM 15.24 59.432 0 7.36 6.13 9.7
6/21/2022 3:00:00 AM 15.19 59.342 0 7.34 6.3 9.71
6/21/2022 3:15:00 AM 15.14 59.252 0.001 7.37 6.59 9.72
6/21/2022 3:30:00 AM 15.2 59.36 0.001 7.36 6.6 9.71
6/21/2022 3:45:00 AM 15.17 59.306 0.001 7.4 6.72 9.72
6/21/2022 4:00:00 AM 15.12 59.216 0 7.35 6.32 9.73
6/21/2022 4:15:00 AM 15.15 59.27 0 7.34 6.31 9.73
6/21/2022 4:30:00 AM 15.14 59.252 0 7.33 6.3 9.74
6/21/2022 4:45:00 AM 15.16 59.288 0 7.32 6.43 9.74
6/21/2022 5:00:00 AM 15.26 59.468 0.001 7.36 6.61 9.71
6/21/2022 5:15:00 AM 15.3 59.54 0.001 7.35 6.65 9.7
6/21/2022 5:30:00 AM 15.29 59.522 0.001 7.35 6.73 9.69
6/21/2022 5:45:00 AM 15.16 59.288 0 7.38 6.24 9.73
6/21/2022 6:00:00 AM 15.19 59.342 0.001 7.37 6.84 9.72
6/21/2022 6:15:00 AM 15.19 59.342 0.001 7.37 7.03 9.72
6/21/2022 6:30:00 AM 15.15 59.27 0 7.39 6.22 9.74
6/21/2022 6:45:00 AM 15.22 59.396 0 7.38 6.69 9.72
6/21/2022 7:00:00 AM 15.29 59.522 0 7.37 6.36 9.71
6/21/2022 7:15:00 AM 15.34 59.612 0 7.38 6.39 9.7
6/21/2022 7:30:00 AM 15.43 59.774 0 7.35 6.41 9.67
6/21/2022 7:45:00 AM 15.42 59.756 0 7.37 6.44 9.68
6/21/2022 8:00:00 AM 15.38 59.684 0 7.38 6.5 9.69
6/21/2022 8:15:00 AM 15.52 59.936 0 7.4 6.48 9.66
6/21/2022 8:30:00 AM 15.6 60.08 0 7.4 6.44 9.64
6/21/2022 8:45:00 AM 15.81 60.458 0 7.4 6.59 9.58
6/21/2022 9:00:00 AM 16.13 61.034 0 7.42 6.45 9.5
6/21/2022 9:15:00 AM 16.31 61.358 0 7.41 6.63 9.48
6/21/2022 9:30:00 AM 16.5 61.7 0 7.41 6.37 9.44
6/21/2022 9:45:00 AM 16.71 62.078 0 7.43 6.19 9.4
6/21/2022 10:00:00 AM 16.95 62.51 0 7.42 6.2 9.34
6/21/2022 10:15:00 AM 17.24 63.032 0 7.21 6.41 9.26
6/21/2022 10:30:00 AM 17.5 63.5 0 7.37 6.22 9.23
6/21/2022 10:45:00 AM 17.87 64.166 0 7.39 6.32 9.16
6/21/2022 11:00:00 AM 18.14 64.652 0 7.33 6.17 9.1
6/21/2022 11:15:00 AM 18.43 65.174 0 7.37 6.21 9.05
6/21/2022 11:30:00 AM 18.73 65.714 0 7.38 6.05 8.99
6/21/2022 11:45:00 AM 18.91 66.038 0 7.15 6.17 8.95
6/21/2022 12:00:00 PM 19.24 66.632 0 7.33 6.19 8.91
6/21/2022 12:15:00 PM 19.56 67.208 0 7.29 6.06 8.85
6/21/2022 12:30:00 PM 19.9 67.82 0 7.25 6.09 8.77
6/21/2022 12:45:00 PM 20.26 68.468 0 7.13 6.06 8.7
6/21/2022 1:00:00 PM 20.54 68.972 0 7.12 6.11 8.67
6/21/2022 1:15:00 PM 20.98 69.764 0 7.33 5.97 8.6
6/21/2022 1:30:00 PM 21.33 70.394 0 7.33 5.91 8.55
6/21/2022 1:45:00 PM 21.65 70.97 0 7.12 5.82 8.46
6/21/2022 2:00:00 PM 21.99 71.582 0 7.2 5.84 8.44
6/21/2022 2:15:00 PM 22.39 72.302 0 7.18 5.7 8.35
6/21/2022 2:30:00 PM 22.72 72.896 0 7.28 5.78 8.31
6/21/2022 2:45:00 PM 22.96 73.328 0 7.05 5.86 8.27
6/21/2022 3:00:00 PM 23.22 73.796 0 7.19 5.84 8.23
6/21/2022 3:15:00 PM 23.75 74.75 0 7.12 5.72 8.13
6/21/2022 3:30:00 PM 24.67 76.406 0 7.14 5.8 7.96
6/21/2022 3:45:00 PM 25.02 77.036 0 7.03 5.74 7.91
6/21/2022 4:00:00 PM 25.5 77.9 0 7.07 5.8 7.84
6/21/2022 4:15:00 PM 25.73 78.314 0 7.09 5.66 7.81
6/21/2022 4:30:00 PM 25.7 78.26 0 7.01 5.45 7.82
6/21/2022 4:45:00 PM 25.5 77.9 0 6.97 5.55 7.82
6/21/2022 5:00:00 PM 25.48 77.864 0 7.03 6.07 7.86
6/21/2022 5:15:00 PM 25.5 77.9 0 6.99 5.91 7.86
6/21/2022 5:30:00 PM 25.62 78.116 0 6.99 6.07 7.83
6/21/2022 5:45:00 PM 25.62 78.116 0 7.04 5.79 7.84
6/21/2022 6:00:00 PM 26.49 79.682 0 6.97 5.59 7.67
6/21/2022 6:15:00 PM 25.98 78.764 0 6.99 5.95 7.75
6/21/2022 6:30:00 PM 25.39 77.702 0 7.09 6.2 7.87
6/21/2022 6:45:00 PM 24.86 76.748 0 7.09 6.14 7.89
6/21/2022 7:00:00 PM 24.28 75.704 0 7.11 5.85 8.05
6/21/2022 7:15:00 PM 24.19 75.542 0 7.3 5.69 8.06
6/21/2022 7:30:00 PM 23.85 74.93 0 7.36 5.55 8.12
6/21/2022 7:45:00 PM 23.71 74.67799 0 7.42 5.45 8.14
6/21/2022 8:00:00 PM 23.4 74.12 0 7.42 5.6 8.18
6/21/2022 8:15:00 PM 23.13 73.634 0 7.41 5.64 8.22
6/21/2022 8:30:00 PM 22.83 73.094 0 7.43 5.75 8.27
6/21/2022 8:45:00 PM 22.48 72.464 0 7.45 5.64 8.32
6/21/2022 9:00:00 PM 21.92 71.456 0 7.37 5.69 8.42
6/21/2022 9:15:00 PM 21.67 71.006 0 7.47 5.85 8.47
6/21/2022 9:30:00 PM 21.39 70.502 0 7.47 5.65 8.52
6/21/2022 9:45:00 PM 21.03 69.854 0 7.47 5.61 8.58
6/21/2022 10:00:00 PM 20.9 69.62 0 7.46 5.85 8.59
6/21/2022 10:15:00 PM 20.48 68.864 0 7.47 5.78 8.68
6/21/2022 10:30:00 PM 20.35 68.63 0 7.45 6 8.69
6/21/2022 10:45:00 PM 20.14 68.252 0 7.42 5.69 8.73
6/21/2022 11:00:00 PM 20.01 68.018 0 7.4 5.82 8.73
6/21/2022 11:15:00 PM 19.77 67.586 0 7.37 5.93 8.78
6/21/2022 11:30:00 PM 19.58 67.244 0 7.38 5.95 8.82
6/21/2022 11:45:00 PM 19.37 66.866 0 7.35 5.92 8.85
6/22/2022 12:00:00 AM 19.22 66.596 0 7.38 6.05 8.88
6/22/2022 12:15:00 AM 19.07 66.326 0 7.35 6.29 8.89
6/22/2022 12:30:00 AM 18.96 66.128 0 7.34 6.34 8.91
6/22/2022 12:45:00 AM 18.84 65.912 0 7.32 7.2 8.93
6/22/2022 1:00:00 AM 18.62 65.516 0 7.3 5.76 8.97
6/22/2022 1:15:00 AM 18.47 65.246 0 7.33 6.61 9
6/22/2022 1:30:00 AM 18.34 65.012 0 7.33 6.11 9.03
6/22/2022 1:45:00 AM 18.21 64.778 0 7.28 6.2 9.06
6/22/2022 2:00:00 AM 18.11 64.598 0 7.23 6.05 9.07
6/22/2022 2:15:00 AM 18.07 64.526 0 7.18 6.12 9.08
6/22/2022 2:30:00 AM 17.96 64.328 0 7.11 6.24 9.1
6/22/2022 2:45:00 AM 17.92 64.256 0 7.2 5.9 9.11
6/22/2022 3:00:00 AM 17.87 64.166 0 7.2 5.83 9.11
6/22/2022 3:15:00 AM 17.83 64.094 0 7.23 5.84 9.12
6/22/2022 3:30:00 AM 17.78 64.004 0 7.27 6.43 9.13
6/22/2022 3:45:00 AM 17.74 63.932 0 7.31 5.96 9.14
6/22/2022 4:00:00 AM 17.71 63.878 0 7.3 6.02 9.14
6/22/2022 4:15:00 AM 17.68 63.824 0 7.32 6.42 9.15
6/22/2022 4:30:00 AM 17.71 63.878 0 7.29 5.85 9.14
6/22/2022 4:45:00 AM 17.65 63.77 0 7.32 5.97 9.15
6/22/2022 5:00:00 AM 17.61 63.698 0 7.3 5.84 9.15
6/22/2022 5:15:00 AM 17.56 63.608 0 7.28 6.05 9.16
6/22/2022 5:30:00 AM 17.46 63.428 0 7.23 5.81 9.19
6/22/2022 5:45:00 AM 17.5 63.5 0 7.29 5.8 9.17
6/22/2022 6:00:00 AM 17.52 63.536 0 7.3 5.84 9.17
6/22/2022 6:15:00 AM 17.55 63.59 0.001 7.32 6.43 9.16
6/22/2022 6:30:00 AM 17.54 63.572 0 7.36 5.81 9.17
6/22/2022 6:45:00 AM 17.59 63.662 0 7.35 5.91 9.16
6/22/2022 7:00:00 AM 17.69 63.842 0 7.33 6.07 9.14
6/22/2022 7:15:00 AM 17.79 64.022 0 7.33 6.27 9.13
6/22/2022 7:30:00 AM 17.88 64.184 0 7.37 5.63 9.11
6/22/2022 7:45:00 AM 18 64.4 0 7.4 5.85 9.09
6/22/2022 8:00:00 AM 18.21 64.778 0 7.39 5.81 9.04
6/22/2022 8:15:00 AM 18.42 65.156 0 7.37 5.78 9
6/22/2022 8:30:00 AM 18.59 65.462 0 7.4 5.78 8.97
6/22/2022 8:45:00 AM 18.74 65.732 0 7.39 5.72 8.94
6/22/2022 9:00:00 AM 18.85 65.93 0 7.41 5.76 8.92
6/22/2022 9:15:00 AM 19.05 66.29 0 7.43 5.74 8.89
6/22/2022 9:30:00 AM 19.41 66.938 0 7.42 5.75 8.82
6/22/2022 9:45:00 AM 19.85 67.73 0 7.42 5.65 8.74
6/22/2022 10:00:00 AM 20.24 68.432 0 7.43 5.65 8.68
6/22/2022 10:15:00 AM 20.48 68.864 0 7.4 5.68 8.62
6/22/2022 10:30:00 AM 20.59 69.062 0 7.45 5.68 8.6
6/22/2022 10:45:00 AM 20.71 69.278 0 7.45 5.81 8.58
6/22/2022 11:00:00 AM 20.79 69.422 0 7.44 6.04 8.57
6/22/2022 11:15:00 AM 21 69.8 0 7.42 5.91 8.53
6/22/2022 11:30:00 AM 21.42 70.556 0 7.41 5.81 8.46
6/22/2022 11:45:00 AM 21.69 71.042 0 7.44 5.85 8.42
6/22/2022 12:00:00 PM 22.13 71.834 0 7.34 5.8 8.33
6/22/2022 12:15:00 PM 22.51 72.518 0 7.37 6.1 8.29
6/22/2022 12:30:00 PM 22.97 73.346 0 7.25 5.56 8.21
6/22/2022 12:45:00 PM 23.25 73.85 0 6.98 5.54 8.15
6/22/2022 1:00:00 PM 23.74 74.732 0 7.25 5.83 8.1
6/22/2022 1:15:00 PM 24.04 75.272 0 7.3 5.8 8.04
6/22/2022 1:30:00 PM 24.19 75.542 0 7.28 5.69 8.02
6/22/2022 1:45:00 PM 24.41 75.938 0 7.19 5.78 7.99
6/22/2022 2:00:00 PM 24.72 76.496 0 7.31 5.61 7.94
6/22/2022 2:15:00 PM 24.88 76.784 0 7.38 5.71 7.92
6/22/2022 2:30:00 PM 25.06 77.108 0 7.29 5.7 7.88
6/22/2022 2:45:00 PM 25.19 77.342 0 7.24 5.62 7.87
6/22/2022 3:00:00 PM 25.49 77.882 0 7.31 5.8 7.82
6/22/2022 3:15:00 PM 25.64 78.152 0 7.24 5.75 7.8
6/22/2022 3:30:00 PM 25.98 78.764 0 7.18 5.81 7.73
6/22/2022 3:45:00 PM 26.33 79.394 0 6.83 5.48 7.65
6/22/2022 4:00:00 PM 26.76 80.168 0 7.01 5.61 7.59
6/22/2022 4:15:00 PM 26.81 80.258 0 7.07 5.5 7.61
6/22/2022 4:30:00 PM 26.27 79.286 0 7.15 5.64 7.71
6/22/2022 4:45:00 PM 26.02 78.836 0 7.27 5.58 7.74
6/22/2022 5:00:00 PM 25.86 78.548 0 7.35 5.76 7.77
6/22/2022 5:15:00 PM 25.6 78.08 0 7.38 5.57 7.81
6/22/2022 5:30:00 PM 25.42 77.756 0 7.45 5.72 7.83
6/22/2022 5:45:00 PM 25.16 77.288 0 7.42 5.99 7.86
6/22/2022 6:00:00 PM 25.02 77.036 0 7.46 5.89 7.86
6/22/2022 6:15:00 PM 24.74 76.532 0 7.59 5.71 7.94
6/22/2022 6:30:00 PM 24.49 76.082 0 7.63 6.07 7.98
6/22/2022 6:45:00 PM 24.26 75.668 0 7.64 5.86 8.01
6/22/2022 7:00:00 PM 23.68 74.624 0 7.62 6.34 8.13
6/22/2022 7:15:00 PM 23.55 74.39 0 7.67 5.83 8.13
6/22/2022 7:30:00 PM 23.46 74.228 0 7.7 6.02 8.14
6/22/2022 7:45:00 PM 23.26 73.868 0 7.69 5.76 8.18
6/22/2022 8:00:00 PM 23.05 73.49 0 7.7 6.15 8.22
6/22/2022 8:15:00 PM 23.03 73.454 0 7.64 6.4 8.2
6/22/2022 8:30:00 PM 22.92 73.256 0 7.65 5.71 8.21
6/22/2022 8:45:00 PM 22.72 72.896 0 7.71 5.76 8.26
6/22/2022 9:00:00 PM 22.51 72.518 0 7.73 5.8 8.32
6/22/2022 9:15:00 PM 22.5 72.5 0 7.45 5.67 8.25
6/22/2022 9:30:00 PM 22.39 72.302 0 7.46 5.62 8.21
6/22/2022 9:45:00 PM 22.28 72.104 0 7.41 5.73 7.78
6/22/2022 10:00:00 PM 22.11 71.798 0 7.4 5.85 7.81
6/22/2022 10:15:00 PM 22.01 71.618 0 7.37 5.9 8.09
6/22/2022 10:30:00 PM 21.89 71.402 0 7.39 5.94 8.3
6/22/2022 10:45:00 PM 21.77 71.186 0 7.41 5.92 8.38
6/22/2022 11:00:00 PM 21.7 71.06 0 7.4 5.83 8.4
6/22/2022 11:15:00 PM 21.61 70.898 0 7.43 5.43 8.43
6/22/2022 11:30:00 PM 21.53 70.754 0 7.5 5.77 8.44
6/22/2022 11:45:00 PM 21.44 70.592 0 7.54 5.74 8.45
6/23/2022 12:00:00 AM 21.34 70.412 0 7.57 5.77 8.47
6/23/2022 12:15:00 AM 21.27 70.286 0 7.56 5.85 8.48
6/23/2022 12:30:00 AM 21.23 70.214 0 7.56 5.69 8.48
6/23/2022 12:45:00 AM 20.97 69.746 0 7.58 5.84 8.53
6/23/2022 1:00:00 AM 20.76 69.368 0 7.57 5.78 8.57
6/23/2022 1:15:00 AM 20.61 69.098 0 7.57 5.85 8.6
6/23/2022 1:30:00 AM 20.55 68.99 0 7.64 5.75 8.62
6/23/2022 1:45:00 AM 20.54 68.972 0 7.63 5.65 8.62
6/23/2022 2:00:00 AM 20.4 68.72 0 7.55 5.84 8.62
6/23/2022 2:15:00 AM 20.27 68.486 0 7.54 5.83 8.64
6/23/2022 2:30:00 AM 20.2 68.36 0 7.63 5.66 8.67
6/23/2022 2:45:00 AM 20.12 68.216 0 7.6 5.86 8.66
6/23/2022 3:00:00 AM 20.07 68.126 0 7.59 6.07 8.68
6/23/2022 3:15:00 AM 20.01 68.018 0 7.59 6.28 8.68
6/23/2022 3:30:00 AM 19.94 67.892 0 7.58 6.62 8.69
6/23/2022 3:45:00 AM 19.82 67.676 0 7.56 5.79 8.7
6/23/2022 4:00:00 AM 19.78 67.604 0 7.57 5.91 8.71
6/23/2022 4:15:00 AM 19.73 67.514 0 7.54 5.87 8.73
6/23/2022 4:30:00 AM 19.86 67.748 0 7.39 5.89 8.67
6/23/2022 4:45:00 AM 19.86 67.748 0 7.35 6.11 8.55
6/23/2022 5:00:00 AM 19.82 67.676 0 7.34 5.93 8.42
6/23/2022 5:15:00 AM 19.77 67.586 0 7.33 6.05 8.34
6/23/2022 5:30:00 AM 19.68 67.424 0 7.36 6.06 8.3
6/23/2022 5:45:00 AM 19.64 67.352 0 7.36 6.09 8.22
6/23/2022 6:00:00 AM 19.6 67.28 0 7.37 6.26 8.23
6/23/2022 6:15:00 AM 19.51 67.118 0 7.37 6.13 8.27
6/23/2022 6:30:00 AM 19.48 67.064 0 7.39 6.04 8.32
6/23/2022 6:45:00 AM 19.45 67.01 0 7.38 6.07 8.35
6/23/2022 7:00:00 AM 19.45 67.01 0 7.38 6.57 8.39
6/23/2022 7:15:00 AM 19.39 66.902 0 7.4 6.15 8.43
6/23/2022 7:30:00 AM 19.35 66.83 0 7.4 6.06 8.44
6/23/2022 7:45:00 AM 19.32 66.776 0 7.4 6.03 8.51
6/23/2022 8:00:00 AM 19.4 66.92 0 7.43 6.3 8.57
6/23/2022 8:15:00 AM 19.44 66.992 0 7.43 6.18 8.62
6/23/2022 8:30:00 AM 19.43 66.974 0 7.46 6.03 8.69
6/23/2022 8:45:00 AM 19.48 67.064 0 7.49 6.03 8.75
6/23/2022 9:00:00 AM 19.66 67.388 0 7.51 6.26 8.75
6/23/2022 9:15:00 AM 19.62 67.316 0 7.49 5.89 8.75
6/23/2022 9:30:00 AM 19.73 67.514 0 7.51 5.98 8.72
6/23/2022 9:45:00 AM 19.78 67.604 0 7.51 6 8.74
6/23/2022 10:00:00 AM 19.94 67.892 0 7.51 6.14 8.72
6/23/2022 10:15:00 AM 20 68 0 7.53 5.81 8.72
6/23/2022 10:30:00 AM 20.16 68.288 0 7.54 5.94 8.71
6/23/2022 10:45:00 AM 20.35 68.63 0 7.55 6.02 8.68
6/23/2022 11:00:00 AM 20.53 68.954 0 7.52 5.95 8.65
6/23/2022 11:15:00 AM 20.68 69.224 0 7.56 5.85 8.64
6/23/2022 11:30:00 AM 20.93 69.674 0 7.57 5.73 8.62
6/23/2022 11:45:00 AM 21.19 70.142 0 7.57 5.66 8.57
6/23/2022 12:00:00 PM 21.43 70.574 0 7.58 5.76 8.54
6/23/2022 12:15:00 PM 21.58 70.844 0 7.59 5.71 8.53
6/23/2022 12:30:00 PM 21.85 71.33 0 7.6 5.67 8.5
6/23/2022 12:45:00 PM 22.08 71.744 0 7.61 5.84 8.45
6/23/2022 1:00:00 PM 22.41 72.338 0 7.6 5.73 8.38
6/23/2022 1:15:00 PM 22.65 72.77 0 7.62 5.57 8.34
6/23/2022 1:30:00 PM 22.82 73.076 0 7.62 5.67 8.32
6/23/2022 1:45:00 PM 23.1 73.58 0 7.61 5.61 8.24
6/23/2022 2:00:00 PM 23.32 73.976 0 7.63 5.6 8.21
6/23/2022 2:15:00 PM 23.53 74.354 0 7.61 5.64 8.16
6/23/2022 2:30:00 PM 23.66 74.588 0 7.64 5.6 8.14
6/23/2022 2:45:00 PM 23.75 74.75 0 7.66 5.56 8.13
6/23/2022 3:00:00 PM 23.88 74.984 0 7.64 5.48 8.09
6/23/2022 3:15:00 PM 23.81 74.858 0 7.67 5.49 8.11
6/23/2022 3:30:00 PM 23.76 74.768 0 7.71 5.62 8.11
6/23/2022 3:45:00 PM 24.19 75.542 0 7.67 5.3 8.03
6/23/2022 4:00:00 PM 24.53 76.154 0 7.48 5.39 7.93
6/23/2022 4:15:00 PM 24.71 76.478 0 7.7 5.47 7.95
6/23/2022 4:30:00 PM 24.71 76.478 0 7.8 5.34 7.96
6/23/2022 4:45:00 PM 24.51 76.118 0 7.6 5.41 7.96
6/23/2022 5:00:00 PM 24.69 76.442 0 7.83 5.35 7.96
6/23/2022 5:15:00 PM 24.56 76.208 0 7.72 5.36 7.98
6/23/2022 5:30:00 PM 24.53 76.154 0 7.74 5.5 8.01
6/23/2022 5:45:00 PM 24.37 75.866 0 7.88 5.31 8.03
6/23/2022 6:00:00 PM 24.48 76.064 0 7.85 5.43 8
6/23/2022 6:15:00 PM 24.69 76.442 0 7.84 5.49 7.96
6/23/2022 6:30:00 PM 23.97 75.146 0 7.73 5.54 8.07
6/23/2022 6:45:00 PM 23.73 74.714 0 7.88 5.51 8.11
6/23/2022 7:00:00 PM 23.77 74.786 0 8.02 5.46 8.12
6/23/2022 7:15:00 PM 23.8 74.84 0 8.3 5.53 8.09
6/23/2022 7:30:00 PM 23.76 74.768 0 8.82 5.45 8.11
6/23/2022 7:45:00 PM 23.64 74.552 0 8.89 5.91 8.13
6/23/2022 8:00:00 PM 23.46 74.228 0 9.48 5.57 8.16
6/23/2022 8:15:00 PM 23.33 73.994 0 9.74 5.63 8.18
6/23/2022 8:30:00 PM 23.12 73.616 0 10 5.65 8.22
6/23/2022 8:45:00 PM 22.96 73.328 0 9.94 5.4 8.25
6/23/2022 9:00:00 PM 22.59 72.662 0 10.53 5.67 8.31
6/23/2022 9:15:00 PM 22.53 72.554 0 10.87 5.58 8.32
6/23/2022 9:30:00 PM 22.15 71.87 0 11.2 5.52 8.37
6/23/2022 9:45:00 PM 21.96 71.528 0 11.24 5.66 8.42
6/23/2022 10:00:00 PM 21.25 70.25 0 11.45 5.59 8.51
6/23/2022 10:15:00 PM 21.07 69.926 0 11.35 5.62 8.58
6/23/2022 10:30:00 PM 21.1 69.98 0 11.37 5.62 8.51
6/23/2022 10:45:00 PM 20.98 69.764 0 11.46 5.68 8.58
6/23/2022 11:00:00 PM 20.76 69.368 0 11.53 5.79 8.61
6/23/2022 11:15:00 PM 20.54 68.972 0 11.59 5.84 8.64
6/23/2022 11:30:00 PM 20.31 68.558 0 11.64 9.19 8.68
6/23/2022 11:45:00 PM 20.01 68.018 0 11.69 5.66 8.73
6/24/2022 12:00:00 AM 19.82 67.676 0 11.74 5.92 8.76
6/24/2022 12:15:00 AM 19.72 67.496 0 11.78 11.21 8.78
6/24/2022 12:30:00 AM 19.49 67.082 0 11.83 5.95 8.82
6/24/2022 12:45:00 AM 19.35 66.83 0 11.88 8.8 8.84
6/24/2022 1:00:00 AM 19.35 66.83 0 11.9 13.33 8.85
6/24/2022 1:15:00 AM 19.46 67.028 0 11.9 23.46 8.82
6/24/2022 1:30:00 AM 19.43 66.974 0 11.89 11.47 8.83
6/24/2022 1:45:00 AM 19.43 66.974 0 11.88 10.37 8.82
6/24/2022 2:00:00 AM 19.33 66.794 0 11.88 6.38 8.84
6/24/2022 2:15:00 AM 19.25 66.65 0 11.88 5.56 8.86
6/24/2022 2:30:00 AM 19.2 66.56 0 11.89 5.91 8.87
6/24/2022 2:45:00 AM 19.07 66.326 0 11.95 5.78 8.9
6/24/2022 3:00:00 AM 18.95 66.11 0 11.99 5.99 8.93
6/24/2022 3:15:00 AM 18.87 65.966 0 12.01 5.94 8.94
6/24/2022 3:30:00 AM 18.83 65.894 0 12 5.97 8.94
6/24/2022 3:45:00 AM 18.76 65.768 0 11.97 6.16 8.96
6/24/2022 4:00:00 AM 18.7 65.66 0 11.96 5.54 8.97
6/24/2022 4:15:00 AM 18.62 65.516 0 11.94 5.87 9
6/24/2022 4:30:00 AM 18.61 65.498 0 11.93 9.85 9
6/24/2022 4:45:00 AM 18.57 65.426 0 11.91 8.05 9.01
6/24/2022 5:00:00 AM 18.5 65.3 0 11.89 11.58 9
6/24/2022 5:15:00 AM 18.39 65.102 0 11.88 5.55 9.05
6/24/2022 5:30:00 AM 18.3 64.94 0 11.86 5.92 9.08
6/24/2022 5:45:00 AM 18.34 65.012 0 11.85 6.47 9.05
6/24/2022 6:00:00 AM 18.31 64.958 0 11.85 6.14 9.08
6/24/2022 6:15:00 AM 18.25 64.85 0 11.85 5.92 9.05
6/24/2022 6:30:00 AM 18.25 64.85 0 11.85 5.98 9.09
6/24/2022 6:45:00 AM 18.15 64.67 0 11.84 5.85 9.11
6/24/2022 7:00:00 AM 18.08 64.544 0 11.87 5.96 9.13
6/24/2022 7:15:00 AM 18.1 64.58 0 11.89 5.86 9.1
6/24/2022 7:30:00 AM 18.1 64.58 0 11.92 5.83 9.12
6/24/2022 7:45:00 AM 18.04 64.472 0 11.94 5.86 9.11
6/24/2022 8:00:00 AM 18.09 64.562 0 11.99 5.75 9.12
6/24/2022 8:15:00 AM 18.19 64.742 0 12.02 5.59 9.08
6/24/2022 8:30:00 AM 18.27 64.886 0 12.02 5.46 9.08
6/24/2022 8:45:00 AM 18.34 65.012 0 12.03 5.57 9.07
6/24/2022 9:00:00 AM 18.48 65.264 0 12.26 5.54 9.02
6/24/2022 9:15:00 AM 18.57 65.426 0 12.25 5.51 9.02
6/24/2022 9:30:00 AM 18.8 65.84 0 12.25 5.76 8.95
6/24/2022 9:45:00 AM 18.94 66.092 0 12.25 5.42 8.94
6/24/2022 10:00:00 AM 19.23 66.614 0 12.36 5.43 8.9
6/24/2022 10:15:00 AM 19.37 66.866 0 12.53 5.55 8.85
6/24/2022 10:30:00 AM 19.29 66.722 0 12.51 5.52 8.88
6/24/2022 10:45:00 AM 19.6 67.28 0 12.47 5.49 8.86
6/24/2022 11:00:00 AM 19.91 67.838 0 12.46 5.56 8.8
6/24/2022 11:15:00 AM 20.19 68.342 0 12.44 5.48 8.75
6/24/2022 11:30:00 AM 20.45 68.81 0 12.44 5.32 8.69
6/24/2022 11:45:00 AM 20.82 69.476 0 12.47 5.38 8.61
6/24/2022 12:00:00 PM 20.97 69.746 0 12.46 5.55 8.61
6/24/2022 12:15:00 PM 21.49 70.682 0 12.43 5.63 8.5
6/24/2022 12:30:00 PM 21.62 70.916 0 12.43 6.48 8.43
6/24/2022 12:45:00 PM 21.54 70.772 0 12.39 6.57 8.47
6/24/2022 1:00:00 PM 21.62 70.916 0 12.44 6.53 8.48
6/24/2022 1:15:00 PM 22.18 71.924 0 12.24 6.25 8.41
6/24/2022 1:30:00 PM 22.44 72.392 0 12.19 6.42 8.37
6/24/2022 1:45:00 PM 22.67 72.806 0 12.11 6.76 8.34
6/24/2022 2:00:00 PM 23.02 73.436 0 12.06 6.36 8.27
6/24/2022 2:15:00 PM 23.31 73.958 0 12.01 6.53 8.19
6/24/2022 2:30:00 PM 23.16 73.688 0 12.19 6.53 8.23
6/24/2022 2:45:00 PM 23.26 73.868 0 12.12 6.52 8.17
6/24/2022 3:00:00 PM 23.75 74.75 0 11.94 6.61 8.16
6/24/2022 3:15:00 PM 24.26 75.668 0 11.95 6.52 8.01
6/24/2022 3:30:00 PM 25.13 77.234 0 11.91 6.42 7.87
6/24/2022 3:45:00 PM 25.49 77.882 0 11.86 6.35 7.83
6/24/2022 4:00:00 PM 25.65 78.17 0 11.76 6.41 7.8
6/24/2022 4:15:00 PM 26.21 79.17799 0 11.81 6.35 7.72
6/24/2022 4:30:00 PM 26.21 79.17799 0 11.87 6.34 7.71
6/24/2022 4:45:00 PM 25.72 78.296 0 11.73 6.38 7.81
6/24/2022 5:00:00 PM 25.71 78.278 0 11.53 6.39 7.82
6/24/2022 5:15:00 PM 26.07 78.926 0 11.31 6.39 7.76
6/24/2022 5:30:00 PM 25.77 78.386 0 11.17 6.4 7.82
6/24/2022 5:45:00 PM 25.69 78.242 0 11.04 6.41 7.79
6/24/2022 6:00:00 PM 26.57 79.826 0 10.99 6.34 7.63
6/24/2022 6:15:00 PM 26.15 79.07 0 10.97 6.34 7.72
6/24/2022 6:30:00 PM 25.56 78.008 0 10.94 6.38 7.85
6/24/2022 6:45:00 PM 25.03 77.054 0 10.9 6.42 7.94
6/24/2022 7:00:00 PM 24.73 76.514 0 10.84 6.43 7.99
6/24/2022 7:15:00 PM 24.4 75.92 0 10.8 6.42 8.04
6/24/2022 7:30:00 PM 24.14 75.452 0 10.79 6.68 8.08
6/24/2022 7:45:00 PM 23.68 74.624 0 10.78 6.61 8.14
6/24/2022 8:00:00 PM 23.3 73.94 0 10.78 6.46 8.21
6/24/2022 8:15:00 PM 22.88 73.184 0 10.74 6.46 8.27
6/24/2022 8:30:00 PM 22.47 72.446 0 10.73 6.51 8.34
6/24/2022 8:45:00 PM 22.01 71.618 0 10.72 6.36 8.41
6/24/2022 9:00:00 PM 21.63 70.934 0 10.73 6.08 8.49
6/24/2022 9:15:00 PM 21.32 70.376 0 10.73 6.15 8.53
6/24/2022 9:30:00 PM 20.93 69.674 0 10.71 5.91 8.59
6/24/2022 9:45:00 PM 20.58 69.044 0 10.71 6.08 8.66
6/24/2022 10:00:00 PM 20.22 68.396 0 10.69 5.63 8.73
6/24/2022 10:15:00 PM 20.01 68.018 0 10.69 5.34 8.75
6/24/2022 10:30:00 PM 19.73 67.514 0 10.68 5.99 8.8
6/24/2022 10:45:00 PM 19.47 67.046 0 10.7 5.6 8.84
6/24/2022 11:00:00 PM 19.24 66.632 0 10.69 5.68 8.88
6/24/2022 11:15:00 PM 18.94 66.092 0 10.68 5.76 8.93
6/24/2022 11:30:00 PM 18.69 65.642 0 10.68 5.79 8.98
6/24/2022 11:45:00 PM 18.53 65.354 0 10.69 5.71 9.01
6/25/2022 12:00:00 AM 18.24 64.832 0 10.68 5.86 9.04
6/25/2022 12:15:00 AM 17.97 64.346 0 10.67 6.02 9.1
6/25/2022 12:30:00 AM 17.88 64.184 0 10.69 5.38 9.1
6/25/2022 12:45:00 AM 17.61 63.698 0 10.68 5.57 9.15
6/25/2022 1:00:00 AM 17.53 63.554 0 10.67 5.98 9.17
6/25/2022 1:15:00 AM 17.27 63.086 0 10.67 5.96 9.21
6/25/2022 1:30:00 AM 16.91 62.438 0 10.64 5.87 9.3
6/25/2022 1:45:00 AM 16.75 62.15 0 10.64 6.12 9.33
6/25/2022 2:00:00 AM 16.6 61.88 0 10.63 5.68 9.36
6/25/2022 2:15:00 AM 16.36 61.448 0 10.62 5.74 9.4
6/25/2022 2:30:00 AM 16.15 61.07 0 10.62 6.03 9.45
6/25/2022 2:45:00 AM 15.73 60.314 0 10.58 5.96 9.55
6/25/2022 3:00:00 AM 15.71 60.278 0 10.54 6.01 9.55
6/25/2022 3:15:00 AM 15.3 59.54 0 10.53 5.8 9.65
6/25/2022 3:30:00 AM 15.19 59.342 0 10.5 6.2 9.66
6/25/2022 3:45:00 AM 15.19 59.342 0 10.53 5.75 9.67
6/25/2022 4:00:00 AM 15.06 59.108 0 10.54 5.87 9.7
6/25/2022 4:15:00 AM 14.81 58.658 0 10.54 6 9.76
6/25/2022 4:30:00 AM 14.71 58.478 0 10.51 5.91 9.78
6/25/2022 4:45:00 AM 14.38 57.884 0 10.49 5.96 9.86
6/25/2022 5:00:00 AM 14.35 57.83 0 10.49 5.86 9.88
6/25/2022 5:15:00 AM 14.21 57.578 0 10.49 5.85 9.91
6/25/2022 5:30:00 AM 14.2 57.56 0 10.44 6.21 9.89
6/25/2022 5:45:00 AM 14.19 57.542 0 10.55 9.32 9.89
6/25/2022 6:00:00 AM 14.08 57.344 0 10.69 6.02 9.93
6/25/2022 6:15:00 AM 14.01 57.218 0 10.74 5.82 9.92
6/25/2022 6:30:00 AM 13.91 57.038 0 10.79 4.91 9.95
6/25/2022 6:45:00 AM 14.13 57.434 0 10.79 4.73 9.88
6/25/2022 7:00:00 AM 14.28 57.704 0 10.81 4.65 9.86
6/25/2022 7:15:00 AM 14.51 58.118 0 10.84 3.04 9.82
6/25/2022 7:30:00 AM 14.8 58.64 0 10.82 4.02 9.73
6/25/2022 7:45:00 AM 15.08 59.144 0 10.83 4.04 9.68
6/25/2022 8:00:00 AM 15.33 59.594 0 10.85 2.82 9.63
6/25/2022 8:15:00 AM 15.59 60.062 0 10.83 4.02 9.58
6/25/2022 8:30:00 AM 15.96 60.728 0 10.85 3.46 9.51
6/25/2022 8:45:00 AM 16.27 61.286 0 10.84 2.95 9.44
6/25/2022 9:00:00 AM 16.72 62.096 0 10.85 3.42 9.36
6/25/2022 9:15:00 AM 17.15 62.87 0 10.85 4.27 9.27
6/25/2022 9:30:00 AM 17.61 63.698 0 10.82 2.43 9.17
6/25/2022 9:45:00 AM 17.92 64.256 0 10.76 5.57 9.13
6/25/2022 10:00:00 AM 18.37 65.066 0 10.71 6.45 9.04
6/25/2022 10:15:00 AM 18.88 65.984 0 10.77 6.46 8.95
6/25/2022 10:30:00 AM 19.41 66.938 0 10.85 5.36 8.85
6/25/2022 10:45:00 AM 19.77 67.586 0 10.84 6.09 8.8
6/25/2022 11:00:00 AM 20.21 68.378 0 10.89 5.93 8.72
6/25/2022 11:15:00 AM 20.33 68.594 0 10.86 6.56 8.74
6/25/2022 11:30:00 AM 20.72 69.296 0 10.84 6.6 8.66
6/25/2022 11:45:00 AM 21.17 70.106 0 10.87 6.53 8.57
6/25/2022 12:00:00 PM 21.66 70.988 0 10.9 6.59 8.48
6/25/2022 12:15:00 PM 21.95 71.51 0 10.88 6.57 8.43
6/25/2022 12:30:00 PM 22.12 71.816 0 10.9 6.6 8.4
6/25/2022 12:45:00 PM 22.41 72.338 0 10.88 6.63 8.36
6/25/2022 1:00:00 PM 22.68 72.824 0 10.87 6.59 8.33
6/25/2022 1:15:00 PM 22.82 73.076 0 10.86 6.6 8.3
6/25/2022 1:30:00 PM 23.08 73.544 0 10.85 6.58 8.24
6/25/2022 1:45:00 PM 23.53 74.354 0 10.86 6.56 8.17
6/25/2022 2:00:00 PM 23.71 74.67799 0 10.85 6.6 8.15
6/25/2022 2:15:00 PM 24.03 75.254 0 10.83 6.54 8.11
6/25/2022 2:30:00 PM 24.41 75.938 0 10.85 6.55 8.03
6/25/2022 2:45:00 PM 24.66 76.388 0 10.86 6.57 8
6/25/2022 3:00:00 PM 24.86 76.748 0 10.86 6.54 7.96
6/25/2022 3:15:00 PM 25.5 77.9 0 10.84 6.52 7.85
6/25/2022 3:30:00 PM 26.73 80.114 0 10.83 6.5 7.6
6/25/2022 3:45:00 PM 27 80.6 0 10.85 6.43 7.6
6/25/2022 4:00:00 PM 27.48 81.464 0 10.86 6.39 7.54
6/25/2022 4:15:00 PM 28.05 82.49 0 10.86 6.34 7.46
6/25/2022 4:30:00 PM 27.78 82.004 0 10.88 6.35 7.5
6/25/2022 4:45:00 PM 27.27 81.086 0 10.93 6.37 7.59
6/25/2022 5:00:00 PM 27.24 81.032 0 10.92 5.82 7.54
6/25/2022 5:15:00 PM 27.43 81.374 0 10.95 6.61 7.55
6/25/2022 5:30:00 PM 27.57 81.626 0 10.91 6.69 7.53
6/25/2022 5:45:00 PM 27.23 81.014 0 10.9 6.67 7.59
6/25/2022 6:00:00 PM 27.6 81.68 0 10.89 6.59 7.5
6/25/2022 6:15:00 PM 27.2 80.96 0 10.89 6.56 7.58
6/25/2022 6:30:00 PM 26.42 79.556 0 10.89 6.64 7.69
6/25/2022 6:45:00 PM 26.22 79.196 0 10.87 6.7 7.73
6/25/2022 7:00:00 PM 25.74 78.332 0 10.86 6.72 7.8
6/25/2022 7:15:00 PM 25.46 77.828 0 10.85 6.78 7.85
6/25/2022 7:30:00 PM 25.19 77.342 0 10.85 6.69 7.89
6/25/2022 7:45:00 PM 24.92 76.856 0 10.85 6.77 7.92
6/25/2022 8:00:00 PM 24.59 76.262 0 10.85 6.83 7.97
6/25/2022 8:15:00 PM 24.22 75.596 0 10.85 7.04 8.02
6/25/2022 8:30:00 PM 23.85 74.93 0 10.85 7.64 8.07
6/25/2022 8:45:00 PM 23.4 74.12 0 10.84 7.85 8.14
6/25/2022 9:00:00 PM 22.88 73.184 0 10.84 8.08 8.24
6/25/2022 9:15:00 PM 22.43 72.374 0 10.84 8.09 8.3
6/25/2022 9:30:00 PM 22.12 71.816 0 10.85 7.99 8.35
6/25/2022 9:45:00 PM 21.67 71.006 0 10.84 12.02 8.43
6/25/2022 10:00:00 PM 21.34 70.412 0 10.86 8.6 8.48
6/25/2022 10:15:00 PM 20.94 69.692 0 10.87 9.29 8.54
6/25/2022 10:30:00 PM 20.67 69.206 0 10.87 10.86 8.58
6/25/2022 10:45:00 PM 20.4 68.72 0 10.87 9.6 8.63
6/25/2022 11:00:00 PM 20.09 68.162 0 10.87 10.38 8.69
6/25/2022 11:15:00 PM 19.84 67.712 0 10.88 9.68 8.73
6/25/2022 11:30:00 PM 19.58 67.244 0 10.89 9.99 8.79
6/25/2022 11:45:00 PM 19.32 66.776 0 10.89 11.1 8.84
6/26/2022 12:00:00 AM 19.12 66.416 0 10.91 10.18 8.87
6/26/2022 12:15:00 AM 18.91 66.038 0 10.91 10.39 8.91
6/26/2022 12:30:00 AM 18.65 65.57 0 10.91 10.83 8.94
6/26/2022 12:45:00 AM 18.48 65.264 0 10.92 10.3 8.98
6/26/2022 1:00:00 AM 18.28 64.904 0 10.93 9.81 9.01
6/26/2022 1:15:00 AM 18.11 64.598 0 10.93 9.07 9.04
6/26/2022 1:30:00 AM 17.93 64.274 0 10.94 8.96 9.07
6/26/2022 1:45:00 AM 17.72 63.896 0 10.94 8.18 9.12
6/26/2022 2:00:00 AM 17.51 63.518 0 10.94 8.21 9.16
6/26/2022 2:15:00 AM 17.31 63.158 0 10.94 7.08 9.2
6/26/2022 2:30:00 AM 17.16 62.888 0 10.95 6.86 9.23
6/26/2022 2:45:00 AM 17.01 62.618 0 10.95 4.22 9.27
6/26/2022 3:00:00 AM 16.82 62.276 0 10.96 4.66 9.3
6/26/2022 3:15:00 AM 16.68 62.024 0 10.96 3.26 9.32
6/26/2022 3:30:00 AM 16.53 61.754 0 10.96 4.51 9.36
6/26/2022 3:45:00 AM 16.46 61.628 0 10.96 3.24 9.36
6/26/2022 4:00:00 AM 16.3 61.34 0 10.97 3.29 9.4
6/26/2022 4:15:00 AM 16.22 61.196 0 10.98 3.15 9.41
6/26/2022 4:30:00 AM 16.16 61.088 0 10.97 3.73 9.42
6/26/2022 4:45:00 AM 15.92 60.656 0 10.98 2.48 9.48
6/26/2022 5:00:00 AM 15.87 60.566 0 10.97 2.81 9.49
6/26/2022 5:15:00 AM 15.78 60.404 0 10.98 2.76 9.52
6/26/2022 5:30:00 AM 15.59 60.062 0 10.98 4.32 9.56
6/26/2022 5:45:00 AM 15.66 60.188 0 10.98 3.1 9.54
6/26/2022 6:00:00 AM 15.5 59.9 0 10.99 6.12 9.13
6/26/2022 6:15:00 AM 15.45 59.81 0 11.04 6.93 9.6
6/26/2022 6:30:00 AM 15.39 59.702 0 11.04 6.88 9.6
6/26/2022 6:45:00 AM 15.45 59.81 0 11.05 7.9 9.6
6/26/2022 7:00:00 AM 15.63 60.134 0 11.05 7.06 9.54
6/26/2022 7:15:00 AM 15.84 60.512 0 11.04 14.78 9.5
6/26/2022 7:30:00 AM 16.13 61.034 0 11.05 6.42 9.43
6/26/2022 7:45:00 AM 16.36 61.448 0 11.03 10.89 9.39
6/26/2022 8:00:00 AM 16.65 61.97 0 11.05 5.18 9.33
6/26/2022 8:15:00 AM 17.09 62.762 0 11.02 10.38 9.24
6/26/2022 8:30:00 AM 17.51 63.518 0 11.04 5.86 9.15
6/26/2022 8:45:00 AM 17.93 64.274 0 11.02 9.29 9.07
6/26/2022 9:00:00 AM 18.43 65.174 0 11.04 4.22 8.97
6/26/2022 9:15:00 AM 18.95 66.11 0 11.04 4.28 8.86
6/26/2022 9:30:00 AM 19.34 66.812 0 11.03 4.57 8.81
6/26/2022 9:45:00 AM 19.82 67.676 0 11.04 4.79 8.71
6/26/2022 10:00:00 AM 20.3 68.54 0 11.05 4.99 8.64
6/26/2022 10:15:00 AM 20.76 69.368 0 11.04 6.26 8.56
6/26/2022 10:30:00 AM 21.16 70.088 0 11.05 6.24 8.51
6/26/2022 10:45:00 AM 21.65 70.97 0 11.05 6.53 8.44
6/26/2022 11:00:00 AM 22.11 71.798 0 11.05 6.57 8.34
6/26/2022 11:15:00 AM 22.6 72.68 0 11.03 6.73 8.24
6/26/2022 11:30:00 AM 22.97 73.346 0 11.02 6.8 8.2
6/26/2022 11:45:00 AM 23.39 74.102 0 11.02 6.78 8.13
6/26/2022 12:00:00 PM 23.82 74.876 0 11.02 6.95 8.05
6/26/2022 12:15:00 PM 24.11 75.398 0 11.02 9.6 8.03
6/26/2022 12:30:00 PM 24.53 76.154 0 11.02 7.79 7.97
6/26/2022 12:45:00 PM 24.71 76.478 0 11.02 8.57 7.92
6/26/2022 1:00:00 PM 24.95 76.91 0 11.02 7.62 7.91
6/26/2022 1:15:00 PM 25.08 77.144 0 11.01 605.81 7.88
6/26/2022 1:30:00 PM 24.98 76.964 0 11 9.21 7.91
6/26/2022 1:45:00 PM 25 77 0 10.99 8.06 7.89
6/26/2022 2:00:00 PM 24.98 76.964 0 10.99 8.22 7.88
6/26/2022 2:15:00 PM 25.23 77.414 0 10.98 10.08 7.84
6/26/2022 2:30:00 PM 25.16 77.288 0 11 8.28 7.85
6/26/2022 2:45:00 PM 25.07 77.126 0 11 8.14 7.87
6/26/2022 3:00:00 PM 24.91 76.838 0 10.99 8.53 7.88
6/26/2022 3:15:00 PM 24.68 76.424 0 10.99 8.84 7.91
6/26/2022 3:30:00 PM 24.38 75.884 0 10.99 9.02 7.98
6/26/2022 3:45:00 PM 24.16 75.488 0 10.99 9.07 8.01
6/26/2022 4:00:00 PM 24.13 75.434 0 10.99 9.18 8.01
6/26/2022 4:15:00 PM 24.03 75.254 0 10.98 9.4 8.02
6/26/2022 4:30:00 PM 24.21 75.578 0 10.97 9.55 7.99
6/26/2022 4:45:00 PM 24.47 76.046 0 10.97 9.43 7.94
6/26/2022 5:00:00 PM 24.6 76.28 0 10.96 8.82 7.92
6/26/2022 5:15:00 PM 24.67 76.406 0 10.96 9.87 7.92
6/26/2022 5:30:00 PM 24.4 75.92 0 10.97 10.8 7.97
6/26/2022 5:45:00 PM 24.12 75.416 0 10.97 9.37 8.02
6/26/2022 6:00:00 PM 23.92 75.056 0 10.97 9.4 8.04
6/26/2022 6:15:00 PM 23.88 74.984 0 10.97 9.24 8.05
6/26/2022 6:30:00 PM 23.79 74.82201 0 10.97 9.09 8.06
6/26/2022 6:45:00 PM 23.64 74.552 0 10.98 9.23 8.07
6/26/2022 7:00:00 PM 23.49 74.282 0 10.99 9.41 8.11
6/26/2022 7:15:00 PM 23.28 73.904 0 10.99 9.3 8.14
6/26/2022 7:30:00 PM 23.12 73.616 0 11 9.17 8.17
6/26/2022 7:45:00 PM 22.98 73.364 0 11 9.2 8.19
6/26/2022 8:00:00 PM 22.85 73.13 0 11.01 9.11 8.21
6/26/2022 8:15:00 PM 22.68 72.824 0 11.02 9.07 8.23
6/26/2022 8:30:00 PM 22.53 72.554 0 11.02 8.98 8.25
6/26/2022 8:45:00 PM 22.38 72.284 0 11.03 9.01 8.28
6/26/2022 9:00:00 PM 22.15 71.87 0 11.04 8.84 8.32
6/26/2022 9:15:00 PM 21.94 71.492 0 11.05 8.7 8.35
6/26/2022 9:30:00 PM 21.8 71.24 0 11.06 8.58 8.38
6/26/2022 9:45:00 PM 21.62 70.916 0 11.06 8.22 8.4
6/26/2022 10:00:00 PM 21.48 70.664 0 11.05 8.06 8.42
6/26/2022 10:15:00 PM 21.35 70.43 0 11.06 7.79 8.44
6/26/2022 10:30:00 PM 21.27 70.286 0 11.06 7.53 8.45
6/26/2022 10:45:00 PM 21.14 70.052 0 11.06 7.37 8.47
6/26/2022 11:00:00 PM 21.07 69.926 0 11.08 6.81 8.48
6/26/2022 11:15:00 PM 21 69.8 0 11.07 5.49 8.49
6/26/2022 11:30:00 PM 20.92 69.656 0 11.07 3 8.5
6/26/2022 11:45:00 PM 20.93 69.674 0 11.07 3 8.5
6/27/2022 12:00:00 AM 20.91 69.638 0 11.07 2.92 8.5
6/27/2022 12:15:00 AM 20.84 69.512 0 11.07 2.99 8.51
6/27/2022 12:30:00 AM 20.78 69.404 0 11.07 2.89 8.52
6/27/2022 12:45:00 AM 20.72 69.296 0 11.07 2.76 8.53
6/27/2022 1:00:00 AM 20.68 69.224 0 11.07 2.8 8.54
6/27/2022 1:15:00 AM 20.63 69.134 0 11.08 2.85 8.55
6/27/2022 1:30:00 AM 20.58 69.044 0 11.08 2.83 8.55
6/27/2022 1:45:00 AM 20.57 69.026 0 11.08 2.87 8.55
6/27/2022 2:00:00 AM 20.56 69.008 0 11.08 2.96 8.56
6/27/2022 2:15:00 AM 20.53 68.954 0 11.08 2.7 8.56
6/27/2022 2:30:00 AM 20.53 68.954 0.001 11.08 2.63 8.56
6/27/2022 2:45:00 AM 20.52 68.936 0.001 11.08 2.92 8.56
6/27/2022 3:00:00 AM 20.51 68.918 0.001 11.09 2.82 8.57
6/27/2022 3:15:00 AM 20.5 68.9 0.001 11.08 2.94 8.57
6/27/2022 3:30:00 AM 20.48 68.864 0.001 11.09 2.91 8.58
6/27/2022 3:45:00 AM 20.45 68.81 0.001 11.09 3.02 8.59
6/27/2022 4:00:00 AM 20.44 68.792 0.001 11.08 2.86 8.59
6/27/2022 4:15:00 AM 20.39 68.702 0.001 11.08 3.02 8.6
6/27/2022 4:30:00 AM 20.36 68.648 0.001 11.09 2.86 8.61
6/27/2022 4:45:00 AM 20.33 68.594 0.001 11.1 3.03 8.61
6/27/2022 5:00:00 AM 20.29 68.522 0.001 11.09 3 8.62
6/27/2022 5:15:00 AM 20.24 68.432 0.001 11.09 3.01 8.63
6/27/2022 5:30:00 AM 20.15 68.27 0.001 11.1 3.21 8.66
6/27/2022 5:45:00 AM 20 68 0.001 11.11 3.05 8.69
6/27/2022 6:00:00 AM 19.79 67.622 0 11.1 2.86 8.73
6/27/2022 6:15:00 AM 19.64 67.352 0 11.11 3.19 8.76
6/27/2022 6:30:00 AM 19.51 67.118 0 11.1 3.28 8.78
6/27/2022 6:45:00 AM 19.46 67.028 0.001 11.1 3.14 8.79
6/27/2022 7:00:00 AM 19.42 66.956 0.001 11.09 2.96 8.79
6/27/2022 7:15:00 AM 19.15 66.47 0 11.1 2.94 8.85
6/27/2022 7:30:00 AM 18.86 65.948 0 11.1 11.27 8.91
6/27/2022 7:45:00 AM 18.84 65.912 0.001 11.12 3.1 8.91
6/27/2022 8:00:00 AM 18.91 66.038 0.001 11.14 3.19 8.89
6/27/2022 8:15:00 AM 18.9 66.02 0 11.07 3.04 8.91
6/27/2022 8:30:00 AM 18.86 65.948 0 11.05 2.93 8.91
6/27/2022 8:45:00 AM 18.73 65.714 0 11.14 2.86 8.92
6/27/2022 9:00:00 AM 18.72 65.696 0 11.16 3.05 8.94
6/27/2022 9:15:00 AM 18.8 65.84 0 11.12 3.17 8.93
6/27/2022 9:30:00 AM 18.75 65.75 0 11.11 3.14 8.93
6/27/2022 9:45:00 AM 19.05 66.29 0 11.15 2.78 8.87
6/27/2022 10:00:00 AM 19.16 66.488 0 11.15 3.04 8.86
6/27/2022 10:15:00 AM 19.31 66.758 0 11.12 3.11 8.83
6/27/2022 10:30:00 AM 19.46 67.028 0.001 11.25 2.78 8.82
6/27/2022 10:45:00 AM 19.44 66.992 0 11.24 3.02 8.82
6/27/2022 11:00:00 AM 19.63 67.334 0 11.2 2.93 8.77
6/27/2022 11:15:00 AM 19.64 67.352 0 11.23 3.1 8.77
6/27/2022 11:30:00 AM 19.79 67.622 0 11.2 3.07 8.75
6/27/2022 11:45:00 AM 20.09 68.162 0 11.39 2.97 8.7
6/27/2022 12:00:00 PM 20.32 68.576 0 11.35 2.93 8.65
6/27/2022 12:15:00 PM 20.24 68.432 0.001 11.35 2.86 8.73
6/27/2022 12:30:00 PM 20.32 68.576 0 11.45